<?xml version="1.0" encoding="UTF-8" standalone="no" ?>
<gpx xmlns="http://www.topografix.com/GPX/1/1" xmlns:xsi="http://www.w3.org/2001/XMLSchema-instance" xsi:schemaLocation="http://www.topografix.com/GPX/1/1 http://www.topografix.com/GPX/1/1/gpx.xsd" version="1.1" creator="VisuGPX - https://www.visugpx.com">
  <metadata>
    <name>Soum de Male par Bué</name>
    <desc><![CDATA[Randonnée à skis au Soum de Male au départ des Granges de Bué.]]></desc>
  </metadata>
  <trk>
    <name><![CDATA[Tracé actuel: 20 AVR 2017 08:11]]></name>
    <trkseg>
      <trkpt lat="42.79716" lon="-0.01665">
        <ele>1235.92</ele>
        <time>2017-04-20T06:11:57Z</time>
      </trkpt>
      <trkpt lat="42.79746" lon="-0.01725">
        <ele>1425.57</ele>
        <time>2017-04-20T06:12:23Z</time>
      </trkpt>
      <trkpt lat="42.79745" lon="-0.01727">
        <ele>1430.18</ele>
        <time>2017-04-20T06:12:42Z</time>
      </trkpt>
      <trkpt lat="42.79743" lon="-0.01726">
        <ele>1428.4</ele>
        <time>2017-04-20T06:13:03Z</time>
      </trkpt>
      <trkpt lat="42.79747" lon="-0.01731">
        <ele>1427.67</ele>
        <time>2017-04-20T06:13:17Z</time>
      </trkpt>
      <trkpt lat="42.79748" lon="-0.01732">
        <ele>1428.97</ele>
        <time>2017-04-20T06:13:41Z</time>
      </trkpt>
      <trkpt lat="42.79748" lon="-0.01732">
        <ele>1430.46</ele>
        <time>2017-04-20T06:14:17Z</time>
      </trkpt>
      <trkpt lat="42.79749" lon="-0.01731">
        <ele>1430.43</ele>
        <time>2017-04-20T06:14:31Z</time>
      </trkpt>
      <trkpt lat="42.79748" lon="-0.01729">
        <ele>1430.01</ele>
        <time>2017-04-20T06:14:48Z</time>
      </trkpt>
      <trkpt lat="42.79749" lon="-0.01729">
        <ele>1429.07</ele>
        <time>2017-04-20T06:15:11Z</time>
      </trkpt>
      <trkpt lat="42.79749" lon="-0.01731">
        <ele>1429.94</ele>
        <time>2017-04-20T06:15:37Z</time>
      </trkpt>
      <trkpt lat="42.79747" lon="-0.01741">
        <ele>1430.75</ele>
        <time>2017-04-20T06:15:51Z</time>
      </trkpt>
      <trkpt lat="42.79739" lon="-0.01758">
        <ele>1433.59</ele>
        <time>2017-04-20T06:16:10Z</time>
      </trkpt>
      <trkpt lat="42.79725" lon="-0.01769">
        <ele>1436.29</ele>
        <time>2017-04-20T06:16:29Z</time>
      </trkpt>
      <trkpt lat="42.79722" lon="-0.01776">
        <ele>1437.75</ele>
        <time>2017-04-20T06:16:38Z</time>
      </trkpt>
      <trkpt lat="42.79721" lon="-0.01779">
        <ele>1437.99</ele>
        <time>2017-04-20T06:16:40Z</time>
      </trkpt>
      <trkpt lat="42.79718" lon="-0.01795">
        <ele>1438.66</ele>
        <time>2017-04-20T06:16:55Z</time>
      </trkpt>
      <trkpt lat="42.79709" lon="-0.0181">
        <ele>1438.65</ele>
        <time>2017-04-20T06:17:11Z</time>
      </trkpt>
      <trkpt lat="42.79702" lon="-0.01827">
        <ele>1438.45</ele>
        <time>2017-04-20T06:17:28Z</time>
      </trkpt>
      <trkpt lat="42.79698" lon="-0.01845">
        <ele>1438.03</ele>
        <time>2017-04-20T06:17:45Z</time>
      </trkpt>
      <trkpt lat="42.79691" lon="-0.01859">
        <ele>1439.91</ele>
        <time>2017-04-20T06:18:02Z</time>
      </trkpt>
      <trkpt lat="42.7969" lon="-0.01866">
        <ele>1441.01</ele>
        <time>2017-04-20T06:18:09Z</time>
      </trkpt>
      <trkpt lat="42.7969" lon="-0.01869">
        <ele>1441.53</ele>
        <time>2017-04-20T06:18:11Z</time>
      </trkpt>
      <trkpt lat="42.79691" lon="-0.01891">
        <ele>1445.8</ele>
        <time>2017-04-20T06:18:29Z</time>
      </trkpt>
      <trkpt lat="42.79688" lon="-0.01911">
        <ele>1447.64</ele>
        <time>2017-04-20T06:18:45Z</time>
      </trkpt>
      <trkpt lat="42.79683" lon="-0.01921">
        <ele>1447.18</ele>
        <time>2017-04-20T06:18:58Z</time>
      </trkpt>
      <trkpt lat="42.79684" lon="-0.01925">
        <ele>1447.52</ele>
        <time>2017-04-20T06:19:01Z</time>
      </trkpt>
      <trkpt lat="42.79685" lon="-0.01951">
        <ele>1452.35</ele>
        <time>2017-04-20T06:19:19Z</time>
      </trkpt>
      <trkpt lat="42.79686" lon="-0.01976">
        <ele>1455.96</ele>
        <time>2017-04-20T06:19:38Z</time>
      </trkpt>
      <trkpt lat="42.79686" lon="-0.01997">
        <ele>1456.17</ele>
        <time>2017-04-20T06:19:56Z</time>
      </trkpt>
      <trkpt lat="42.79686" lon="-0.02018">
        <ele>1457.3</ele>
        <time>2017-04-20T06:20:15Z</time>
      </trkpt>
      <trkpt lat="42.79685" lon="-0.02038">
        <ele>1459.6</ele>
        <time>2017-04-20T06:20:33Z</time>
      </trkpt>
      <trkpt lat="42.79681" lon="-0.02048">
        <ele>1460.01</ele>
        <time>2017-04-20T06:20:45Z</time>
      </trkpt>
      <trkpt lat="42.79676" lon="-0.02058">
        <ele>1461.37</ele>
        <time>2017-04-20T06:20:58Z</time>
      </trkpt>
      <trkpt lat="42.79672" lon="-0.02057">
        <ele>1461.82</ele>
        <time>2017-04-20T06:21:02Z</time>
      </trkpt>
      <trkpt lat="42.79666" lon="-0.02068">
        <ele>1463.39</ele>
        <time>2017-04-20T06:21:16Z</time>
      </trkpt>
      <trkpt lat="42.79662" lon="-0.02081">
        <ele>1465.92</ele>
        <time>2017-04-20T06:21:32Z</time>
      </trkpt>
      <trkpt lat="42.79654" lon="-0.02093">
        <ele>1468.07</ele>
        <time>2017-04-20T06:21:48Z</time>
      </trkpt>
      <trkpt lat="42.79645" lon="-0.02105">
        <ele>1472.3</ele>
        <time>2017-04-20T06:22:04Z</time>
      </trkpt>
      <trkpt lat="42.79636" lon="-0.02113">
        <ele>1478.24</ele>
        <time>2017-04-20T06:22:20Z</time>
      </trkpt>
      <trkpt lat="42.79639" lon="-0.02131">
        <ele>1480.87</ele>
        <time>2017-04-20T06:22:36Z</time>
      </trkpt>
      <trkpt lat="42.79639" lon="-0.02149">
        <ele>1484.01</ele>
        <time>2017-04-20T06:22:54Z</time>
      </trkpt>
      <trkpt lat="42.79635" lon="-0.02168">
        <ele>1487.97</ele>
        <time>2017-04-20T06:23:13Z</time>
      </trkpt>
      <trkpt lat="42.79632" lon="-0.02185">
        <ele>1491.94</ele>
        <time>2017-04-20T06:23:32Z</time>
      </trkpt>
      <trkpt lat="42.79624" lon="-0.02196">
        <ele>1494.95</ele>
        <time>2017-04-20T06:23:49Z</time>
      </trkpt>
      <trkpt lat="42.79616" lon="-0.02203">
        <ele>1497.77</ele>
        <time>2017-04-20T06:24:08Z</time>
      </trkpt>
      <trkpt lat="42.79612" lon="-0.0222">
        <ele>1500.06</ele>
        <time>2017-04-20T06:24:26Z</time>
      </trkpt>
      <trkpt lat="42.79607" lon="-0.02235">
        <ele>1502.61</ele>
        <time>2017-04-20T06:24:44Z</time>
      </trkpt>
      <trkpt lat="42.79606" lon="-0.0224">
        <ele>1502.93</ele>
        <time>2017-04-20T06:24:50Z</time>
      </trkpt>
      <trkpt lat="42.796" lon="-0.02253">
        <ele>1505.04</ele>
        <time>2017-04-20T06:25:07Z</time>
      </trkpt>
      <trkpt lat="42.79595" lon="-0.02267">
        <ele>1507.32</ele>
        <time>2017-04-20T06:25:24Z</time>
      </trkpt>
      <trkpt lat="42.79592" lon="-0.02283">
        <ele>1510.33</ele>
        <time>2017-04-20T06:25:41Z</time>
      </trkpt>
      <trkpt lat="42.79582" lon="-0.02298">
        <ele>1514.47</ele>
        <time>2017-04-20T06:26:01Z</time>
      </trkpt>
      <trkpt lat="42.79575" lon="-0.02313">
        <ele>1517.73</ele>
        <time>2017-04-20T06:26:19Z</time>
      </trkpt>
      <trkpt lat="42.79568" lon="-0.02317">
        <ele>1521.78</ele>
        <time>2017-04-20T06:26:34Z</time>
      </trkpt>
      <trkpt lat="42.7956" lon="-0.02316">
        <ele>1524.98</ele>
        <time>2017-04-20T06:26:50Z</time>
      </trkpt>
      <trkpt lat="42.79554" lon="-0.02307">
        <ele>1527.9</ele>
        <time>2017-04-20T06:27:05Z</time>
      </trkpt>
      <trkpt lat="42.79544" lon="-0.02315">
        <ele>1529.35</ele>
        <time>2017-04-20T06:27:22Z</time>
      </trkpt>
      <trkpt lat="42.79539" lon="-0.02315">
        <ele>1527.78</ele>
        <time>2017-04-20T06:27:27Z</time>
      </trkpt>
      <trkpt lat="42.79533" lon="-0.02322">
        <ele>1527.05</ele>
        <time>2017-04-20T06:27:35Z</time>
      </trkpt>
      <trkpt lat="42.7953" lon="-0.02337">
        <ele>1527.98</ele>
        <time>2017-04-20T06:27:52Z</time>
      </trkpt>
      <trkpt lat="42.79527" lon="-0.02352">
        <ele>1530.99</ele>
        <time>2017-04-20T06:28:09Z</time>
      </trkpt>
      <trkpt lat="42.79526" lon="-0.02375">
        <ele>1531.59</ele>
        <time>2017-04-20T06:28:29Z</time>
      </trkpt>
      <trkpt lat="42.79528" lon="-0.02382">
        <ele>1532.34</ele>
        <time>2017-04-20T06:28:34Z</time>
      </trkpt>
      <trkpt lat="42.79529" lon="-0.02403">
        <ele>1535.25</ele>
        <time>2017-04-20T06:28:53Z</time>
      </trkpt>
      <trkpt lat="42.79525" lon="-0.02413">
        <ele>1539.73</ele>
        <time>2017-04-20T06:29:09Z</time>
      </trkpt>
      <trkpt lat="42.7952" lon="-0.02419">
        <ele>1541.57</ele>
        <time>2017-04-20T06:29:23Z</time>
      </trkpt>
      <trkpt lat="42.79522" lon="-0.0243">
        <ele>1544.36</ele>
        <time>2017-04-20T06:29:35Z</time>
      </trkpt>
      <trkpt lat="42.79525" lon="-0.02446">
        <ele>1549.24</ele>
        <time>2017-04-20T06:29:54Z</time>
      </trkpt>
      <trkpt lat="42.79526" lon="-0.02462">
        <ele>1553.84</ele>
        <time>2017-04-20T06:30:11Z</time>
      </trkpt>
      <trkpt lat="42.79526" lon="-0.02477">
        <ele>1558.74</ele>
        <time>2017-04-20T06:30:31Z</time>
      </trkpt>
      <trkpt lat="42.79524" lon="-0.02489">
        <ele>1560.37</ele>
        <time>2017-04-20T06:30:46Z</time>
      </trkpt>
      <trkpt lat="42.79522" lon="-0.02498">
        <ele>1561.75</ele>
        <time>2017-04-20T06:30:58Z</time>
      </trkpt>
      <trkpt lat="42.79523" lon="-0.02512">
        <ele>1563.69</ele>
        <time>2017-04-20T06:31:16Z</time>
      </trkpt>
      <trkpt lat="42.7952" lon="-0.02526">
        <ele>1564.05</ele>
        <time>2017-04-20T06:31:33Z</time>
      </trkpt>
      <trkpt lat="42.79518" lon="-0.02542">
        <ele>1564.97</ele>
        <time>2017-04-20T06:31:50Z</time>
      </trkpt>
      <trkpt lat="42.79517" lon="-0.02548">
        <ele>1565.03</ele>
        <time>2017-04-20T06:31:56Z</time>
      </trkpt>
      <trkpt lat="42.79516" lon="-0.02565">
        <ele>1564.59</ele>
        <time>2017-04-20T06:32:12Z</time>
      </trkpt>
      <trkpt lat="42.79517" lon="-0.0258">
        <ele>1565.21</ele>
        <time>2017-04-20T06:32:30Z</time>
      </trkpt>
      <trkpt lat="42.79522" lon="-0.02596">
        <ele>1564.48</ele>
        <time>2017-04-20T06:32:50Z</time>
      </trkpt>
      <trkpt lat="42.79522" lon="-0.02614">
        <ele>1566.34</ele>
        <time>2017-04-20T06:33:11Z</time>
      </trkpt>
      <trkpt lat="42.79522" lon="-0.02623">
        <ele>1568.77</ele>
        <time>2017-04-20T06:33:29Z</time>
      </trkpt>
      <trkpt lat="42.79521" lon="-0.02639">
        <ele>1572.1</ele>
        <time>2017-04-20T06:33:47Z</time>
      </trkpt>
      <trkpt lat="42.79523" lon="-0.02655">
        <ele>1575.6</ele>
        <time>2017-04-20T06:34:07Z</time>
      </trkpt>
      <trkpt lat="42.7952" lon="-0.02666">
        <ele>1579.58</ele>
        <time>2017-04-20T06:34:25Z</time>
      </trkpt>
      <trkpt lat="42.79515" lon="-0.02673">
        <ele>1584.35</ele>
        <time>2017-04-20T06:34:41Z</time>
      </trkpt>
      <trkpt lat="42.7951" lon="-0.02667">
        <ele>1588.44</ele>
        <time>2017-04-20T06:34:57Z</time>
      </trkpt>
      <trkpt lat="42.79508" lon="-0.0267">
        <ele>1590.88</ele>
        <time>2017-04-20T06:35:11Z</time>
      </trkpt>
      <trkpt lat="42.79507" lon="-0.02679">
        <ele>1595.5</ele>
        <time>2017-04-20T06:35:27Z</time>
      </trkpt>
      <trkpt lat="42.79506" lon="-0.02689">
        <ele>1597.73</ele>
        <time>2017-04-20T06:35:43Z</time>
      </trkpt>
      <trkpt lat="42.79503" lon="-0.02699">
        <ele>1601.9</ele>
        <time>2017-04-20T06:36:01Z</time>
      </trkpt>
      <trkpt lat="42.795" lon="-0.02711">
        <ele>1604.76</ele>
        <time>2017-04-20T06:36:20Z</time>
      </trkpt>
      <trkpt lat="42.79496" lon="-0.02724">
        <ele>1604.96</ele>
        <time>2017-04-20T06:36:39Z</time>
      </trkpt>
      <trkpt lat="42.79491" lon="-0.02733">
        <ele>1606.71</ele>
        <time>2017-04-20T06:36:56Z</time>
      </trkpt>
      <trkpt lat="42.79486" lon="-0.02741">
        <ele>1610.04</ele>
        <time>2017-04-20T06:37:13Z</time>
      </trkpt>
      <trkpt lat="42.79481" lon="-0.02745">
        <ele>1612.91</ele>
        <time>2017-04-20T06:37:29Z</time>
      </trkpt>
      <trkpt lat="42.79475" lon="-0.02747">
        <ele>1616.89</ele>
        <time>2017-04-20T06:37:45Z</time>
      </trkpt>
      <trkpt lat="42.79469" lon="-0.02754">
        <ele>1617.51</ele>
        <time>2017-04-20T06:38:02Z</time>
      </trkpt>
      <trkpt lat="42.79464" lon="-0.02761">
        <ele>1618.92</ele>
        <time>2017-04-20T06:38:17Z</time>
      </trkpt>
      <trkpt lat="42.7946" lon="-0.0277">
        <ele>1620.56</ele>
        <time>2017-04-20T06:38:36Z</time>
      </trkpt>
      <trkpt lat="42.79456" lon="-0.0278">
        <ele>1624.66</ele>
        <time>2017-04-20T06:38:56Z</time>
      </trkpt>
      <trkpt lat="42.79452" lon="-0.02793">
        <ele>1626.08</ele>
        <time>2017-04-20T06:39:21Z</time>
      </trkpt>
      <trkpt lat="42.79448" lon="-0.02806">
        <ele>1628.6</ele>
        <time>2017-04-20T06:39:43Z</time>
      </trkpt>
      <trkpt lat="42.79444" lon="-0.02818">
        <ele>1634.33</ele>
        <time>2017-04-20T06:40:04Z</time>
      </trkpt>
      <trkpt lat="42.7944" lon="-0.02816">
        <ele>1637.46</ele>
        <time>2017-04-20T06:40:18Z</time>
      </trkpt>
      <trkpt lat="42.79437" lon="-0.02823">
        <ele>1640.61</ele>
        <time>2017-04-20T06:40:38Z</time>
      </trkpt>
      <trkpt lat="42.79435" lon="-0.02831">
        <ele>1642.74</ele>
        <time>2017-04-20T06:40:53Z</time>
      </trkpt>
      <trkpt lat="42.79428" lon="-0.02835">
        <ele>1646.06</ele>
        <time>2017-04-20T06:41:10Z</time>
      </trkpt>
      <trkpt lat="42.79421" lon="-0.02838">
        <ele>1649.22</ele>
        <time>2017-04-20T06:41:31Z</time>
      </trkpt>
      <trkpt lat="42.79415" lon="-0.02845">
        <ele>1652.15</ele>
        <time>2017-04-20T06:41:50Z</time>
      </trkpt>
      <trkpt lat="42.79411" lon="-0.02854">
        <ele>1657.4</ele>
        <time>2017-04-20T06:42:05Z</time>
      </trkpt>
      <trkpt lat="42.79407" lon="-0.0286">
        <ele>1660.41</ele>
        <time>2017-04-20T06:42:20Z</time>
      </trkpt>
      <trkpt lat="42.79402" lon="-0.02861">
        <ele>1663.33</ele>
        <time>2017-04-20T06:42:33Z</time>
      </trkpt>
      <trkpt lat="42.79398" lon="-0.02863">
        <ele>1666.7</ele>
        <time>2017-04-20T06:42:49Z</time>
      </trkpt>
      <trkpt lat="42.79395" lon="-0.02868">
        <ele>1668.23</ele>
        <time>2017-04-20T06:43:04Z</time>
      </trkpt>
      <trkpt lat="42.79391" lon="-0.02874">
        <ele>1672.82</ele>
        <time>2017-04-20T06:43:21Z</time>
      </trkpt>
      <trkpt lat="42.79386" lon="-0.02882">
        <ele>1675.96</ele>
        <time>2017-04-20T06:43:39Z</time>
      </trkpt>
      <trkpt lat="42.79378" lon="-0.02887">
        <ele>1679.78</ele>
        <time>2017-04-20T06:43:56Z</time>
      </trkpt>
      <trkpt lat="42.79367" lon="-0.02889">
        <ele>1680.46</ele>
        <time>2017-04-20T06:44:13Z</time>
      </trkpt>
      <trkpt lat="42.79361" lon="-0.02897">
        <ele>1680.5</ele>
        <time>2017-04-20T06:44:29Z</time>
      </trkpt>
      <trkpt lat="42.79357" lon="-0.02905">
        <ele>1682.34</ele>
        <time>2017-04-20T06:44:46Z</time>
      </trkpt>
      <trkpt lat="42.7935" lon="-0.02911">
        <ele>1686.22</ele>
        <time>2017-04-20T06:45:03Z</time>
      </trkpt>
      <trkpt lat="42.79344" lon="-0.02911">
        <ele>1687.69</ele>
        <time>2017-04-20T06:45:18Z</time>
      </trkpt>
      <trkpt lat="42.79334" lon="-0.02915">
        <ele>1689.53</ele>
        <time>2017-04-20T06:45:35Z</time>
      </trkpt>
      <trkpt lat="42.79327" lon="-0.02917">
        <ele>1691.58</ele>
        <time>2017-04-20T06:45:52Z</time>
      </trkpt>
      <trkpt lat="42.79325" lon="-0.02919">
        <ele>1693.12</ele>
        <time>2017-04-20T06:46:18Z</time>
      </trkpt>
      <trkpt lat="42.79317" lon="-0.02927">
        <ele>1694.48</ele>
        <time>2017-04-20T06:46:36Z</time>
      </trkpt>
      <trkpt lat="42.79308" lon="-0.02933">
        <ele>1695.76</ele>
        <time>2017-04-20T06:46:52Z</time>
      </trkpt>
      <trkpt lat="42.79303" lon="-0.02936">
        <ele>1697.21</ele>
        <time>2017-04-20T06:47:04Z</time>
      </trkpt>
      <trkpt lat="42.79293" lon="-0.02937">
        <ele>1699.39</ele>
        <time>2017-04-20T06:47:18Z</time>
      </trkpt>
      <trkpt lat="42.79288" lon="-0.0294">
        <ele>1701.13</ele>
        <time>2017-04-20T06:47:35Z</time>
      </trkpt>
      <trkpt lat="42.79279" lon="-0.02947">
        <ele>1703.71</ele>
        <time>2017-04-20T06:47:53Z</time>
      </trkpt>
      <trkpt lat="42.79272" lon="-0.02952">
        <ele>1707.49</ele>
        <time>2017-04-20T06:48:07Z</time>
      </trkpt>
      <trkpt lat="42.79266" lon="-0.02955">
        <ele>1711.18</ele>
        <time>2017-04-20T06:48:25Z</time>
      </trkpt>
      <trkpt lat="42.79261" lon="-0.02951">
        <ele>1713.31</ele>
        <time>2017-04-20T06:48:40Z</time>
      </trkpt>
      <trkpt lat="42.79258" lon="-0.02948">
        <ele>1714.7</ele>
        <time>2017-04-20T06:48:56Z</time>
      </trkpt>
      <trkpt lat="42.7925" lon="-0.0295">
        <ele>1716.39</ele>
        <time>2017-04-20T06:49:14Z</time>
      </trkpt>
      <trkpt lat="42.79243" lon="-0.02954">
        <ele>1719.42</ele>
        <time>2017-04-20T06:49:33Z</time>
      </trkpt>
      <trkpt lat="42.79241" lon="-0.02952">
        <ele>1720.43</ele>
        <time>2017-04-20T06:49:54Z</time>
      </trkpt>
      <trkpt lat="42.79234" lon="-0.02951">
        <ele>1722.46</ele>
        <time>2017-04-20T06:50:10Z</time>
      </trkpt>
      <trkpt lat="42.79227" lon="-0.02956">
        <ele>1725.6</ele>
        <time>2017-04-20T06:50:26Z</time>
      </trkpt>
      <trkpt lat="42.7922" lon="-0.02961">
        <ele>1729.79</ele>
        <time>2017-04-20T06:50:47Z</time>
      </trkpt>
      <trkpt lat="42.79216" lon="-0.02961">
        <ele>1732.08</ele>
        <time>2017-04-20T06:51:04Z</time>
      </trkpt>
      <trkpt lat="42.79212" lon="-0.02966">
        <ele>1734.22</ele>
        <time>2017-04-20T06:51:20Z</time>
      </trkpt>
      <trkpt lat="42.79207" lon="-0.02965">
        <ele>1736.87</ele>
        <time>2017-04-20T06:51:35Z</time>
      </trkpt>
      <trkpt lat="42.792" lon="-0.02964">
        <ele>1738.99</ele>
        <time>2017-04-20T06:51:52Z</time>
      </trkpt>
      <trkpt lat="42.79193" lon="-0.02964">
        <ele>1740.88</ele>
        <time>2017-04-20T06:52:05Z</time>
      </trkpt>
      <trkpt lat="42.79192" lon="-0.02958">
        <ele>1742.55</ele>
        <time>2017-04-20T06:52:19Z</time>
      </trkpt>
      <trkpt lat="42.79194" lon="-0.02944">
        <ele>1746.92</ele>
        <time>2017-04-20T06:52:38Z</time>
      </trkpt>
      <trkpt lat="42.79196" lon="-0.02931">
        <ele>1751.21</ele>
        <time>2017-04-20T06:52:58Z</time>
      </trkpt>
      <trkpt lat="42.79194" lon="-0.02924">
        <ele>1754.55</ele>
        <time>2017-04-20T06:53:14Z</time>
      </trkpt>
      <trkpt lat="42.79185" lon="-0.02924">
        <ele>1759.28</ele>
        <time>2017-04-20T06:53:32Z</time>
      </trkpt>
      <trkpt lat="42.79178" lon="-0.02925">
        <ele>1762.53</ele>
        <time>2017-04-20T06:53:48Z</time>
      </trkpt>
      <trkpt lat="42.7917" lon="-0.02927">
        <ele>1765.6</ele>
        <time>2017-04-20T06:54:03Z</time>
      </trkpt>
      <trkpt lat="42.79169" lon="-0.02922">
        <ele>1768.19</ele>
        <time>2017-04-20T06:54:18Z</time>
      </trkpt>
      <trkpt lat="42.79171" lon="-0.02912">
        <ele>1770.12</ele>
        <time>2017-04-20T06:54:34Z</time>
      </trkpt>
      <trkpt lat="42.7917" lon="-0.02904">
        <ele>1772.46</ele>
        <time>2017-04-20T06:54:48Z</time>
      </trkpt>
      <trkpt lat="42.79165" lon="-0.02902">
        <ele>1775.82</ele>
        <time>2017-04-20T06:55:05Z</time>
      </trkpt>
      <trkpt lat="42.79165" lon="-0.02892">
        <ele>1779.64</ele>
        <time>2017-04-20T06:55:22Z</time>
      </trkpt>
      <trkpt lat="42.7916" lon="-0.02891">
        <ele>1782.31</ele>
        <time>2017-04-20T06:55:35Z</time>
      </trkpt>
      <trkpt lat="42.79159" lon="-0.02887">
        <ele>1784.51</ele>
        <time>2017-04-20T06:55:51Z</time>
      </trkpt>
      <trkpt lat="42.79156" lon="-0.0288">
        <ele>1787.15</ele>
        <time>2017-04-20T06:56:07Z</time>
      </trkpt>
      <trkpt lat="42.7915" lon="-0.02879">
        <ele>1789.03</ele>
        <time>2017-04-20T06:56:23Z</time>
      </trkpt>
      <trkpt lat="42.79144" lon="-0.02878">
        <ele>1791.04</ele>
        <time>2017-04-20T06:56:36Z</time>
      </trkpt>
      <trkpt lat="42.79139" lon="-0.02877">
        <ele>1793.46</ele>
        <time>2017-04-20T06:56:53Z</time>
      </trkpt>
      <trkpt lat="42.79135" lon="-0.02871">
        <ele>1796.87</ele>
        <time>2017-04-20T06:57:09Z</time>
      </trkpt>
      <trkpt lat="42.79127" lon="-0.02871">
        <ele>1800.03</ele>
        <time>2017-04-20T06:57:26Z</time>
      </trkpt>
      <trkpt lat="42.7912" lon="-0.0287">
        <ele>1802.45</ele>
        <time>2017-04-20T06:57:44Z</time>
      </trkpt>
      <trkpt lat="42.79117" lon="-0.02863">
        <ele>1805.11</ele>
        <time>2017-04-20T06:58:01Z</time>
      </trkpt>
      <trkpt lat="42.79118" lon="-0.02854">
        <ele>1806.95</ele>
        <time>2017-04-20T06:58:16Z</time>
      </trkpt>
      <trkpt lat="42.79117" lon="-0.02844">
        <ele>1808.71</ele>
        <time>2017-04-20T06:58:32Z</time>
      </trkpt>
      <trkpt lat="42.79112" lon="-0.02844">
        <ele>1811.1</ele>
        <time>2017-04-20T06:58:46Z</time>
      </trkpt>
      <trkpt lat="42.79107" lon="-0.0284">
        <ele>1813.87</ele>
        <time>2017-04-20T06:59:00Z</time>
      </trkpt>
      <trkpt lat="42.79101" lon="-0.02838">
        <ele>1816.54</ele>
        <time>2017-04-20T06:59:15Z</time>
      </trkpt>
      <trkpt lat="42.79099" lon="-0.02829">
        <ele>1819.17</ele>
        <time>2017-04-20T06:59:30Z</time>
      </trkpt>
      <trkpt lat="42.79095" lon="-0.02824">
        <ele>1821.86</ele>
        <time>2017-04-20T06:59:45Z</time>
      </trkpt>
      <trkpt lat="42.79092" lon="-0.02817">
        <ele>1823.73</ele>
        <time>2017-04-20T07:00:00Z</time>
      </trkpt>
      <trkpt lat="42.79086" lon="-0.02811">
        <ele>1825.95</ele>
        <time>2017-04-20T07:00:16Z</time>
      </trkpt>
      <trkpt lat="42.7908" lon="-0.02805">
        <ele>1828.88</ele>
        <time>2017-04-20T07:00:32Z</time>
      </trkpt>
      <trkpt lat="42.79074" lon="-0.02802">
        <ele>1831.12</ele>
        <time>2017-04-20T07:00:48Z</time>
      </trkpt>
      <trkpt lat="42.79068" lon="-0.028">
        <ele>1833.5</ele>
        <time>2017-04-20T07:01:04Z</time>
      </trkpt>
      <trkpt lat="42.7906" lon="-0.02799">
        <ele>1836.42</ele>
        <time>2017-04-20T07:01:22Z</time>
      </trkpt>
      <trkpt lat="42.79055" lon="-0.02799">
        <ele>1838.94</ele>
        <time>2017-04-20T07:01:36Z</time>
      </trkpt>
      <trkpt lat="42.7905" lon="-0.0279">
        <ele>1841.59</ele>
        <time>2017-04-20T07:01:54Z</time>
      </trkpt>
      <trkpt lat="42.79043" lon="-0.02793">
        <ele>1844.64</ele>
        <time>2017-04-20T07:02:13Z</time>
      </trkpt>
      <trkpt lat="42.79036" lon="-0.02795">
        <ele>1847.2</ele>
        <time>2017-04-20T07:02:30Z</time>
      </trkpt>
      <trkpt lat="42.79033" lon="-0.02781">
        <ele>1849.86</ele>
        <time>2017-04-20T07:02:47Z</time>
      </trkpt>
      <trkpt lat="42.7903" lon="-0.02771">
        <ele>1852.57</ele>
        <time>2017-04-20T07:03:02Z</time>
      </trkpt>
      <trkpt lat="42.79024" lon="-0.02769">
        <ele>1854.85</ele>
        <time>2017-04-20T07:03:17Z</time>
      </trkpt>
      <trkpt lat="42.79015" lon="-0.02767">
        <ele>1858.51</ele>
        <time>2017-04-20T07:03:35Z</time>
      </trkpt>
      <trkpt lat="42.79009" lon="-0.0276">
        <ele>1862</ele>
        <time>2017-04-20T07:03:53Z</time>
      </trkpt>
      <trkpt lat="42.79002" lon="-0.02756">
        <ele>1865.41</ele>
        <time>2017-04-20T07:04:10Z</time>
      </trkpt>
      <trkpt lat="42.78996" lon="-0.02751">
        <ele>1868.2</ele>
        <time>2017-04-20T07:04:27Z</time>
      </trkpt>
      <trkpt lat="42.7899" lon="-0.02748">
        <ele>1870.62</ele>
        <time>2017-04-20T07:04:44Z</time>
      </trkpt>
      <trkpt lat="42.78982" lon="-0.02745">
        <ele>1873.97</ele>
        <time>2017-04-20T07:05:02Z</time>
      </trkpt>
      <trkpt lat="42.78977" lon="-0.0274">
        <ele>1876.16</ele>
        <time>2017-04-20T07:05:16Z</time>
      </trkpt>
      <trkpt lat="42.78972" lon="-0.02736">
        <ele>1876.52</ele>
        <time>2017-04-20T07:05:34Z</time>
      </trkpt>
      <trkpt lat="42.78972" lon="-0.02737">
        <ele>1875.61</ele>
        <time>2017-04-20T07:06:01Z</time>
      </trkpt>
      <trkpt lat="42.78972" lon="-0.02737">
        <ele>1874.44</ele>
        <time>2017-04-20T07:06:48Z</time>
      </trkpt>
      <trkpt lat="42.78972" lon="-0.02736">
        <ele>1874.84</ele>
        <time>2017-04-20T07:07:50Z</time>
      </trkpt>
      <trkpt lat="42.78972" lon="-0.02736">
        <ele>1877.61</ele>
        <time>2017-04-20T07:08:48Z</time>
      </trkpt>
      <trkpt lat="42.78972" lon="-0.02738">
        <ele>1877.6</ele>
        <time>2017-04-20T07:09:24Z</time>
      </trkpt>
      <trkpt lat="42.78971" lon="-0.02735">
        <ele>1877.57</ele>
        <time>2017-04-20T07:10:11Z</time>
      </trkpt>
      <trkpt lat="42.78971" lon="-0.02737">
        <ele>1878.46</ele>
        <time>2017-04-20T07:10:47Z</time>
      </trkpt>
      <trkpt lat="42.78971" lon="-0.02737">
        <ele>1878.13</ele>
        <time>2017-04-20T07:11:23Z</time>
      </trkpt>
      <trkpt lat="42.7897" lon="-0.02737">
        <ele>1877.5</ele>
        <time>2017-04-20T07:11:57Z</time>
      </trkpt>
      <trkpt lat="42.78971" lon="-0.02737">
        <ele>1877.88</ele>
        <time>2017-04-20T07:12:25Z</time>
      </trkpt>
      <trkpt lat="42.78971" lon="-0.02738">
        <ele>1876.85</ele>
        <time>2017-04-20T07:12:53Z</time>
      </trkpt>
      <trkpt lat="42.78973" lon="-0.02736">
        <ele>1876.78</ele>
        <time>2017-04-20T07:13:21Z</time>
      </trkpt>
      <trkpt lat="42.78972" lon="-0.02736">
        <ele>1876.66</ele>
        <time>2017-04-20T07:13:57Z</time>
      </trkpt>
      <trkpt lat="42.78972" lon="-0.02736">
        <ele>1876.98</ele>
        <time>2017-04-20T07:14:30Z</time>
      </trkpt>
      <trkpt lat="42.78969" lon="-0.02739">
        <ele>1878.16</ele>
        <time>2017-04-20T07:14:46Z</time>
      </trkpt>
      <trkpt lat="42.78961" lon="-0.02749">
        <ele>1879.77</ele>
        <time>2017-04-20T07:15:03Z</time>
      </trkpt>
      <trkpt lat="42.78957" lon="-0.02752">
        <ele>1880.15</ele>
        <time>2017-04-20T07:15:35Z</time>
      </trkpt>
      <trkpt lat="42.78946" lon="-0.02761">
        <ele>1883.09</ele>
        <time>2017-04-20T07:15:54Z</time>
      </trkpt>
      <trkpt lat="42.78936" lon="-0.02768">
        <ele>1885.91</ele>
        <time>2017-04-20T07:16:13Z</time>
      </trkpt>
      <trkpt lat="42.78924" lon="-0.02777">
        <ele>1888.48</ele>
        <time>2017-04-20T07:16:33Z</time>
      </trkpt>
      <trkpt lat="42.78913" lon="-0.02783">
        <ele>1891.11</ele>
        <time>2017-04-20T07:16:51Z</time>
      </trkpt>
      <trkpt lat="42.78906" lon="-0.02794">
        <ele>1893.09</ele>
        <time>2017-04-20T07:17:08Z</time>
      </trkpt>
      <trkpt lat="42.78896" lon="-0.02807">
        <ele>1895.89</ele>
        <time>2017-04-20T07:17:28Z</time>
      </trkpt>
      <trkpt lat="42.78884" lon="-0.02819">
        <ele>1898.25</ele>
        <time>2017-04-20T07:17:49Z</time>
      </trkpt>
      <trkpt lat="42.78873" lon="-0.02828">
        <ele>1900.26</ele>
        <time>2017-04-20T07:18:08Z</time>
      </trkpt>
      <trkpt lat="42.78862" lon="-0.02833">
        <ele>1902.2</ele>
        <time>2017-04-20T07:18:26Z</time>
      </trkpt>
      <trkpt lat="42.78851" lon="-0.02838">
        <ele>1904.31</ele>
        <time>2017-04-20T07:18:45Z</time>
      </trkpt>
      <trkpt lat="42.78845" lon="-0.0284">
        <ele>1905.62</ele>
        <time>2017-04-20T07:18:58Z</time>
      </trkpt>
      <trkpt lat="42.78831" lon="-0.02844">
        <ele>1909.05</ele>
        <time>2017-04-20T07:19:18Z</time>
      </trkpt>
      <trkpt lat="42.78817" lon="-0.02848">
        <ele>1910.72</ele>
        <time>2017-04-20T07:19:35Z</time>
      </trkpt>
      <trkpt lat="42.78816" lon="-0.02849">
        <ele>1910.72</ele>
        <time>2017-04-20T07:19:37Z</time>
      </trkpt>
      <trkpt lat="42.78803" lon="-0.02865">
        <ele>1911.25</ele>
        <time>2017-04-20T07:19:57Z</time>
      </trkpt>
      <trkpt lat="42.78796" lon="-0.02883">
        <ele>1912.81</ele>
        <time>2017-04-20T07:20:15Z</time>
      </trkpt>
      <trkpt lat="42.78792" lon="-0.02904">
        <ele>1912.69</ele>
        <time>2017-04-20T07:20:35Z</time>
      </trkpt>
      <trkpt lat="42.78791" lon="-0.02907">
        <ele>1912.4</ele>
        <time>2017-04-20T07:20:39Z</time>
      </trkpt>
      <trkpt lat="42.78789" lon="-0.02925">
        <ele>1911.83</ele>
        <time>2017-04-20T07:20:57Z</time>
      </trkpt>
      <trkpt lat="42.78789" lon="-0.02924">
        <ele>1912.42</ele>
        <time>2017-04-20T07:21:36Z</time>
      </trkpt>
      <trkpt lat="42.78785" lon="-0.02941">
        <ele>1912.21</ele>
        <time>2017-04-20T07:21:53Z</time>
      </trkpt>
      <trkpt lat="42.78782" lon="-0.02958">
        <ele>1912.89</ele>
        <time>2017-04-20T07:22:08Z</time>
      </trkpt>
      <trkpt lat="42.78779" lon="-0.0297">
        <ele>1913.38</ele>
        <time>2017-04-20T07:22:23Z</time>
      </trkpt>
      <trkpt lat="42.78774" lon="-0.02988">
        <ele>1914.44</ele>
        <time>2017-04-20T07:22:41Z</time>
      </trkpt>
      <trkpt lat="42.78772" lon="-0.02992">
        <ele>1914.49</ele>
        <time>2017-04-20T07:22:46Z</time>
      </trkpt>
      <trkpt lat="42.78768" lon="-0.03008">
        <ele>1915.24</ele>
        <time>2017-04-20T07:23:03Z</time>
      </trkpt>
      <trkpt lat="42.78763" lon="-0.03023">
        <ele>1916.86</ele>
        <time>2017-04-20T07:23:21Z</time>
      </trkpt>
      <trkpt lat="42.78757" lon="-0.03039">
        <ele>1917.92</ele>
        <time>2017-04-20T07:23:38Z</time>
      </trkpt>
      <trkpt lat="42.78751" lon="-0.03053">
        <ele>1919.81</ele>
        <time>2017-04-20T07:23:55Z</time>
      </trkpt>
      <trkpt lat="42.78741" lon="-0.03067">
        <ele>1921.65</ele>
        <time>2017-04-20T07:24:13Z</time>
      </trkpt>
      <trkpt lat="42.78733" lon="-0.03078">
        <ele>1922.35</ele>
        <time>2017-04-20T07:24:28Z</time>
      </trkpt>
      <trkpt lat="42.78725" lon="-0.03092">
        <ele>1923.05</ele>
        <time>2017-04-20T07:24:47Z</time>
      </trkpt>
      <trkpt lat="42.78718" lon="-0.03105">
        <ele>1924.11</ele>
        <time>2017-04-20T07:25:03Z</time>
      </trkpt>
      <trkpt lat="42.78711" lon="-0.0312">
        <ele>1925.77</ele>
        <time>2017-04-20T07:25:20Z</time>
      </trkpt>
      <trkpt lat="42.78711" lon="-0.03122">
        <ele>1924.6</ele>
        <time>2017-04-20T07:25:41Z</time>
      </trkpt>
      <trkpt lat="42.78706" lon="-0.03135">
        <ele>1924.98</ele>
        <time>2017-04-20T07:26:00Z</time>
      </trkpt>
      <trkpt lat="42.78701" lon="-0.03149">
        <ele>1925.01</ele>
        <time>2017-04-20T07:26:18Z</time>
      </trkpt>
      <trkpt lat="42.78695" lon="-0.03164">
        <ele>1926.46</ele>
        <time>2017-04-20T07:26:35Z</time>
      </trkpt>
      <trkpt lat="42.78688" lon="-0.03179">
        <ele>1928.56</ele>
        <time>2017-04-20T07:26:54Z</time>
      </trkpt>
      <trkpt lat="42.78681" lon="-0.03194">
        <ele>1930.96</ele>
        <time>2017-04-20T07:27:12Z</time>
      </trkpt>
      <trkpt lat="42.78673" lon="-0.0321">
        <ele>1932.14</ele>
        <time>2017-04-20T07:27:29Z</time>
      </trkpt>
      <trkpt lat="42.78669" lon="-0.03219">
        <ele>1933.46</ele>
        <time>2017-04-20T07:27:39Z</time>
      </trkpt>
      <trkpt lat="42.78662" lon="-0.03234">
        <ele>1934.63</ele>
        <time>2017-04-20T07:27:55Z</time>
      </trkpt>
      <trkpt lat="42.78657" lon="-0.03248">
        <ele>1935.85</ele>
        <time>2017-04-20T07:28:10Z</time>
      </trkpt>
      <trkpt lat="42.7865" lon="-0.03266">
        <ele>1937.41</ele>
        <time>2017-04-20T07:28:29Z</time>
      </trkpt>
      <trkpt lat="42.78642" lon="-0.03282">
        <ele>1935.85</ele>
        <time>2017-04-20T07:28:46Z</time>
      </trkpt>
      <trkpt lat="42.78639" lon="-0.03287">
        <ele>1935.01</ele>
        <time>2017-04-20T07:28:50Z</time>
      </trkpt>
      <trkpt lat="42.78627" lon="-0.03303">
        <ele>1933.59</ele>
        <time>2017-04-20T07:29:06Z</time>
      </trkpt>
      <trkpt lat="42.78619" lon="-0.03306">
        <ele>1934.15</ele>
        <time>2017-04-20T07:29:16Z</time>
      </trkpt>
      <trkpt lat="42.78603" lon="-0.03314">
        <ele>1935.4</ele>
        <time>2017-04-20T07:29:36Z</time>
      </trkpt>
      <trkpt lat="42.78599" lon="-0.03315">
        <ele>1935.24</ele>
        <time>2017-04-20T07:29:40Z</time>
      </trkpt>
      <trkpt lat="42.78588" lon="-0.03316">
        <ele>1935.38</ele>
        <time>2017-04-20T07:29:54Z</time>
      </trkpt>
      <trkpt lat="42.78573" lon="-0.03318">
        <ele>1935.49</ele>
        <time>2017-04-20T07:30:12Z</time>
      </trkpt>
      <trkpt lat="42.78569" lon="-0.0332">
        <ele>1935.24</ele>
        <time>2017-04-20T07:30:17Z</time>
      </trkpt>
      <trkpt lat="42.78555" lon="-0.03332">
        <ele>1933.97</ele>
        <time>2017-04-20T07:30:35Z</time>
      </trkpt>
      <trkpt lat="42.78545" lon="-0.03351">
        <ele>1932</ele>
        <time>2017-04-20T07:30:51Z</time>
      </trkpt>
      <trkpt lat="42.78533" lon="-0.03369">
        <ele>1932.21</ele>
        <time>2017-04-20T07:31:09Z</time>
      </trkpt>
      <trkpt lat="42.78524" lon="-0.03384">
        <ele>1932.08</ele>
        <time>2017-04-20T07:31:26Z</time>
      </trkpt>
      <trkpt lat="42.78514" lon="-0.03406">
        <ele>1930.44</ele>
        <time>2017-04-20T07:31:44Z</time>
      </trkpt>
      <trkpt lat="42.78513" lon="-0.03419">
        <ele>1929.69</ele>
        <time>2017-04-20T07:31:53Z</time>
      </trkpt>
      <trkpt lat="42.7851" lon="-0.03441">
        <ele>1929.52</ele>
        <time>2017-04-20T07:32:10Z</time>
      </trkpt>
      <trkpt lat="42.78504" lon="-0.03458">
        <ele>1929.65</ele>
        <time>2017-04-20T07:32:25Z</time>
      </trkpt>
      <trkpt lat="42.78495" lon="-0.03476">
        <ele>1930.52</ele>
        <time>2017-04-20T07:32:44Z</time>
      </trkpt>
      <trkpt lat="42.78487" lon="-0.03492">
        <ele>1931.73</ele>
        <time>2017-04-20T07:33:02Z</time>
      </trkpt>
      <trkpt lat="42.78478" lon="-0.03507">
        <ele>1933.43</ele>
        <time>2017-04-20T07:33:20Z</time>
      </trkpt>
      <trkpt lat="42.78469" lon="-0.03522">
        <ele>1936.69</ele>
        <time>2017-04-20T07:33:38Z</time>
      </trkpt>
      <trkpt lat="42.78466" lon="-0.03544">
        <ele>1937.92</ele>
        <time>2017-04-20T07:33:55Z</time>
      </trkpt>
      <trkpt lat="42.78463" lon="-0.03564">
        <ele>1939.09</ele>
        <time>2017-04-20T07:34:12Z</time>
      </trkpt>
      <trkpt lat="42.7846" lon="-0.03582">
        <ele>1941.72</ele>
        <time>2017-04-20T07:34:29Z</time>
      </trkpt>
      <trkpt lat="42.78453" lon="-0.03595">
        <ele>1944.09</ele>
        <time>2017-04-20T07:34:46Z</time>
      </trkpt>
      <trkpt lat="42.78443" lon="-0.03606">
        <ele>1946.27</ele>
        <time>2017-04-20T07:35:04Z</time>
      </trkpt>
      <trkpt lat="42.78433" lon="-0.03617">
        <ele>1952.19</ele>
        <time>2017-04-20T07:35:24Z</time>
      </trkpt>
      <trkpt lat="42.78424" lon="-0.03635">
        <ele>1954.99</ele>
        <time>2017-04-20T07:35:43Z</time>
      </trkpt>
      <trkpt lat="42.78413" lon="-0.03647">
        <ele>1957.12</ele>
        <time>2017-04-20T07:36:01Z</time>
      </trkpt>
      <trkpt lat="42.78401" lon="-0.0366">
        <ele>1958.44</ele>
        <time>2017-04-20T07:36:21Z</time>
      </trkpt>
      <trkpt lat="42.7839" lon="-0.03671">
        <ele>1961.49</ele>
        <time>2017-04-20T07:36:41Z</time>
      </trkpt>
      <trkpt lat="42.78378" lon="-0.03678">
        <ele>1963.84</ele>
        <time>2017-04-20T07:36:58Z</time>
      </trkpt>
      <trkpt lat="42.78368" lon="-0.03682">
        <ele>1967.69</ele>
        <time>2017-04-20T07:37:14Z</time>
      </trkpt>
      <trkpt lat="42.78362" lon="-0.03688">
        <ele>1971.21</ele>
        <time>2017-04-20T07:37:31Z</time>
      </trkpt>
      <trkpt lat="42.7837" lon="-0.03705">
        <ele>1972.44</ele>
        <time>2017-04-20T07:37:50Z</time>
      </trkpt>
      <trkpt lat="42.78376" lon="-0.03717">
        <ele>1976.43</ele>
        <time>2017-04-20T07:38:06Z</time>
      </trkpt>
      <trkpt lat="42.78382" lon="-0.03729">
        <ele>1980.25</ele>
        <time>2017-04-20T07:38:23Z</time>
      </trkpt>
      <trkpt lat="42.78386" lon="-0.03741">
        <ele>1980.57</ele>
        <time>2017-04-20T07:38:40Z</time>
      </trkpt>
      <trkpt lat="42.78382" lon="-0.03753">
        <ele>1982.38</ele>
        <time>2017-04-20T07:38:55Z</time>
      </trkpt>
      <trkpt lat="42.78369" lon="-0.03761">
        <ele>1986.61</ele>
        <time>2017-04-20T07:39:15Z</time>
      </trkpt>
      <trkpt lat="42.78357" lon="-0.03768">
        <ele>1989.79</ele>
        <time>2017-04-20T07:39:35Z</time>
      </trkpt>
      <trkpt lat="42.78344" lon="-0.03776">
        <ele>1992.06</ele>
        <time>2017-04-20T07:39:55Z</time>
      </trkpt>
      <trkpt lat="42.78332" lon="-0.03782">
        <ele>1994.12</ele>
        <time>2017-04-20T07:40:15Z</time>
      </trkpt>
      <trkpt lat="42.78327" lon="-0.03789">
        <ele>1997.14</ele>
        <time>2017-04-20T07:40:33Z</time>
      </trkpt>
      <trkpt lat="42.78339" lon="-0.03797">
        <ele>2000.4</ele>
        <time>2017-04-20T07:40:51Z</time>
      </trkpt>
      <trkpt lat="42.78349" lon="-0.03812">
        <ele>2003</ele>
        <time>2017-04-20T07:41:13Z</time>
      </trkpt>
      <trkpt lat="42.78347" lon="-0.03813">
        <ele>2002.9</ele>
        <time>2017-04-20T07:41:15Z</time>
      </trkpt>
      <trkpt lat="42.78334" lon="-0.03818">
        <ele>2004.96</ele>
        <time>2017-04-20T07:41:33Z</time>
      </trkpt>
      <trkpt lat="42.78324" lon="-0.03825">
        <ele>2007.29</ele>
        <time>2017-04-20T07:41:50Z</time>
      </trkpt>
      <trkpt lat="42.78312" lon="-0.03827">
        <ele>2012.05</ele>
        <time>2017-04-20T07:42:10Z</time>
      </trkpt>
      <trkpt lat="42.78317" lon="-0.03837">
        <ele>2015.77</ele>
        <time>2017-04-20T07:42:25Z</time>
      </trkpt>
      <trkpt lat="42.78324" lon="-0.0385">
        <ele>2020.64</ele>
        <time>2017-04-20T07:42:43Z</time>
      </trkpt>
      <trkpt lat="42.78318" lon="-0.03859">
        <ele>2020.77</ele>
        <time>2017-04-20T07:43:00Z</time>
      </trkpt>
      <trkpt lat="42.78306" lon="-0.03862">
        <ele>2023.23</ele>
        <time>2017-04-20T07:43:19Z</time>
      </trkpt>
      <trkpt lat="42.78299" lon="-0.03863">
        <ele>2027.91</ele>
        <time>2017-04-20T07:43:35Z</time>
      </trkpt>
      <trkpt lat="42.78301" lon="-0.03871">
        <ele>2032.24</ele>
        <time>2017-04-20T07:43:50Z</time>
      </trkpt>
      <trkpt lat="42.78308" lon="-0.03886">
        <ele>2034.3</ele>
        <time>2017-04-20T07:44:11Z</time>
      </trkpt>
      <trkpt lat="42.78306" lon="-0.03894">
        <ele>2035.69</ele>
        <time>2017-04-20T07:44:25Z</time>
      </trkpt>
      <trkpt lat="42.78295" lon="-0.03892">
        <ele>2038.74</ele>
        <time>2017-04-20T07:44:43Z</time>
      </trkpt>
      <trkpt lat="42.78285" lon="-0.03887">
        <ele>2039.75</ele>
        <time>2017-04-20T07:45:06Z</time>
      </trkpt>
      <trkpt lat="42.78281" lon="-0.03889">
        <ele>2041.29</ele>
        <time>2017-04-20T07:45:19Z</time>
      </trkpt>
      <trkpt lat="42.78286" lon="-0.03901">
        <ele>2043.58</ele>
        <time>2017-04-20T07:45:35Z</time>
      </trkpt>
      <trkpt lat="42.78292" lon="-0.03915">
        <ele>2047.76</ele>
        <time>2017-04-20T07:45:54Z</time>
      </trkpt>
      <trkpt lat="42.78294" lon="-0.03929">
        <ele>2051.11</ele>
        <time>2017-04-20T07:46:11Z</time>
      </trkpt>
      <trkpt lat="42.78285" lon="-0.03927">
        <ele>2054.29</ele>
        <time>2017-04-20T07:46:27Z</time>
      </trkpt>
      <trkpt lat="42.78274" lon="-0.0392">
        <ele>2056.16</ele>
        <time>2017-04-20T07:46:45Z</time>
      </trkpt>
      <trkpt lat="42.78267" lon="-0.03915">
        <ele>2057.33</ele>
        <time>2017-04-20T07:47:04Z</time>
      </trkpt>
      <trkpt lat="42.78261" lon="-0.03914">
        <ele>2058.01</ele>
        <time>2017-04-20T07:47:26Z</time>
      </trkpt>
      <trkpt lat="42.78263" lon="-0.03925">
        <ele>2059.82</ele>
        <time>2017-04-20T07:47:39Z</time>
      </trkpt>
      <trkpt lat="42.78261" lon="-0.03945">
        <ele>2060.73</ele>
        <time>2017-04-20T07:48:00Z</time>
      </trkpt>
      <trkpt lat="42.78262" lon="-0.03959">
        <ele>2060.64</ele>
        <time>2017-04-20T07:48:18Z</time>
      </trkpt>
      <trkpt lat="42.78264" lon="-0.03975">
        <ele>2063.31</ele>
        <time>2017-04-20T07:48:37Z</time>
      </trkpt>
      <trkpt lat="42.78261" lon="-0.03979">
        <ele>2065.08</ele>
        <time>2017-04-20T07:48:52Z</time>
      </trkpt>
      <trkpt lat="42.78248" lon="-0.03973">
        <ele>2068.53</ele>
        <time>2017-04-20T07:49:12Z</time>
      </trkpt>
      <trkpt lat="42.78241" lon="-0.0397">
        <ele>2069.61</ele>
        <time>2017-04-20T07:49:27Z</time>
      </trkpt>
      <trkpt lat="42.78238" lon="-0.03968">
        <ele>2071.03</ele>
        <time>2017-04-20T07:50:05Z</time>
      </trkpt>
      <trkpt lat="42.78238" lon="-0.03975">
        <ele>2071.53</ele>
        <time>2017-04-20T07:50:16Z</time>
      </trkpt>
      <trkpt lat="42.78242" lon="-0.03991">
        <ele>2073.13</ele>
        <time>2017-04-20T07:50:35Z</time>
      </trkpt>
      <trkpt lat="42.78245" lon="-0.04003">
        <ele>2074.42</ele>
        <time>2017-04-20T07:50:54Z</time>
      </trkpt>
      <trkpt lat="42.78246" lon="-0.0401">
        <ele>2076.66</ele>
        <time>2017-04-20T07:51:12Z</time>
      </trkpt>
      <trkpt lat="42.78243" lon="-0.0401">
        <ele>2078.14</ele>
        <time>2017-04-20T07:51:27Z</time>
      </trkpt>
      <trkpt lat="42.78232" lon="-0.04004">
        <ele>2082.74</ele>
        <time>2017-04-20T07:51:46Z</time>
      </trkpt>
      <trkpt lat="42.78221" lon="-0.03998">
        <ele>2088.14</ele>
        <time>2017-04-20T07:52:04Z</time>
      </trkpt>
      <trkpt lat="42.78215" lon="-0.03992">
        <ele>2091.34</ele>
        <time>2017-04-20T07:52:24Z</time>
      </trkpt>
      <trkpt lat="42.78212" lon="-0.03992">
        <ele>2092.42</ele>
        <time>2017-04-20T07:52:45Z</time>
      </trkpt>
      <trkpt lat="42.78214" lon="-0.04003">
        <ele>2093.84</ele>
        <time>2017-04-20T07:52:59Z</time>
      </trkpt>
      <trkpt lat="42.78216" lon="-0.04016">
        <ele>2097.03</ele>
        <time>2017-04-20T07:53:16Z</time>
      </trkpt>
      <trkpt lat="42.78214" lon="-0.04019">
        <ele>2098.51</ele>
        <time>2017-04-20T07:53:36Z</time>
      </trkpt>
      <trkpt lat="42.78204" lon="-0.04012">
        <ele>2101.56</ele>
        <time>2017-04-20T07:53:53Z</time>
      </trkpt>
      <trkpt lat="42.78197" lon="-0.04003">
        <ele>2104.83</ele>
        <time>2017-04-20T07:54:09Z</time>
      </trkpt>
      <trkpt lat="42.78192" lon="-0.03998">
        <ele>2106.7</ele>
        <time>2017-04-20T07:54:28Z</time>
      </trkpt>
      <trkpt lat="42.78186" lon="-0.03992">
        <ele>2107.85</ele>
        <time>2017-04-20T07:54:43Z</time>
      </trkpt>
      <trkpt lat="42.78188" lon="-0.04004">
        <ele>2109.71</ele>
        <time>2017-04-20T07:54:59Z</time>
      </trkpt>
      <trkpt lat="42.78189" lon="-0.04019">
        <ele>2112.2</ele>
        <time>2017-04-20T07:55:22Z</time>
      </trkpt>
      <trkpt lat="42.78191" lon="-0.04027">
        <ele>2113.17</ele>
        <time>2017-04-20T07:55:42Z</time>
      </trkpt>
      <trkpt lat="42.78186" lon="-0.04021">
        <ele>2114.3</ele>
        <time>2017-04-20T07:56:05Z</time>
      </trkpt>
      <trkpt lat="42.78177" lon="-0.04011">
        <ele>2117.33</ele>
        <time>2017-04-20T07:56:23Z</time>
      </trkpt>
      <trkpt lat="42.78167" lon="-0.04003">
        <ele>2120.36</ele>
        <time>2017-04-20T07:56:42Z</time>
      </trkpt>
      <trkpt lat="42.78163" lon="-0.03997">
        <ele>2121.51</ele>
        <time>2017-04-20T07:56:58Z</time>
      </trkpt>
      <trkpt lat="42.78163" lon="-0.04003">
        <ele>2121.9</ele>
        <time>2017-04-20T07:57:25Z</time>
      </trkpt>
      <trkpt lat="42.78165" lon="-0.04019">
        <ele>2126.18</ele>
        <time>2017-04-20T07:57:44Z</time>
      </trkpt>
      <trkpt lat="42.78166" lon="-0.04027">
        <ele>2128.06</ele>
        <time>2017-04-20T07:58:01Z</time>
      </trkpt>
      <trkpt lat="42.78165" lon="-0.04027">
        <ele>2127.22</ele>
        <time>2017-04-20T07:58:26Z</time>
      </trkpt>
      <trkpt lat="42.78163" lon="-0.0403">
        <ele>2126.6</ele>
        <time>2017-04-20T07:59:03Z</time>
      </trkpt>
      <trkpt lat="42.78164" lon="-0.04028">
        <ele>2125.12</ele>
        <time>2017-04-20T07:59:40Z</time>
      </trkpt>
      <trkpt lat="42.78164" lon="-0.0403">
        <ele>2127.47</ele>
        <time>2017-04-20T08:00:32Z</time>
      </trkpt>
      <trkpt lat="42.78164" lon="-0.04027">
        <ele>2127.02</ele>
        <time>2017-04-20T08:00:57Z</time>
      </trkpt>
      <trkpt lat="42.78165" lon="-0.04028">
        <ele>2129.03</ele>
        <time>2017-04-20T08:01:15Z</time>
      </trkpt>
      <trkpt lat="42.78156" lon="-0.0402">
        <ele>2133.12</ele>
        <time>2017-04-20T08:01:31Z</time>
      </trkpt>
      <trkpt lat="42.78149" lon="-0.0401">
        <ele>2133.94</ele>
        <time>2017-04-20T08:01:47Z</time>
      </trkpt>
      <trkpt lat="42.78142" lon="-0.04001">
        <ele>2136.11</ele>
        <time>2017-04-20T08:02:04Z</time>
      </trkpt>
      <trkpt lat="42.78137" lon="-0.03989">
        <ele>2140.08</ele>
        <time>2017-04-20T08:02:22Z</time>
      </trkpt>
      <trkpt lat="42.78131" lon="-0.03979">
        <ele>2144.71</ele>
        <time>2017-04-20T08:02:39Z</time>
      </trkpt>
      <trkpt lat="42.78127" lon="-0.03968">
        <ele>2146.81</ele>
        <time>2017-04-20T08:02:54Z</time>
      </trkpt>
      <trkpt lat="42.78122" lon="-0.03957">
        <ele>2150.4</ele>
        <time>2017-04-20T08:03:11Z</time>
      </trkpt>
      <trkpt lat="42.78118" lon="-0.03943">
        <ele>2154.28</ele>
        <time>2017-04-20T08:03:32Z</time>
      </trkpt>
      <trkpt lat="42.78118" lon="-0.03936">
        <ele>2156.33</ele>
        <time>2017-04-20T08:03:57Z</time>
      </trkpt>
      <trkpt lat="42.78114" lon="-0.03923">
        <ele>2159.52</ele>
        <time>2017-04-20T08:04:14Z</time>
      </trkpt>
      <trkpt lat="42.78108" lon="-0.03917">
        <ele>2163.16</ele>
        <time>2017-04-20T08:04:30Z</time>
      </trkpt>
      <trkpt lat="42.781" lon="-0.03909">
        <ele>2166.87</ele>
        <time>2017-04-20T08:04:47Z</time>
      </trkpt>
      <trkpt lat="42.7809" lon="-0.03898">
        <ele>2173.01</ele>
        <time>2017-04-20T08:05:09Z</time>
      </trkpt>
      <trkpt lat="42.78087" lon="-0.03901">
        <ele>2175.07</ele>
        <time>2017-04-20T08:05:24Z</time>
      </trkpt>
      <trkpt lat="42.78086" lon="-0.03916">
        <ele>2181.82</ele>
        <time>2017-04-20T08:05:45Z</time>
      </trkpt>
      <trkpt lat="42.78084" lon="-0.03914">
        <ele>2182.23</ele>
        <time>2017-04-20T08:06:03Z</time>
      </trkpt>
      <trkpt lat="42.78074" lon="-0.03905">
        <ele>2185.16</ele>
        <time>2017-04-20T08:06:22Z</time>
      </trkpt>
      <trkpt lat="42.78067" lon="-0.03895">
        <ele>2186.75</ele>
        <time>2017-04-20T08:06:41Z</time>
      </trkpt>
      <trkpt lat="42.78062" lon="-0.03889">
        <ele>2188.75</ele>
        <time>2017-04-20T08:07:05Z</time>
      </trkpt>
      <trkpt lat="42.78059" lon="-0.03886">
        <ele>2190.95</ele>
        <time>2017-04-20T08:07:22Z</time>
      </trkpt>
      <trkpt lat="42.78057" lon="-0.03896">
        <ele>2194.36</ele>
        <time>2017-04-20T08:07:41Z</time>
      </trkpt>
      <trkpt lat="42.78055" lon="-0.03893">
        <ele>2195.66</ele>
        <time>2017-04-20T08:07:55Z</time>
      </trkpt>
      <trkpt lat="42.78051" lon="-0.03883">
        <ele>2198.74</ele>
        <time>2017-04-20T08:08:15Z</time>
      </trkpt>
      <trkpt lat="42.78049" lon="-0.03892">
        <ele>2202.17</ele>
        <time>2017-04-20T08:08:32Z</time>
      </trkpt>
      <trkpt lat="42.78048" lon="-0.03899">
        <ele>2203.98</ele>
        <time>2017-04-20T08:08:49Z</time>
      </trkpt>
      <trkpt lat="42.78046" lon="-0.03909">
        <ele>2206.55</ele>
        <time>2017-04-20T08:09:12Z</time>
      </trkpt>
      <trkpt lat="42.78046" lon="-0.0391">
        <ele>2207.85</ele>
        <time>2017-04-20T08:09:41Z</time>
      </trkpt>
      <trkpt lat="42.78045" lon="-0.03915">
        <ele>2210.34</ele>
        <time>2017-04-20T08:09:58Z</time>
      </trkpt>
      <trkpt lat="42.7804" lon="-0.03906">
        <ele>2213.56</ele>
        <time>2017-04-20T08:10:14Z</time>
      </trkpt>
      <trkpt lat="42.78035" lon="-0.03897">
        <ele>2215.01</ele>
        <time>2017-04-20T08:10:32Z</time>
      </trkpt>
      <trkpt lat="42.78033" lon="-0.03889">
        <ele>2217.15</ele>
        <time>2017-04-20T08:10:52Z</time>
      </trkpt>
      <trkpt lat="42.78031" lon="-0.03878">
        <ele>2218.96</ele>
        <time>2017-04-20T08:11:11Z</time>
      </trkpt>
      <trkpt lat="42.78031" lon="-0.0388">
        <ele>2219.64</ele>
        <time>2017-04-20T08:11:28Z</time>
      </trkpt>
      <trkpt lat="42.78027" lon="-0.0389">
        <ele>2222.91</ele>
        <time>2017-04-20T08:11:45Z</time>
      </trkpt>
      <trkpt lat="42.78024" lon="-0.03896">
        <ele>2223.94</ele>
        <time>2017-04-20T08:12:02Z</time>
      </trkpt>
      <trkpt lat="42.78022" lon="-0.03906">
        <ele>2226.08</ele>
        <time>2017-04-20T08:12:21Z</time>
      </trkpt>
      <trkpt lat="42.78021" lon="-0.03921">
        <ele>2229.72</ele>
        <time>2017-04-20T08:12:43Z</time>
      </trkpt>
      <trkpt lat="42.7802" lon="-0.03928">
        <ele>2229.9</ele>
        <time>2017-04-20T08:13:00Z</time>
      </trkpt>
      <trkpt lat="42.78018" lon="-0.03926">
        <ele>2229.33</ele>
        <time>2017-04-20T08:13:22Z</time>
      </trkpt>
      <trkpt lat="42.7801" lon="-0.03916">
        <ele>2231.78</ele>
        <time>2017-04-20T08:13:41Z</time>
      </trkpt>
      <trkpt lat="42.78007" lon="-0.03908">
        <ele>2234.51</ele>
        <time>2017-04-20T08:14:00Z</time>
      </trkpt>
      <trkpt lat="42.78003" lon="-0.03897">
        <ele>2242.61</ele>
        <time>2017-04-20T08:14:17Z</time>
      </trkpt>
      <trkpt lat="42.78001" lon="-0.03889">
        <ele>2244.09</ele>
        <time>2017-04-20T08:14:37Z</time>
      </trkpt>
      <trkpt lat="42.78" lon="-0.03879">
        <ele>2247.35</ele>
        <time>2017-04-20T08:14:51Z</time>
      </trkpt>
      <trkpt lat="42.77997" lon="-0.03865">
        <ele>2252.24</ele>
        <time>2017-04-20T08:15:08Z</time>
      </trkpt>
      <trkpt lat="42.77996" lon="-0.03862">
        <ele>2254.07</ele>
        <time>2017-04-20T08:15:23Z</time>
      </trkpt>
      <trkpt lat="42.77994" lon="-0.03867">
        <ele>2256.6</ele>
        <time>2017-04-20T08:15:42Z</time>
      </trkpt>
      <trkpt lat="42.77994" lon="-0.03869">
        <ele>2257.41</ele>
        <time>2017-04-20T08:16:02Z</time>
      </trkpt>
      <trkpt lat="42.77991" lon="-0.03878">
        <ele>2260.08</ele>
        <time>2017-04-20T08:16:22Z</time>
      </trkpt>
      <trkpt lat="42.7799" lon="-0.03879">
        <ele>2261</ele>
        <time>2017-04-20T08:17:00Z</time>
      </trkpt>
      <trkpt lat="42.77983" lon="-0.03891">
        <ele>2264</ele>
        <time>2017-04-20T08:17:19Z</time>
      </trkpt>
      <trkpt lat="42.77978" lon="-0.03886">
        <ele>2266.55</ele>
        <time>2017-04-20T08:17:32Z</time>
      </trkpt>
      <trkpt lat="42.77974" lon="-0.03892">
        <ele>2267.75</ele>
        <time>2017-04-20T08:17:47Z</time>
      </trkpt>
      <trkpt lat="42.77971" lon="-0.03891">
        <ele>2269.3</ele>
        <time>2017-04-20T08:18:02Z</time>
      </trkpt>
      <trkpt lat="42.77959" lon="-0.03891">
        <ele>2274.27</ele>
        <time>2017-04-20T08:18:23Z</time>
      </trkpt>
      <trkpt lat="42.77953" lon="-0.03891">
        <ele>2276.49</ele>
        <time>2017-04-20T08:18:33Z</time>
      </trkpt>
      <trkpt lat="42.77944" lon="-0.03892">
        <ele>2277.66</ele>
        <time>2017-04-20T08:18:47Z</time>
      </trkpt>
      <trkpt lat="42.77932" lon="-0.039">
        <ele>2282.54</ele>
        <time>2017-04-20T08:19:06Z</time>
      </trkpt>
      <trkpt lat="42.77931" lon="-0.03901">
        <ele>2282.23</ele>
        <time>2017-04-20T08:19:23Z</time>
      </trkpt>
      <trkpt lat="42.77931" lon="-0.03901">
        <ele>2280.6</ele>
        <time>2017-04-20T08:19:56Z</time>
      </trkpt>
      <trkpt lat="42.77931" lon="-0.03906">
        <ele>2279.75</ele>
        <time>2017-04-20T08:20:26Z</time>
      </trkpt>
      <trkpt lat="42.77932" lon="-0.03911">
        <ele>2279.94</ele>
        <time>2017-04-20T08:20:41Z</time>
      </trkpt>
      <trkpt lat="42.77929" lon="-0.03909">
        <ele>2280.39</ele>
        <time>2017-04-20T08:21:13Z</time>
      </trkpt>
      <trkpt lat="42.77929" lon="-0.03907">
        <ele>2280.05</ele>
        <time>2017-04-20T08:21:29Z</time>
      </trkpt>
      <trkpt lat="42.77929" lon="-0.03907">
        <ele>2280.53</ele>
        <time>2017-04-20T08:22:05Z</time>
      </trkpt>
      <trkpt lat="42.77929" lon="-0.03906">
        <ele>2281.09</ele>
        <time>2017-04-20T08:22:37Z</time>
      </trkpt>
      <trkpt lat="42.7793" lon="-0.03907">
        <ele>2279.96</ele>
        <time>2017-04-20T08:23:02Z</time>
      </trkpt>
      <trkpt lat="42.77929" lon="-0.03907">
        <ele>2279.51</ele>
        <time>2017-04-20T08:23:27Z</time>
      </trkpt>
      <trkpt lat="42.77929" lon="-0.03906">
        <ele>2279.7</ele>
        <time>2017-04-20T08:24:19Z</time>
      </trkpt>
      <trkpt lat="42.77929" lon="-0.03907">
        <ele>2279.46</ele>
        <time>2017-04-20T08:24:56Z</time>
      </trkpt>
      <trkpt lat="42.77929" lon="-0.03907">
        <ele>2278.71</ele>
        <time>2017-04-20T08:25:23Z</time>
      </trkpt>
      <trkpt lat="42.77929" lon="-0.03907">
        <ele>2278.84</ele>
        <time>2017-04-20T08:26:00Z</time>
      </trkpt>
      <trkpt lat="42.7793" lon="-0.03908">
        <ele>2278.9</ele>
        <time>2017-04-20T08:26:46Z</time>
      </trkpt>
      <trkpt lat="42.77925" lon="-0.03908">
        <ele>2280.9</ele>
        <time>2017-04-20T08:27:27Z</time>
      </trkpt>
      <trkpt lat="42.77923" lon="-0.03923">
        <ele>2285.26</ele>
        <time>2017-04-20T08:27:48Z</time>
      </trkpt>
      <trkpt lat="42.77925" lon="-0.03929">
        <ele>2286.98</ele>
        <time>2017-04-20T08:28:07Z</time>
      </trkpt>
      <trkpt lat="42.77921" lon="-0.03936">
        <ele>2290.21</ele>
        <time>2017-04-20T08:28:20Z</time>
      </trkpt>
      <trkpt lat="42.77913" lon="-0.03947">
        <ele>2295.02</ele>
        <time>2017-04-20T08:28:40Z</time>
      </trkpt>
      <trkpt lat="42.77919" lon="-0.03953">
        <ele>2297.26</ele>
        <time>2017-04-20T08:28:56Z</time>
      </trkpt>
      <trkpt lat="42.77921" lon="-0.03956">
        <ele>2298.7</ele>
        <time>2017-04-20T08:29:12Z</time>
      </trkpt>
      <trkpt lat="42.77915" lon="-0.03966">
        <ele>2300.19</ele>
        <time>2017-04-20T08:29:27Z</time>
      </trkpt>
      <trkpt lat="42.77914" lon="-0.03979">
        <ele>2304.12</ele>
        <time>2017-04-20T08:29:45Z</time>
      </trkpt>
      <trkpt lat="42.77912" lon="-0.0399">
        <ele>2306.3</ele>
        <time>2017-04-20T08:30:04Z</time>
      </trkpt>
      <trkpt lat="42.77905" lon="-0.03994">
        <ele>2307.58</ele>
        <time>2017-04-20T08:30:22Z</time>
      </trkpt>
      <trkpt lat="42.77901" lon="-0.03997">
        <ele>2308.59</ele>
        <time>2017-04-20T08:30:44Z</time>
      </trkpt>
      <trkpt lat="42.77904" lon="-0.04004">
        <ele>2311.17</ele>
        <time>2017-04-20T08:30:57Z</time>
      </trkpt>
      <trkpt lat="42.77906" lon="-0.04018">
        <ele>2315.28</ele>
        <time>2017-04-20T08:31:17Z</time>
      </trkpt>
      <trkpt lat="42.77906" lon="-0.04029">
        <ele>2317.82</ele>
        <time>2017-04-20T08:31:35Z</time>
      </trkpt>
      <trkpt lat="42.77898" lon="-0.04022">
        <ele>2320.73</ele>
        <time>2017-04-20T08:31:53Z</time>
      </trkpt>
      <trkpt lat="42.7789" lon="-0.04019">
        <ele>2323.02</ele>
        <time>2017-04-20T08:32:14Z</time>
      </trkpt>
      <trkpt lat="42.7789" lon="-0.04026">
        <ele>2324.86</ele>
        <time>2017-04-20T08:32:28Z</time>
      </trkpt>
      <trkpt lat="42.77891" lon="-0.04039">
        <ele>2328.14</ele>
        <time>2017-04-20T08:32:45Z</time>
      </trkpt>
      <trkpt lat="42.77889" lon="-0.04057">
        <ele>2332.57</ele>
        <time>2017-04-20T08:33:08Z</time>
      </trkpt>
      <trkpt lat="42.7789" lon="-0.04073">
        <ele>2333.55</ele>
        <time>2017-04-20T08:33:30Z</time>
      </trkpt>
      <trkpt lat="42.77894" lon="-0.04086">
        <ele>2335.57</ele>
        <time>2017-04-20T08:33:49Z</time>
      </trkpt>
      <trkpt lat="42.77897" lon="-0.04101">
        <ele>2336.43</ele>
        <time>2017-04-20T08:34:09Z</time>
      </trkpt>
      <trkpt lat="42.77902" lon="-0.04115">
        <ele>2338.69</ele>
        <time>2017-04-20T08:34:30Z</time>
      </trkpt>
      <trkpt lat="42.77909" lon="-0.04127">
        <ele>2341.27</ele>
        <time>2017-04-20T08:34:49Z</time>
      </trkpt>
      <trkpt lat="42.77914" lon="-0.04137">
        <ele>2343.71</ele>
        <time>2017-04-20T08:35:05Z</time>
      </trkpt>
      <trkpt lat="42.77922" lon="-0.04148">
        <ele>2347.58</ele>
        <time>2017-04-20T08:35:26Z</time>
      </trkpt>
      <trkpt lat="42.77927" lon="-0.04161">
        <ele>2350.55</ele>
        <time>2017-04-20T08:35:44Z</time>
      </trkpt>
      <trkpt lat="42.77928" lon="-0.04167">
        <ele>2353.28</ele>
        <time>2017-04-20T08:36:05Z</time>
      </trkpt>
      <trkpt lat="42.77931" lon="-0.04179">
        <ele>2355.78</ele>
        <time>2017-04-20T08:36:23Z</time>
      </trkpt>
      <trkpt lat="42.77935" lon="-0.04189">
        <ele>2358.87</ele>
        <time>2017-04-20T08:36:44Z</time>
      </trkpt>
      <trkpt lat="42.77924" lon="-0.04184">
        <ele>2359.55</ele>
        <time>2017-04-20T08:37:03Z</time>
      </trkpt>
      <trkpt lat="42.77916" lon="-0.04181">
        <ele>2361.25</ele>
        <time>2017-04-20T08:37:18Z</time>
      </trkpt>
      <trkpt lat="42.77906" lon="-0.04174">
        <ele>2364.95</ele>
        <time>2017-04-20T08:37:41Z</time>
      </trkpt>
      <trkpt lat="42.77904" lon="-0.04178">
        <ele>2366.09</ele>
        <time>2017-04-20T08:37:59Z</time>
      </trkpt>
      <trkpt lat="42.77909" lon="-0.04194">
        <ele>2371.35</ele>
        <time>2017-04-20T08:38:22Z</time>
      </trkpt>
      <trkpt lat="42.77914" lon="-0.04209">
        <ele>2374.1</ele>
        <time>2017-04-20T08:38:40Z</time>
      </trkpt>
      <trkpt lat="42.77921" lon="-0.04222">
        <ele>2375.65</ele>
        <time>2017-04-20T08:38:59Z</time>
      </trkpt>
      <trkpt lat="42.77927" lon="-0.04234">
        <ele>2379.83</ele>
        <time>2017-04-20T08:39:19Z</time>
      </trkpt>
      <trkpt lat="42.77935" lon="-0.04242">
        <ele>2385.92</ele>
        <time>2017-04-20T08:39:35Z</time>
      </trkpt>
      <trkpt lat="42.77941" lon="-0.04253">
        <ele>2387.49</ele>
        <time>2017-04-20T08:39:53Z</time>
      </trkpt>
      <trkpt lat="42.77948" lon="-0.04262">
        <ele>2390.41</ele>
        <time>2017-04-20T08:40:10Z</time>
      </trkpt>
      <trkpt lat="42.77953" lon="-0.04271">
        <ele>2391.37</ele>
        <time>2017-04-20T08:40:29Z</time>
      </trkpt>
      <trkpt lat="42.77959" lon="-0.04279">
        <ele>2392.65</ele>
        <time>2017-04-20T08:40:46Z</time>
      </trkpt>
      <trkpt lat="42.77962" lon="-0.04283">
        <ele>2393.27</ele>
        <time>2017-04-20T08:41:06Z</time>
      </trkpt>
      <trkpt lat="42.77968" lon="-0.04289">
        <ele>2397.01</ele>
        <time>2017-04-20T08:41:23Z</time>
      </trkpt>
      <trkpt lat="42.77968" lon="-0.04289">
        <ele>2399.64</ele>
        <time>2017-04-20T08:41:57Z</time>
      </trkpt>
      <trkpt lat="42.77971" lon="-0.04293">
        <ele>2402.47</ele>
        <time>2017-04-20T08:42:30Z</time>
      </trkpt>
      <trkpt lat="42.77972" lon="-0.04298">
        <ele>2403.07</ele>
        <time>2017-04-20T08:42:48Z</time>
      </trkpt>
      <trkpt lat="42.77968" lon="-0.04297">
        <ele>2403.12</ele>
        <time>2017-04-20T08:43:17Z</time>
      </trkpt>
      <trkpt lat="42.77966" lon="-0.04297">
        <ele>2403.23</ele>
        <time>2017-04-20T08:43:34Z</time>
      </trkpt>
      <trkpt lat="42.77969" lon="-0.04301">
        <ele>2403.02</ele>
        <time>2017-04-20T08:44:04Z</time>
      </trkpt>
      <trkpt lat="42.77973" lon="-0.04306">
        <ele>2403.12</ele>
        <time>2017-04-20T08:44:19Z</time>
      </trkpt>
      <trkpt lat="42.77978" lon="-0.0431">
        <ele>2402.99</ele>
        <time>2017-04-20T08:44:35Z</time>
      </trkpt>
      <trkpt lat="42.77974" lon="-0.04311">
        <ele>2403.04</ele>
        <time>2017-04-20T08:44:53Z</time>
      </trkpt>
      <trkpt lat="42.7797" lon="-0.04313">
        <ele>2403.81</ele>
        <time>2017-04-20T08:45:05Z</time>
      </trkpt>
      <trkpt lat="42.77967" lon="-0.04313">
        <ele>2404.15</ele>
        <time>2017-04-20T08:45:20Z</time>
      </trkpt>
      <trkpt lat="42.7797" lon="-0.04317">
        <ele>2405.72</ele>
        <time>2017-04-20T08:45:33Z</time>
      </trkpt>
      <trkpt lat="42.77972" lon="-0.04319">
        <ele>2407.25</ele>
        <time>2017-04-20T08:45:51Z</time>
      </trkpt>
      <trkpt lat="42.77968" lon="-0.04319">
        <ele>2409.01</ele>
        <time>2017-04-20T08:46:05Z</time>
      </trkpt>
      <trkpt lat="42.77964" lon="-0.04319">
        <ele>2411.26</ele>
        <time>2017-04-20T08:46:20Z</time>
      </trkpt>
      <trkpt lat="42.77962" lon="-0.04319">
        <ele>2412.62</ele>
        <time>2017-04-20T08:46:35Z</time>
      </trkpt>
      <trkpt lat="42.77963" lon="-0.04323">
        <ele>2413.73</ele>
        <time>2017-04-20T08:46:53Z</time>
      </trkpt>
      <trkpt lat="42.77965" lon="-0.04326">
        <ele>2415.38</ele>
        <time>2017-04-20T08:47:08Z</time>
      </trkpt>
      <trkpt lat="42.77967" lon="-0.04329">
        <ele>2416.42</ele>
        <time>2017-04-20T08:47:26Z</time>
      </trkpt>
      <trkpt lat="42.77971" lon="-0.04332">
        <ele>2418.5</ele>
        <time>2017-04-20T08:47:41Z</time>
      </trkpt>
      <trkpt lat="42.77977" lon="-0.04334">
        <ele>2419.7</ele>
        <time>2017-04-20T08:47:55Z</time>
      </trkpt>
      <trkpt lat="42.77978" lon="-0.04334">
        <ele>2419.12</ele>
        <time>2017-04-20T08:48:10Z</time>
      </trkpt>
      <trkpt lat="42.77981" lon="-0.04336">
        <ele>2419.58</ele>
        <time>2017-04-20T08:48:24Z</time>
      </trkpt>
      <trkpt lat="42.77985" lon="-0.04337">
        <ele>2420.98</ele>
        <time>2017-04-20T08:48:39Z</time>
      </trkpt>
      <trkpt lat="42.7799" lon="-0.04341">
        <ele>2422.24</ele>
        <time>2017-04-20T08:48:54Z</time>
      </trkpt>
      <trkpt lat="42.77997" lon="-0.0435">
        <ele>2426.04</ele>
        <time>2017-04-20T08:49:12Z</time>
      </trkpt>
      <trkpt lat="42.78001" lon="-0.04355">
        <ele>2428.1</ele>
        <time>2017-04-20T08:49:26Z</time>
      </trkpt>
      <trkpt lat="42.78003" lon="-0.04359">
        <ele>2430.4</ele>
        <time>2017-04-20T08:49:44Z</time>
      </trkpt>
      <trkpt lat="42.77999" lon="-0.0436">
        <ele>2430.99</ele>
        <time>2017-04-20T08:49:59Z</time>
      </trkpt>
      <trkpt lat="42.77992" lon="-0.04361">
        <ele>2432.22</ele>
        <time>2017-04-20T08:50:16Z</time>
      </trkpt>
      <trkpt lat="42.77985" lon="-0.04363">
        <ele>2433.76</ele>
        <time>2017-04-20T08:50:35Z</time>
      </trkpt>
      <trkpt lat="42.77981" lon="-0.04365">
        <ele>2434.36</ele>
        <time>2017-04-20T08:50:55Z</time>
      </trkpt>
      <trkpt lat="42.77977" lon="-0.04367">
        <ele>2435.19</ele>
        <time>2017-04-20T08:51:10Z</time>
      </trkpt>
      <trkpt lat="42.77973" lon="-0.04367">
        <ele>2436.6</ele>
        <time>2017-04-20T08:51:28Z</time>
      </trkpt>
      <trkpt lat="42.7797" lon="-0.04368">
        <ele>2437.88</ele>
        <time>2017-04-20T08:51:44Z</time>
      </trkpt>
      <trkpt lat="42.7797" lon="-0.04368">
        <ele>2437.5</ele>
        <time>2017-04-20T08:52:07Z</time>
      </trkpt>
      <trkpt lat="42.7797" lon="-0.04368">
        <ele>2438.63</ele>
        <time>2017-04-20T08:52:28Z</time>
      </trkpt>
      <trkpt lat="42.7797" lon="-0.04369">
        <ele>2438.82</ele>
        <time>2017-04-20T08:52:48Z</time>
      </trkpt>
      <trkpt lat="42.77969" lon="-0.04368">
        <ele>2438.61</ele>
        <time>2017-04-20T08:53:47Z</time>
      </trkpt>
      <trkpt lat="42.77969" lon="-0.0437">
        <ele>2438.1</ele>
        <time>2017-04-20T08:54:32Z</time>
      </trkpt>
      <trkpt lat="42.77968" lon="-0.04369">
        <ele>2437.93</ele>
        <time>2017-04-20T08:54:57Z</time>
      </trkpt>
      <trkpt lat="42.77968" lon="-0.04368">
        <ele>2437.95</ele>
        <time>2017-04-20T08:55:21Z</time>
      </trkpt>
      <trkpt lat="42.77967" lon="-0.04372">
        <ele>2438.8</ele>
        <time>2017-04-20T08:55:48Z</time>
      </trkpt>
      <trkpt lat="42.77967" lon="-0.04371">
        <ele>2440.33</ele>
        <time>2017-04-20T08:56:18Z</time>
      </trkpt>
      <trkpt lat="42.77968" lon="-0.04369">
        <ele>2441.67</ele>
        <time>2017-04-20T08:57:01Z</time>
      </trkpt>
      <trkpt lat="42.77967" lon="-0.04368">
        <ele>2444.64</ele>
        <time>2017-04-20T08:57:42Z</time>
      </trkpt>
      <trkpt lat="42.77967" lon="-0.04368">
        <ele>2444.94</ele>
        <time>2017-04-20T08:58:21Z</time>
      </trkpt>
      <trkpt lat="42.77967" lon="-0.04368">
        <ele>2444.83</ele>
        <time>2017-04-20T08:58:53Z</time>
      </trkpt>
      <trkpt lat="42.77968" lon="-0.04368">
        <ele>2444.56</ele>
        <time>2017-04-20T08:59:31Z</time>
      </trkpt>
      <trkpt lat="42.77968" lon="-0.04366">
        <ele>2444.65</ele>
        <time>2017-04-20T08:59:51Z</time>
      </trkpt>
      <trkpt lat="42.77966" lon="-0.04367">
        <ele>2445.9</ele>
        <time>2017-04-20T09:00:12Z</time>
      </trkpt>
      <trkpt lat="42.77965" lon="-0.04369">
        <ele>2447.57</ele>
        <time>2017-04-20T09:00:27Z</time>
      </trkpt>
      <trkpt lat="42.77966" lon="-0.04369">
        <ele>2446.91</ele>
        <time>2017-04-20T09:00:49Z</time>
      </trkpt>
      <trkpt lat="42.77966" lon="-0.04371">
        <ele>2446.84</ele>
        <time>2017-04-20T09:01:19Z</time>
      </trkpt>
      <trkpt lat="42.77966" lon="-0.04373">
        <ele>2447.56</ele>
        <time>2017-04-20T09:01:32Z</time>
      </trkpt>
      <trkpt lat="42.77967" lon="-0.04377">
        <ele>2448.38</ele>
        <time>2017-04-20T09:01:48Z</time>
      </trkpt>
      <trkpt lat="42.77967" lon="-0.04381">
        <ele>2449.26</ele>
        <time>2017-04-20T09:02:04Z</time>
      </trkpt>
      <trkpt lat="42.77967" lon="-0.04384">
        <ele>2449.68</ele>
        <time>2017-04-20T09:02:18Z</time>
      </trkpt>
      <trkpt lat="42.77966" lon="-0.04387">
        <ele>2450.29</ele>
        <time>2017-04-20T09:02:31Z</time>
      </trkpt>
      <trkpt lat="42.77966" lon="-0.04387">
        <ele>2450.58</ele>
        <time>2017-04-20T09:02:47Z</time>
      </trkpt>
      <trkpt lat="42.77966" lon="-0.04388">
        <ele>2452.06</ele>
        <time>2017-04-20T09:03:11Z</time>
      </trkpt>
      <trkpt lat="42.77966" lon="-0.04391">
        <ele>2452.55</ele>
        <time>2017-04-20T09:03:28Z</time>
      </trkpt>
      <trkpt lat="42.77966" lon="-0.04392">
        <ele>2453.52</ele>
        <time>2017-04-20T09:03:46Z</time>
      </trkpt>
      <trkpt lat="42.77965" lon="-0.04392">
        <ele>2453.42</ele>
        <time>2017-04-20T09:04:03Z</time>
      </trkpt>
      <trkpt lat="42.77966" lon="-0.04393">
        <ele>2454.44</ele>
        <time>2017-04-20T09:04:19Z</time>
      </trkpt>
      <trkpt lat="42.77966" lon="-0.04394">
        <ele>2454.43</ele>
        <time>2017-04-20T09:04:32Z</time>
      </trkpt>
      <trkpt lat="42.77966" lon="-0.04396">
        <ele>2455.66</ele>
        <time>2017-04-20T09:04:48Z</time>
      </trkpt>
      <trkpt lat="42.77966" lon="-0.04397">
        <ele>2455.26</ele>
        <time>2017-04-20T09:05:10Z</time>
      </trkpt>
      <trkpt lat="42.77966" lon="-0.04397">
        <ele>2456.15</ele>
        <time>2017-04-20T09:05:31Z</time>
      </trkpt>
      <trkpt lat="42.77966" lon="-0.04397">
        <ele>2455.74</ele>
        <time>2017-04-20T09:05:47Z</time>
      </trkpt>
      <trkpt lat="42.77967" lon="-0.04399">
        <ele>2455.9</ele>
        <time>2017-04-20T09:06:04Z</time>
      </trkpt>
      <trkpt lat="42.77968" lon="-0.044">
        <ele>2456.04</ele>
        <time>2017-04-20T09:06:20Z</time>
      </trkpt>
      <trkpt lat="42.77969" lon="-0.04401">
        <ele>2457.13</ele>
        <time>2017-04-20T09:06:35Z</time>
      </trkpt>
      <trkpt lat="42.7797" lon="-0.04402">
        <ele>2457.07</ele>
        <time>2017-04-20T09:06:50Z</time>
      </trkpt>
      <trkpt lat="42.77971" lon="-0.04403">
        <ele>2457.62</ele>
        <time>2017-04-20T09:07:04Z</time>
      </trkpt>
      <trkpt lat="42.77971" lon="-0.04402">
        <ele>2458.37</ele>
        <time>2017-04-20T09:07:31Z</time>
      </trkpt>
      <trkpt lat="42.77971" lon="-0.04404">
        <ele>2459.1</ele>
        <time>2017-04-20T09:07:56Z</time>
      </trkpt>
      <trkpt lat="42.7797" lon="-0.04405">
        <ele>2460.32</ele>
        <time>2017-04-20T09:08:09Z</time>
      </trkpt>
      <trkpt lat="42.7797" lon="-0.04406">
        <ele>2461.43</ele>
        <time>2017-04-20T09:08:23Z</time>
      </trkpt>
      <trkpt lat="42.77973" lon="-0.04406">
        <ele>2462.06</ele>
        <time>2017-04-20T09:08:36Z</time>
      </trkpt>
      <trkpt lat="42.77976" lon="-0.04408">
        <ele>2462.7</ele>
        <time>2017-04-20T09:08:50Z</time>
      </trkpt>
      <trkpt lat="42.77975" lon="-0.04409">
        <ele>2463.49</ele>
        <time>2017-04-20T09:09:09Z</time>
      </trkpt>
      <trkpt lat="42.77973" lon="-0.04411">
        <ele>2465.43</ele>
        <time>2017-04-20T09:09:26Z</time>
      </trkpt>
      <trkpt lat="42.77972" lon="-0.04412">
        <ele>2467.1</ele>
        <time>2017-04-20T09:09:40Z</time>
      </trkpt>
      <trkpt lat="42.77971" lon="-0.04412">
        <ele>2467.76</ele>
        <time>2017-04-20T09:10:01Z</time>
      </trkpt>
      <trkpt lat="42.77971" lon="-0.04413">
        <ele>2468.09</ele>
        <time>2017-04-20T09:10:21Z</time>
      </trkpt>
      <trkpt lat="42.77972" lon="-0.04415">
        <ele>2469.5</ele>
        <time>2017-04-20T09:10:34Z</time>
      </trkpt>
      <trkpt lat="42.77972" lon="-0.04417">
        <ele>2470.61</ele>
        <time>2017-04-20T09:10:50Z</time>
      </trkpt>
      <trkpt lat="42.77972" lon="-0.04419">
        <ele>2472.27</ele>
        <time>2017-04-20T09:11:08Z</time>
      </trkpt>
      <trkpt lat="42.77974" lon="-0.04421">
        <ele>2473.46</ele>
        <time>2017-04-20T09:11:25Z</time>
      </trkpt>
      <trkpt lat="42.77976" lon="-0.04424">
        <ele>2474.62</ele>
        <time>2017-04-20T09:11:40Z</time>
      </trkpt>
      <trkpt lat="42.77977" lon="-0.04426">
        <ele>2475.28</ele>
        <time>2017-04-20T09:12:01Z</time>
      </trkpt>
      <trkpt lat="42.77979" lon="-0.04429">
        <ele>2477</ele>
        <time>2017-04-20T09:12:17Z</time>
      </trkpt>
      <trkpt lat="42.7798" lon="-0.04431">
        <ele>2478.15</ele>
        <time>2017-04-20T09:12:33Z</time>
      </trkpt>
      <trkpt lat="42.77981" lon="-0.04435">
        <ele>2480.14</ele>
        <time>2017-04-20T09:12:50Z</time>
      </trkpt>
      <trkpt lat="42.77981" lon="-0.04437">
        <ele>2481.76</ele>
        <time>2017-04-20T09:13:08Z</time>
      </trkpt>
      <trkpt lat="42.7798" lon="-0.04442">
        <ele>2484.57</ele>
        <time>2017-04-20T09:13:29Z</time>
      </trkpt>
      <trkpt lat="42.77979" lon="-0.04446">
        <ele>2487.35</ele>
        <time>2017-04-20T09:13:48Z</time>
      </trkpt>
      <trkpt lat="42.77977" lon="-0.04449">
        <ele>2489.23</ele>
        <time>2017-04-20T09:14:05Z</time>
      </trkpt>
      <trkpt lat="42.77975" lon="-0.04452">
        <ele>2490.67</ele>
        <time>2017-04-20T09:14:20Z</time>
      </trkpt>
      <trkpt lat="42.77973" lon="-0.04455">
        <ele>2492.52</ele>
        <time>2017-04-20T09:14:36Z</time>
      </trkpt>
      <trkpt lat="42.77972" lon="-0.04456">
        <ele>2493.71</ele>
        <time>2017-04-20T09:14:54Z</time>
      </trkpt>
      <trkpt lat="42.77969" lon="-0.04458">
        <ele>2495.27</ele>
        <time>2017-04-20T09:15:10Z</time>
      </trkpt>
      <trkpt lat="42.77967" lon="-0.04461">
        <ele>2497.22</ele>
        <time>2017-04-20T09:15:26Z</time>
      </trkpt>
      <trkpt lat="42.77964" lon="-0.04462">
        <ele>2498.16</ele>
        <time>2017-04-20T09:15:40Z</time>
      </trkpt>
      <trkpt lat="42.77962" lon="-0.04461">
        <ele>2498.6</ele>
        <time>2017-04-20T09:15:54Z</time>
      </trkpt>
      <trkpt lat="42.77961" lon="-0.04464">
        <ele>2500.42</ele>
        <time>2017-04-20T09:16:13Z</time>
      </trkpt>
      <trkpt lat="42.77957" lon="-0.04466">
        <ele>2501.07</ele>
        <time>2017-04-20T09:16:30Z</time>
      </trkpt>
      <trkpt lat="42.77951" lon="-0.04469">
        <ele>2502.66</ele>
        <time>2017-04-20T09:16:43Z</time>
      </trkpt>
      <trkpt lat="42.77949" lon="-0.04471">
        <ele>2503.46</ele>
        <time>2017-04-20T09:16:55Z</time>
      </trkpt>
      <trkpt lat="42.77946" lon="-0.04471">
        <ele>2503.31</ele>
        <time>2017-04-20T09:17:12Z</time>
      </trkpt>
      <trkpt lat="42.77939" lon="-0.04464">
        <ele>2500.37</ele>
        <time>2017-04-20T09:17:27Z</time>
      </trkpt>
      <trkpt lat="42.77929" lon="-0.04452">
        <ele>2495.54</ele>
        <time>2017-04-20T09:17:44Z</time>
      </trkpt>
      <trkpt lat="42.77921" lon="-0.04439">
        <ele>2493.69</ele>
        <time>2017-04-20T09:17:59Z</time>
      </trkpt>
      <trkpt lat="42.7792" lon="-0.0444">
        <ele>2492.89</ele>
        <time>2017-04-20T09:18:22Z</time>
      </trkpt>
      <trkpt lat="42.7792" lon="-0.0444">
        <ele>2492.93</ele>
        <time>2017-04-20T09:18:49Z</time>
      </trkpt>
      <trkpt lat="42.77916" lon="-0.04433">
        <ele>2492.93</ele>
        <time>2017-04-20T09:19:20Z</time>
      </trkpt>
      <trkpt lat="42.77914" lon="-0.04434">
        <ele>2493.2</ele>
        <time>2017-04-20T09:19:33Z</time>
      </trkpt>
      <trkpt lat="42.77913" lon="-0.04435">
        <ele>2492.44</ele>
        <time>2017-04-20T09:19:49Z</time>
      </trkpt>
      <trkpt lat="42.77913" lon="-0.04436">
        <ele>2491.48</ele>
        <time>2017-04-20T09:20:05Z</time>
      </trkpt>
      <trkpt lat="42.77915" lon="-0.04445">
        <ele>2488.96</ele>
        <time>2017-04-20T09:20:20Z</time>
      </trkpt>
      <trkpt lat="42.77915" lon="-0.04451">
        <ele>2486.54</ele>
        <time>2017-04-20T09:20:35Z</time>
      </trkpt>
      <trkpt lat="42.77916" lon="-0.04459">
        <ele>2484.42</ele>
        <time>2017-04-20T09:20:48Z</time>
      </trkpt>
      <trkpt lat="42.77919" lon="-0.04466">
        <ele>2482.7</ele>
        <time>2017-04-20T09:21:09Z</time>
      </trkpt>
      <trkpt lat="42.77919" lon="-0.04471">
        <ele>2481</ele>
        <time>2017-04-20T09:21:22Z</time>
      </trkpt>
      <trkpt lat="42.7792" lon="-0.04473">
        <ele>2480.08</ele>
        <time>2017-04-20T09:21:39Z</time>
      </trkpt>
      <trkpt lat="42.77922" lon="-0.04479">
        <ele>2480.51</ele>
        <time>2017-04-20T09:21:56Z</time>
      </trkpt>
      <trkpt lat="42.77925" lon="-0.04488">
        <ele>2479.84</ele>
        <time>2017-04-20T09:22:15Z</time>
      </trkpt>
      <trkpt lat="42.7793" lon="-0.04495">
        <ele>2479.49</ele>
        <time>2017-04-20T09:22:32Z</time>
      </trkpt>
      <trkpt lat="42.77937" lon="-0.04507">
        <ele>2479.19</ele>
        <time>2017-04-20T09:22:48Z</time>
      </trkpt>
      <trkpt lat="42.77941" lon="-0.04513">
        <ele>2478.8</ele>
        <time>2017-04-20T09:23:02Z</time>
      </trkpt>
      <trkpt lat="42.77948" lon="-0.04527">
        <ele>2477.07</ele>
        <time>2017-04-20T09:23:18Z</time>
      </trkpt>
      <trkpt lat="42.77952" lon="-0.04531">
        <ele>2474.73</ele>
        <time>2017-04-20T09:23:36Z</time>
      </trkpt>
      <trkpt lat="42.77957" lon="-0.04543">
        <ele>2475.6</ele>
        <time>2017-04-20T09:23:53Z</time>
      </trkpt>
      <trkpt lat="42.77963" lon="-0.04554">
        <ele>2476.11</ele>
        <time>2017-04-20T09:24:10Z</time>
      </trkpt>
      <trkpt lat="42.77968" lon="-0.04565">
        <ele>2476.81</ele>
        <time>2017-04-20T09:24:27Z</time>
      </trkpt>
      <trkpt lat="42.77971" lon="-0.04571">
        <ele>2476.87</ele>
        <time>2017-04-20T09:24:44Z</time>
      </trkpt>
      <trkpt lat="42.77976" lon="-0.04582">
        <ele>2477.78</ele>
        <time>2017-04-20T09:25:01Z</time>
      </trkpt>
      <trkpt lat="42.77979" lon="-0.04589">
        <ele>2479.34</ele>
        <time>2017-04-20T09:25:17Z</time>
      </trkpt>
      <trkpt lat="42.77984" lon="-0.04596">
        <ele>2479.89</ele>
        <time>2017-04-20T09:25:33Z</time>
      </trkpt>
      <trkpt lat="42.77987" lon="-0.04601">
        <ele>2480.92</ele>
        <time>2017-04-20T09:25:50Z</time>
      </trkpt>
      <trkpt lat="42.7799" lon="-0.04605">
        <ele>2483.15</ele>
        <time>2017-04-20T09:26:09Z</time>
      </trkpt>
      <trkpt lat="42.77992" lon="-0.04605">
        <ele>2483.97</ele>
        <time>2017-04-20T09:26:30Z</time>
      </trkpt>
      <trkpt lat="42.77993" lon="-0.04607">
        <ele>2484.17</ele>
        <time>2017-04-20T09:26:52Z</time>
      </trkpt>
      <trkpt lat="42.77992" lon="-0.04607">
        <ele>2486.41</ele>
        <time>2017-04-20T09:27:21Z</time>
      </trkpt>
      <trkpt lat="42.77993" lon="-0.0461">
        <ele>2487.19</ele>
        <time>2017-04-20T09:27:41Z</time>
      </trkpt>
      <trkpt lat="42.77993" lon="-0.04619">
        <ele>2489.77</ele>
        <time>2017-04-20T09:27:59Z</time>
      </trkpt>
      <trkpt lat="42.77994" lon="-0.04625">
        <ele>2490.1</ele>
        <time>2017-04-20T09:28:12Z</time>
      </trkpt>
      <trkpt lat="42.77994" lon="-0.0463">
        <ele>2491.83</ele>
        <time>2017-04-20T09:28:30Z</time>
      </trkpt>
      <trkpt lat="42.77994" lon="-0.04636">
        <ele>2492.13</ele>
        <time>2017-04-20T09:28:45Z</time>
      </trkpt>
      <trkpt lat="42.77994" lon="-0.04639">
        <ele>2493.01</ele>
        <time>2017-04-20T09:29:02Z</time>
      </trkpt>
      <trkpt lat="42.77995" lon="-0.04642">
        <ele>2493.59</ele>
        <time>2017-04-20T09:29:21Z</time>
      </trkpt>
      <trkpt lat="42.77997" lon="-0.04642">
        <ele>2494.61</ele>
        <time>2017-04-20T09:29:38Z</time>
      </trkpt>
      <trkpt lat="42.77996" lon="-0.04643">
        <ele>2495.96</ele>
        <time>2017-04-20T09:29:52Z</time>
      </trkpt>
      <trkpt lat="42.77997" lon="-0.04645">
        <ele>2495.89</ele>
        <time>2017-04-20T09:30:08Z</time>
      </trkpt>
      <trkpt lat="42.77998" lon="-0.04647">
        <ele>2496.66</ele>
        <time>2017-04-20T09:30:25Z</time>
      </trkpt>
      <trkpt lat="42.77999" lon="-0.04647">
        <ele>2497.94</ele>
        <time>2017-04-20T09:30:42Z</time>
      </trkpt>
      <trkpt lat="42.77999" lon="-0.04646">
        <ele>2499.31</ele>
        <time>2017-04-20T09:31:02Z</time>
      </trkpt>
      <trkpt lat="42.77999" lon="-0.04645">
        <ele>2499.86</ele>
        <time>2017-04-20T09:31:21Z</time>
      </trkpt>
      <trkpt lat="42.78001" lon="-0.04647">
        <ele>2499.94</ele>
        <time>2017-04-20T09:31:36Z</time>
      </trkpt>
      <trkpt lat="42.78002" lon="-0.04649">
        <ele>2500.63</ele>
        <time>2017-04-20T09:31:53Z</time>
      </trkpt>
      <trkpt lat="42.78002" lon="-0.04652">
        <ele>2501.86</ele>
        <time>2017-04-20T09:32:07Z</time>
      </trkpt>
      <trkpt lat="42.78004" lon="-0.04658">
        <ele>2502.74</ele>
        <time>2017-04-20T09:32:21Z</time>
      </trkpt>
      <trkpt lat="42.78004" lon="-0.04657">
        <ele>2504.48</ele>
        <time>2017-04-20T09:32:38Z</time>
      </trkpt>
      <trkpt lat="42.78007" lon="-0.04653">
        <ele>2505.96</ele>
        <time>2017-04-20T09:32:53Z</time>
      </trkpt>
      <trkpt lat="42.78008" lon="-0.04656">
        <ele>2506.84</ele>
        <time>2017-04-20T09:33:08Z</time>
      </trkpt>
      <trkpt lat="42.7801" lon="-0.04654">
        <ele>2507.47</ele>
        <time>2017-04-20T09:33:27Z</time>
      </trkpt>
      <trkpt lat="42.78011" lon="-0.04656">
        <ele>2508.43</ele>
        <time>2017-04-20T09:33:42Z</time>
      </trkpt>
      <trkpt lat="42.78012" lon="-0.04661">
        <ele>2509.13</ele>
        <time>2017-04-20T09:33:56Z</time>
      </trkpt>
      <trkpt lat="42.78014" lon="-0.04676">
        <ele>2510.57</ele>
        <time>2017-04-20T09:34:12Z</time>
      </trkpt>
      <trkpt lat="42.78014" lon="-0.04675">
        <ele>2512.46</ele>
        <time>2017-04-20T09:34:31Z</time>
      </trkpt>
      <trkpt lat="42.78014" lon="-0.04675">
        <ele>2513.42</ele>
        <time>2017-04-20T09:34:54Z</time>
      </trkpt>
      <trkpt lat="42.78013" lon="-0.04674">
        <ele>2513.67</ele>
        <time>2017-04-20T09:35:18Z</time>
      </trkpt>
      <trkpt lat="42.78013" lon="-0.04674">
        <ele>2513.9</ele>
        <time>2017-04-20T09:35:46Z</time>
      </trkpt>
      <trkpt lat="42.78013" lon="-0.04675">
        <ele>2515.28</ele>
        <time>2017-04-20T09:36:13Z</time>
      </trkpt>
      <trkpt lat="42.78013" lon="-0.04674">
        <ele>2515.55</ele>
        <time>2017-04-20T09:36:34Z</time>
      </trkpt>
      <trkpt lat="42.78013" lon="-0.04675">
        <ele>2516.05</ele>
        <time>2017-04-20T09:37:12Z</time>
      </trkpt>
      <trkpt lat="42.78014" lon="-0.04675">
        <ele>2515.84</ele>
        <time>2017-04-20T09:37:43Z</time>
      </trkpt>
      <trkpt lat="42.78014" lon="-0.04675">
        <ele>2516.7</ele>
        <time>2017-04-20T09:38:11Z</time>
      </trkpt>
      <trkpt lat="42.78013" lon="-0.04676">
        <ele>2516.26</ele>
        <time>2017-04-20T09:38:31Z</time>
      </trkpt>
      <trkpt lat="42.78014" lon="-0.04676">
        <ele>2515.61</ele>
        <time>2017-04-20T09:39:07Z</time>
      </trkpt>
      <trkpt lat="42.78014" lon="-0.04677">
        <ele>2513.82</ele>
        <time>2017-04-20T09:40:04Z</time>
      </trkpt>
      <trkpt lat="42.78013" lon="-0.04676">
        <ele>2513.18</ele>
        <time>2017-04-20T09:41:02Z</time>
      </trkpt>
      <trkpt lat="42.78013" lon="-0.04675">
        <ele>2514.08</ele>
        <time>2017-04-20T09:41:59Z</time>
      </trkpt>
      <trkpt lat="42.78013" lon="-0.04675">
        <ele>2513.02</ele>
        <time>2017-04-20T09:42:44Z</time>
      </trkpt>
      <trkpt lat="42.78016" lon="-0.04675">
        <ele>2512.56</ele>
        <time>2017-04-20T09:43:36Z</time>
      </trkpt>
      <trkpt lat="42.78014" lon="-0.04675">
        <ele>2513.27</ele>
        <time>2017-04-20T09:43:54Z</time>
      </trkpt>
      <trkpt lat="42.78014" lon="-0.04673">
        <ele>2513.07</ele>
        <time>2017-04-20T09:44:26Z</time>
      </trkpt>
      <trkpt lat="42.78013" lon="-0.04674">
        <ele>2513.01</ele>
        <time>2017-04-20T09:44:47Z</time>
      </trkpt>
      <trkpt lat="42.78013" lon="-0.04674">
        <ele>2513.2</ele>
        <time>2017-04-20T09:45:03Z</time>
      </trkpt>
      <trkpt lat="42.78013" lon="-0.04674">
        <ele>2513.61</ele>
        <time>2017-04-20T09:45:20Z</time>
      </trkpt>
      <trkpt lat="42.78013" lon="-0.04674">
        <ele>2513.67</ele>
        <time>2017-04-20T09:45:57Z</time>
      </trkpt>
      <trkpt lat="42.78013" lon="-0.04675">
        <ele>2513.57</ele>
        <time>2017-04-20T09:46:35Z</time>
      </trkpt>
      <trkpt lat="42.78014" lon="-0.04675">
        <ele>2513.55</ele>
        <time>2017-04-20T09:46:49Z</time>
      </trkpt>
      <trkpt lat="42.78015" lon="-0.04675">
        <ele>2514.13</ele>
        <time>2017-04-20T09:46:59Z</time>
      </trkpt>
      <trkpt lat="42.78013" lon="-0.04676">
        <ele>2513.78</ele>
        <time>2017-04-20T09:47:18Z</time>
      </trkpt>
      <trkpt lat="42.78013" lon="-0.04678">
        <ele>2513.84</ele>
        <time>2017-04-20T09:47:32Z</time>
      </trkpt>
      <trkpt lat="42.78013" lon="-0.04683">
        <ele>2514.25</ele>
        <time>2017-04-20T09:47:51Z</time>
      </trkpt>
      <trkpt lat="42.78013" lon="-0.04686">
        <ele>2514.95</ele>
        <time>2017-04-20T09:48:23Z</time>
      </trkpt>
      <trkpt lat="42.78013" lon="-0.04702">
        <ele>2517.84</ele>
        <time>2017-04-20T09:48:42Z</time>
      </trkpt>
      <trkpt lat="42.78014" lon="-0.04717">
        <ele>2520.88</ele>
        <time>2017-04-20T09:49:01Z</time>
      </trkpt>
      <trkpt lat="42.78015" lon="-0.04731">
        <ele>2523.54</ele>
        <time>2017-04-20T09:49:20Z</time>
      </trkpt>
      <trkpt lat="42.78017" lon="-0.04745">
        <ele>2527.63</ele>
        <time>2017-04-20T09:49:41Z</time>
      </trkpt>
      <trkpt lat="42.78018" lon="-0.04758">
        <ele>2531.18</ele>
        <time>2017-04-20T09:50:00Z</time>
      </trkpt>
      <trkpt lat="42.78019" lon="-0.04771">
        <ele>2534.15</ele>
        <time>2017-04-20T09:50:20Z</time>
      </trkpt>
      <trkpt lat="42.78021" lon="-0.04785">
        <ele>2537.68</ele>
        <time>2017-04-20T09:50:41Z</time>
      </trkpt>
      <trkpt lat="42.78024" lon="-0.04798">
        <ele>2540.85</ele>
        <time>2017-04-20T09:51:01Z</time>
      </trkpt>
      <trkpt lat="42.78028" lon="-0.04809">
        <ele>2544.13</ele>
        <time>2017-04-20T09:51:20Z</time>
      </trkpt>
      <trkpt lat="42.78035" lon="-0.04824">
        <ele>2547.56</ele>
        <time>2017-04-20T09:51:43Z</time>
      </trkpt>
      <trkpt lat="42.78045" lon="-0.04835">
        <ele>2551.88</ele>
        <time>2017-04-20T09:52:07Z</time>
      </trkpt>
      <trkpt lat="42.78054" lon="-0.04839">
        <ele>2555.48</ele>
        <time>2017-04-20T09:52:28Z</time>
      </trkpt>
      <trkpt lat="42.78067" lon="-0.04842">
        <ele>2558.46</ele>
        <time>2017-04-20T09:52:48Z</time>
      </trkpt>
      <trkpt lat="42.78065" lon="-0.04849">
        <ele>2560</ele>
        <time>2017-04-20T09:53:01Z</time>
      </trkpt>
      <trkpt lat="42.78059" lon="-0.04859">
        <ele>2562.87</ele>
        <time>2017-04-20T09:53:20Z</time>
      </trkpt>
      <trkpt lat="42.78055" lon="-0.04863">
        <ele>2564.86</ele>
        <time>2017-04-20T09:53:37Z</time>
      </trkpt>
      <trkpt lat="42.78062" lon="-0.0487">
        <ele>2567.1</ele>
        <time>2017-04-20T09:53:54Z</time>
      </trkpt>
      <trkpt lat="42.7807" lon="-0.04874">
        <ele>2570.29</ele>
        <time>2017-04-20T09:54:12Z</time>
      </trkpt>
      <trkpt lat="42.78077" lon="-0.04876">
        <ele>2572.26</ele>
        <time>2017-04-20T09:54:26Z</time>
      </trkpt>
      <trkpt lat="42.78084" lon="-0.04876">
        <ele>2574.7</ele>
        <time>2017-04-20T09:54:43Z</time>
      </trkpt>
      <trkpt lat="42.78093" lon="-0.04873">
        <ele>2578.54</ele>
        <time>2017-04-20T09:55:03Z</time>
      </trkpt>
      <trkpt lat="42.78104" lon="-0.0487">
        <ele>2581.68</ele>
        <time>2017-04-20T09:55:24Z</time>
      </trkpt>
      <trkpt lat="42.78114" lon="-0.04865">
        <ele>2582.46</ele>
        <time>2017-04-20T09:55:43Z</time>
      </trkpt>
      <trkpt lat="42.78122" lon="-0.04853">
        <ele>2585.64</ele>
        <time>2017-04-20T09:56:05Z</time>
      </trkpt>
      <trkpt lat="42.78127" lon="-0.04844">
        <ele>2587.41</ele>
        <time>2017-04-20T09:56:22Z</time>
      </trkpt>
      <trkpt lat="42.78135" lon="-0.04847">
        <ele>2590.46</ele>
        <time>2017-04-20T09:56:39Z</time>
      </trkpt>
      <trkpt lat="42.78138" lon="-0.04857">
        <ele>2593.35</ele>
        <time>2017-04-20T09:56:56Z</time>
      </trkpt>
      <trkpt lat="42.78142" lon="-0.04868">
        <ele>2595.64</ele>
        <time>2017-04-20T09:57:14Z</time>
      </trkpt>
      <trkpt lat="42.78144" lon="-0.0488">
        <ele>2598.35</ele>
        <time>2017-04-20T09:57:30Z</time>
      </trkpt>
      <trkpt lat="42.78145" lon="-0.0489">
        <ele>2601.26</ele>
        <time>2017-04-20T09:57:47Z</time>
      </trkpt>
      <trkpt lat="42.78146" lon="-0.04893">
        <ele>2602.18</ele>
        <time>2017-04-20T09:58:14Z</time>
      </trkpt>
      <trkpt lat="42.78146" lon="-0.04904">
        <ele>2604.2</ele>
        <time>2017-04-20T09:58:28Z</time>
      </trkpt>
      <trkpt lat="42.78144" lon="-0.04917">
        <ele>2607.41</ele>
        <time>2017-04-20T09:58:43Z</time>
      </trkpt>
      <trkpt lat="42.78141" lon="-0.04928">
        <ele>2608.55</ele>
        <time>2017-04-20T09:58:59Z</time>
      </trkpt>
      <trkpt lat="42.78141" lon="-0.0493">
        <ele>2608.83</ele>
        <time>2017-04-20T09:59:23Z</time>
      </trkpt>
      <trkpt lat="42.78141" lon="-0.0493">
        <ele>2609.11</ele>
        <time>2017-04-20T09:59:59Z</time>
      </trkpt>
      <trkpt lat="42.78142" lon="-0.04929">
        <ele>2609.97</ele>
        <time>2017-04-20T10:00:21Z</time>
      </trkpt>
      <trkpt lat="42.7814" lon="-0.04932">
        <ele>2610.67</ele>
        <time>2017-04-20T10:00:42Z</time>
      </trkpt>
      <trkpt lat="42.78136" lon="-0.04943">
        <ele>2613.56</ele>
        <time>2017-04-20T10:01:00Z</time>
      </trkpt>
      <trkpt lat="42.78132" lon="-0.04955">
        <ele>2616.55</ele>
        <time>2017-04-20T10:01:19Z</time>
      </trkpt>
      <trkpt lat="42.78128" lon="-0.0497">
        <ele>2620.47</ele>
        <time>2017-04-20T10:01:39Z</time>
      </trkpt>
      <trkpt lat="42.78128" lon="-0.04975">
        <ele>2622.21</ele>
        <time>2017-04-20T10:01:54Z</time>
      </trkpt>
      <trkpt lat="42.78136" lon="-0.04972">
        <ele>2626.16</ele>
        <time>2017-04-20T10:02:11Z</time>
      </trkpt>
      <trkpt lat="42.78147" lon="-0.04971">
        <ele>2629.79</ele>
        <time>2017-04-20T10:02:33Z</time>
      </trkpt>
      <trkpt lat="42.78145" lon="-0.0498">
        <ele>2631.87</ele>
        <time>2017-04-20T10:02:49Z</time>
      </trkpt>
      <trkpt lat="42.78153" lon="-0.04982">
        <ele>2633.41</ele>
        <time>2017-04-20T10:03:05Z</time>
      </trkpt>
      <trkpt lat="42.78166" lon="-0.0499">
        <ele>2635.92</ele>
        <time>2017-04-20T10:03:28Z</time>
      </trkpt>
      <trkpt lat="42.78175" lon="-0.04996">
        <ele>2638.27</ele>
        <time>2017-04-20T10:03:46Z</time>
      </trkpt>
      <trkpt lat="42.78187" lon="-0.0499">
        <ele>2641.49</ele>
        <time>2017-04-20T10:04:07Z</time>
      </trkpt>
      <trkpt lat="42.78198" lon="-0.0498">
        <ele>2643.39</ele>
        <time>2017-04-20T10:04:30Z</time>
      </trkpt>
      <trkpt lat="42.78204" lon="-0.0499">
        <ele>2647.35</ele>
        <time>2017-04-20T10:04:48Z</time>
      </trkpt>
      <trkpt lat="42.78209" lon="-0.05">
        <ele>2650.41</ele>
        <time>2017-04-20T10:05:04Z</time>
      </trkpt>
      <trkpt lat="42.78217" lon="-0.05003">
        <ele>2653.85</ele>
        <time>2017-04-20T10:05:20Z</time>
      </trkpt>
      <trkpt lat="42.78226" lon="-0.05001">
        <ele>2657</ele>
        <time>2017-04-20T10:05:38Z</time>
      </trkpt>
      <trkpt lat="42.78241" lon="-0.04998">
        <ele>2659.61</ele>
        <time>2017-04-20T10:06:02Z</time>
      </trkpt>
      <trkpt lat="42.78248" lon="-0.05004">
        <ele>2663.37</ele>
        <time>2017-04-20T10:06:19Z</time>
      </trkpt>
      <trkpt lat="42.78257" lon="-0.05014">
        <ele>2665.72</ele>
        <time>2017-04-20T10:06:38Z</time>
      </trkpt>
      <trkpt lat="42.78264" lon="-0.05023">
        <ele>2668.09</ele>
        <time>2017-04-20T10:06:55Z</time>
      </trkpt>
      <trkpt lat="42.78272" lon="-0.05034">
        <ele>2670.26</ele>
        <time>2017-04-20T10:07:15Z</time>
      </trkpt>
      <trkpt lat="42.78279" lon="-0.05046">
        <ele>2671.82</ele>
        <time>2017-04-20T10:07:34Z</time>
      </trkpt>
      <trkpt lat="42.78285" lon="-0.05059">
        <ele>2674.59</ele>
        <time>2017-04-20T10:07:54Z</time>
      </trkpt>
      <trkpt lat="42.78289" lon="-0.05069">
        <ele>2675.83</ele>
        <time>2017-04-20T10:08:10Z</time>
      </trkpt>
      <trkpt lat="42.78292" lon="-0.05079">
        <ele>2678.15</ele>
        <time>2017-04-20T10:08:24Z</time>
      </trkpt>
      <trkpt lat="42.78297" lon="-0.05086">
        <ele>2680.22</ele>
        <time>2017-04-20T10:08:43Z</time>
      </trkpt>
      <trkpt lat="42.7831" lon="-0.05079">
        <ele>2682.63</ele>
        <time>2017-04-20T10:09:05Z</time>
      </trkpt>
      <trkpt lat="42.78319" lon="-0.05074">
        <ele>2686.21</ele>
        <time>2017-04-20T10:09:25Z</time>
      </trkpt>
      <trkpt lat="42.78325" lon="-0.05078">
        <ele>2689.84</ele>
        <time>2017-04-20T10:09:43Z</time>
      </trkpt>
      <trkpt lat="42.78325" lon="-0.05082">
        <ele>2689.87</ele>
        <time>2017-04-20T10:10:02Z</time>
      </trkpt>
      <trkpt lat="42.78324" lon="-0.05092">
        <ele>2691.45</ele>
        <time>2017-04-20T10:10:18Z</time>
      </trkpt>
      <trkpt lat="42.78323" lon="-0.05104">
        <ele>2693.53</ele>
        <time>2017-04-20T10:10:38Z</time>
      </trkpt>
      <trkpt lat="42.78329" lon="-0.05101">
        <ele>2694.82</ele>
        <time>2017-04-20T10:11:00Z</time>
      </trkpt>
      <trkpt lat="42.78341" lon="-0.05096">
        <ele>2696.79</ele>
        <time>2017-04-20T10:11:20Z</time>
      </trkpt>
      <trkpt lat="42.78349" lon="-0.0509">
        <ele>2698.35</ele>
        <time>2017-04-20T10:11:36Z</time>
      </trkpt>
      <trkpt lat="42.78355" lon="-0.05085">
        <ele>2701.75</ele>
        <time>2017-04-20T10:11:54Z</time>
      </trkpt>
      <trkpt lat="42.78355" lon="-0.05093">
        <ele>2703.69</ele>
        <time>2017-04-20T10:12:09Z</time>
      </trkpt>
      <trkpt lat="42.78354" lon="-0.05098">
        <ele>2704.17</ele>
        <time>2017-04-20T10:12:27Z</time>
      </trkpt>
      <trkpt lat="42.78353" lon="-0.05111">
        <ele>2707.63</ele>
        <time>2017-04-20T10:12:46Z</time>
      </trkpt>
      <trkpt lat="42.7835" lon="-0.05125">
        <ele>2711.55</ele>
        <time>2017-04-20T10:13:05Z</time>
      </trkpt>
      <trkpt lat="42.78349" lon="-0.0513">
        <ele>2712.52</ele>
        <time>2017-04-20T10:13:20Z</time>
      </trkpt>
      <trkpt lat="42.78356" lon="-0.05124">
        <ele>2715.67</ele>
        <time>2017-04-20T10:13:37Z</time>
      </trkpt>
      <trkpt lat="42.78366" lon="-0.05115">
        <ele>2719.14</ele>
        <time>2017-04-20T10:13:59Z</time>
      </trkpt>
      <trkpt lat="42.78372" lon="-0.0511">
        <ele>2719.55</ele>
        <time>2017-04-20T10:14:16Z</time>
      </trkpt>
      <trkpt lat="42.78375" lon="-0.05107">
        <ele>2719.17</ele>
        <time>2017-04-20T10:14:44Z</time>
      </trkpt>
      <trkpt lat="42.78381" lon="-0.05101">
        <ele>2721.45</ele>
        <time>2017-04-20T10:15:00Z</time>
      </trkpt>
      <trkpt lat="42.78385" lon="-0.05096">
        <ele>2722.6</ele>
        <time>2017-04-20T10:15:13Z</time>
      </trkpt>
      <trkpt lat="42.78388" lon="-0.05089">
        <ele>2723.34</ele>
        <time>2017-04-20T10:15:29Z</time>
      </trkpt>
      <trkpt lat="42.7839" lon="-0.05084">
        <ele>2725.43</ele>
        <time>2017-04-20T10:15:43Z</time>
      </trkpt>
      <trkpt lat="42.78392" lon="-0.05079">
        <ele>2726.13</ele>
        <time>2017-04-20T10:16:00Z</time>
      </trkpt>
      <trkpt lat="42.78394" lon="-0.05074">
        <ele>2727.51</ele>
        <time>2017-04-20T10:16:16Z</time>
      </trkpt>
      <trkpt lat="42.78395" lon="-0.05072">
        <ele>2728.25</ele>
        <time>2017-04-20T10:16:30Z</time>
      </trkpt>
      <trkpt lat="42.78394" lon="-0.05073">
        <ele>2729.25</ele>
        <time>2017-04-20T10:16:54Z</time>
      </trkpt>
      <trkpt lat="42.78395" lon="-0.05076">
        <ele>2729.8</ele>
        <time>2017-04-20T10:17:15Z</time>
      </trkpt>
      <trkpt lat="42.78397" lon="-0.05084">
        <ele>2732.41</ele>
        <time>2017-04-20T10:17:33Z</time>
      </trkpt>
      <trkpt lat="42.78399" lon="-0.05081">
        <ele>2732.64</ele>
        <time>2017-04-20T10:17:49Z</time>
      </trkpt>
      <trkpt lat="42.78401" lon="-0.05072">
        <ele>2733.24</ele>
        <time>2017-04-20T10:18:08Z</time>
      </trkpt>
      <trkpt lat="42.78402" lon="-0.05071">
        <ele>2733.47</ele>
        <time>2017-04-20T10:18:22Z</time>
      </trkpt>
      <trkpt lat="42.78402" lon="-0.05071">
        <ele>2734.07</ele>
        <time>2017-04-20T10:18:44Z</time>
      </trkpt>
      <trkpt lat="42.78403" lon="-0.05072">
        <ele>2734.37</ele>
        <time>2017-04-20T10:19:03Z</time>
      </trkpt>
      <trkpt lat="42.78404" lon="-0.05075">
        <ele>2736.53</ele>
        <time>2017-04-20T10:19:22Z</time>
      </trkpt>
      <trkpt lat="42.78405" lon="-0.05078">
        <ele>2737.07</ele>
        <time>2017-04-20T10:19:41Z</time>
      </trkpt>
      <trkpt lat="42.78405" lon="-0.0508">
        <ele>2737.32</ele>
        <time>2017-04-20T10:19:57Z</time>
      </trkpt>
      <trkpt lat="42.78405" lon="-0.05079">
        <ele>2737.51</ele>
        <time>2017-04-20T10:20:18Z</time>
      </trkpt>
      <trkpt lat="42.78407" lon="-0.05075">
        <ele>2737.64</ele>
        <time>2017-04-20T10:20:33Z</time>
      </trkpt>
      <trkpt lat="42.78411" lon="-0.05077">
        <ele>2739</ele>
        <time>2017-04-20T10:20:44Z</time>
      </trkpt>
      <trkpt lat="42.78411" lon="-0.05078">
        <ele>2739.26</ele>
        <time>2017-04-20T10:21:04Z</time>
      </trkpt>
      <trkpt lat="42.78412" lon="-0.05075">
        <ele>2739.93</ele>
        <time>2017-04-20T10:21:23Z</time>
      </trkpt>
      <trkpt lat="42.78412" lon="-0.05075">
        <ele>2739.09</ele>
        <time>2017-04-20T10:21:43Z</time>
      </trkpt>
      <trkpt lat="42.78412" lon="-0.05074">
        <ele>2739.92</ele>
        <time>2017-04-20T10:22:12Z</time>
      </trkpt>
      <trkpt lat="42.78411" lon="-0.05074">
        <ele>2740.8</ele>
        <time>2017-04-20T10:22:42Z</time>
      </trkpt>
      <trkpt lat="42.78411" lon="-0.05074">
        <ele>2740.77</ele>
        <time>2017-04-20T10:23:14Z</time>
      </trkpt>
      <trkpt lat="42.78412" lon="-0.05074">
        <ele>2740.67</ele>
        <time>2017-04-20T10:23:40Z</time>
      </trkpt>
      <trkpt lat="42.78412" lon="-0.05074">
        <ele>2741.63</ele>
        <time>2017-04-20T10:24:14Z</time>
      </trkpt>
      <trkpt lat="42.78412" lon="-0.05074">
        <ele>2741.56</ele>
        <time>2017-04-20T10:24:52Z</time>
      </trkpt>
      <trkpt lat="42.78412" lon="-0.05075">
        <ele>2740.97</ele>
        <time>2017-04-20T10:25:18Z</time>
      </trkpt>
      <trkpt lat="42.78413" lon="-0.05074">
        <ele>2740.43</ele>
        <time>2017-04-20T10:25:35Z</time>
      </trkpt>
      <trkpt lat="42.78413" lon="-0.05075">
        <ele>2740.16</ele>
        <time>2017-04-20T10:26:08Z</time>
      </trkpt>
      <trkpt lat="42.78412" lon="-0.05073">
        <ele>2739.64</ele>
        <time>2017-04-20T10:26:36Z</time>
      </trkpt>
      <trkpt lat="42.78412" lon="-0.05076">
        <ele>2739.53</ele>
        <time>2017-04-20T10:26:58Z</time>
      </trkpt>
      <trkpt lat="42.78412" lon="-0.05075">
        <ele>2739.37</ele>
        <time>2017-04-20T10:27:24Z</time>
      </trkpt>
      <trkpt lat="42.78412" lon="-0.05074">
        <ele>2738.94</ele>
        <time>2017-04-20T10:27:51Z</time>
      </trkpt>
      <trkpt lat="42.78411" lon="-0.05075">
        <ele>2738.65</ele>
        <time>2017-04-20T10:28:25Z</time>
      </trkpt>
      <trkpt lat="42.78411" lon="-0.05074">
        <ele>2738.6</ele>
        <time>2017-04-20T10:28:52Z</time>
      </trkpt>
      <trkpt lat="42.78411" lon="-0.05074">
        <ele>2738.35</ele>
        <time>2017-04-20T10:29:21Z</time>
      </trkpt>
      <trkpt lat="42.78412" lon="-0.05073">
        <ele>2739.19</ele>
        <time>2017-04-20T10:29:43Z</time>
      </trkpt>
      <trkpt lat="42.78412" lon="-0.05073">
        <ele>2739.23</ele>
        <time>2017-04-20T10:30:24Z</time>
      </trkpt>
      <trkpt lat="42.78412" lon="-0.05074">
        <ele>2739.55</ele>
        <time>2017-04-20T10:30:58Z</time>
      </trkpt>
      <trkpt lat="42.78412" lon="-0.05076">
        <ele>2739.59</ele>
        <time>2017-04-20T10:31:16Z</time>
      </trkpt>
      <trkpt lat="42.78412" lon="-0.0508">
        <ele>2740.38</ele>
        <time>2017-04-20T10:31:57Z</time>
      </trkpt>
      <trkpt lat="42.78412" lon="-0.05086">
        <ele>2741.43</ele>
        <time>2017-04-20T10:32:13Z</time>
      </trkpt>
      <trkpt lat="42.78413" lon="-0.05093">
        <ele>2742.12</ele>
        <time>2017-04-20T10:32:33Z</time>
      </trkpt>
      <trkpt lat="42.78413" lon="-0.051">
        <ele>2742.96</ele>
        <time>2017-04-20T10:32:50Z</time>
      </trkpt>
      <trkpt lat="42.78413" lon="-0.05107">
        <ele>2744.24</ele>
        <time>2017-04-20T10:33:07Z</time>
      </trkpt>
      <trkpt lat="42.78416" lon="-0.05115">
        <ele>2745.87</ele>
        <time>2017-04-20T10:33:22Z</time>
      </trkpt>
      <trkpt lat="42.78419" lon="-0.05121">
        <ele>2748.73</ele>
        <time>2017-04-20T10:33:37Z</time>
      </trkpt>
      <trkpt lat="42.78421" lon="-0.05127">
        <ele>2751.16</ele>
        <time>2017-04-20T10:33:53Z</time>
      </trkpt>
      <trkpt lat="42.78417" lon="-0.05131">
        <ele>2753.29</ele>
        <time>2017-04-20T10:34:16Z</time>
      </trkpt>
      <trkpt lat="42.78414" lon="-0.05133">
        <ele>2753.38</ele>
        <time>2017-04-20T10:34:36Z</time>
      </trkpt>
      <trkpt lat="42.78414" lon="-0.05134">
        <ele>2754.31</ele>
        <time>2017-04-20T10:35:05Z</time>
      </trkpt>
      <trkpt lat="42.78416" lon="-0.05139">
        <ele>2755.62</ele>
        <time>2017-04-20T10:35:24Z</time>
      </trkpt>
      <trkpt lat="42.7842" lon="-0.05147">
        <ele>2757.9</ele>
        <time>2017-04-20T10:35:40Z</time>
      </trkpt>
      <trkpt lat="42.78415" lon="-0.05153">
        <ele>2759.68</ele>
        <time>2017-04-20T10:35:56Z</time>
      </trkpt>
      <trkpt lat="42.78419" lon="-0.05159">
        <ele>2760.67</ele>
        <time>2017-04-20T10:36:11Z</time>
      </trkpt>
      <trkpt lat="42.7842" lon="-0.05164">
        <ele>2762.09</ele>
        <time>2017-04-20T10:36:23Z</time>
      </trkpt>
      <trkpt lat="42.78417" lon="-0.05171">
        <ele>2764.18</ele>
        <time>2017-04-20T10:36:39Z</time>
      </trkpt>
      <trkpt lat="42.78417" lon="-0.05179">
        <ele>2765.34</ele>
        <time>2017-04-20T10:36:52Z</time>
      </trkpt>
      <trkpt lat="42.7842" lon="-0.05184">
        <ele>2766.86</ele>
        <time>2017-04-20T10:37:07Z</time>
      </trkpt>
      <trkpt lat="42.78422" lon="-0.05188">
        <ele>2767.24</ele>
        <time>2017-04-20T10:37:23Z</time>
      </trkpt>
      <trkpt lat="42.78422" lon="-0.05192">
        <ele>2769.85</ele>
        <time>2017-04-20T10:37:41Z</time>
      </trkpt>
      <trkpt lat="42.78421" lon="-0.05196">
        <ele>2771.8</ele>
        <time>2017-04-20T10:37:58Z</time>
      </trkpt>
      <trkpt lat="42.78421" lon="-0.05202">
        <ele>2775.5</ele>
        <time>2017-04-20T10:38:17Z</time>
      </trkpt>
      <trkpt lat="42.78423" lon="-0.0521">
        <ele>2777.11</ele>
        <time>2017-04-20T10:38:33Z</time>
      </trkpt>
      <trkpt lat="42.78422" lon="-0.05221">
        <ele>2778.91</ele>
        <time>2017-04-20T10:38:54Z</time>
      </trkpt>
      <trkpt lat="42.7842" lon="-0.05227">
        <ele>2780.96</ele>
        <time>2017-04-20T10:39:09Z</time>
      </trkpt>
      <trkpt lat="42.7842" lon="-0.05235">
        <ele>2782.73</ele>
        <time>2017-04-20T10:39:24Z</time>
      </trkpt>
      <trkpt lat="42.7842" lon="-0.05246">
        <ele>2784.95</ele>
        <time>2017-04-20T10:39:43Z</time>
      </trkpt>
      <trkpt lat="42.7842" lon="-0.0525">
        <ele>2784.35</ele>
        <time>2017-04-20T10:40:05Z</time>
      </trkpt>
      <trkpt lat="42.7842" lon="-0.05248">
        <ele>2784.3</ele>
        <time>2017-04-20T10:40:35Z</time>
      </trkpt>
      <trkpt lat="42.78419" lon="-0.05249">
        <ele>2784.78</ele>
        <time>2017-04-20T10:41:04Z</time>
      </trkpt>
      <trkpt lat="42.7842" lon="-0.05248">
        <ele>2786.34</ele>
        <time>2017-04-20T10:41:25Z</time>
      </trkpt>
      <trkpt lat="42.7842" lon="-0.05248">
        <ele>2787.28</ele>
        <time>2017-04-20T10:41:46Z</time>
      </trkpt>
      <trkpt lat="42.7842" lon="-0.05248">
        <ele>2787.74</ele>
        <time>2017-04-20T10:42:08Z</time>
      </trkpt>
      <trkpt lat="42.7842" lon="-0.05247">
        <ele>2787.84</ele>
        <time>2017-04-20T10:42:31Z</time>
      </trkpt>
      <trkpt lat="42.7842" lon="-0.05247">
        <ele>2786.61</ele>
        <time>2017-04-20T10:43:02Z</time>
      </trkpt>
      <trkpt lat="42.7842" lon="-0.05246">
        <ele>2786.89</ele>
        <time>2017-04-20T10:43:39Z</time>
      </trkpt>
      <trkpt lat="42.7842" lon="-0.05247">
        <ele>2787.73</ele>
        <time>2017-04-20T10:44:07Z</time>
      </trkpt>
      <trkpt lat="42.7842" lon="-0.05248">
        <ele>2788.69</ele>
        <time>2017-04-20T10:44:39Z</time>
      </trkpt>
      <trkpt lat="42.7842" lon="-0.0525">
        <ele>2788.74</ele>
        <time>2017-04-20T10:45:14Z</time>
      </trkpt>
      <trkpt lat="42.78419" lon="-0.05248">
        <ele>2789.02</ele>
        <time>2017-04-20T10:45:52Z</time>
      </trkpt>
      <trkpt lat="42.7842" lon="-0.05248">
        <ele>2788.84</ele>
        <time>2017-04-20T10:46:22Z</time>
      </trkpt>
      <trkpt lat="42.78419" lon="-0.05247">
        <ele>2789.34</ele>
        <time>2017-04-20T10:46:55Z</time>
      </trkpt>
      <trkpt lat="42.78419" lon="-0.05247">
        <ele>2789.35</ele>
        <time>2017-04-20T10:47:33Z</time>
      </trkpt>
      <trkpt lat="42.78419" lon="-0.05247">
        <ele>2789.29</ele>
        <time>2017-04-20T10:48:03Z</time>
      </trkpt>
      <trkpt lat="42.78419" lon="-0.05246">
        <ele>2788.38</ele>
        <time>2017-04-20T10:48:39Z</time>
      </trkpt>
      <trkpt lat="42.78421" lon="-0.05246">
        <ele>2788.83</ele>
        <time>2017-04-20T10:49:20Z</time>
      </trkpt>
      <trkpt lat="42.78421" lon="-0.05246">
        <ele>2788.25</ele>
        <time>2017-04-20T10:50:00Z</time>
      </trkpt>
      <trkpt lat="42.7842" lon="-0.05247">
        <ele>2788.33</ele>
        <time>2017-04-20T10:50:55Z</time>
      </trkpt>
      <trkpt lat="42.7842" lon="-0.05247">
        <ele>2788.01</ele>
        <time>2017-04-20T10:51:38Z</time>
      </trkpt>
      <trkpt lat="42.78421" lon="-0.05246">
        <ele>2788.43</ele>
        <time>2017-04-20T10:52:10Z</time>
      </trkpt>
      <trkpt lat="42.78421" lon="-0.05246">
        <ele>2788.27</ele>
        <time>2017-04-20T10:53:01Z</time>
      </trkpt>
      <trkpt lat="42.7842" lon="-0.05246">
        <ele>2788.26</ele>
        <time>2017-04-20T10:53:53Z</time>
      </trkpt>
      <trkpt lat="42.78421" lon="-0.05246">
        <ele>2788.04</ele>
        <time>2017-04-20T10:54:23Z</time>
      </trkpt>
      <trkpt lat="42.78421" lon="-0.05246">
        <ele>2787.63</ele>
        <time>2017-04-20T10:55:04Z</time>
      </trkpt>
      <trkpt lat="42.7842" lon="-0.05247">
        <ele>2786.82</ele>
        <time>2017-04-20T10:55:52Z</time>
      </trkpt>
      <trkpt lat="42.7842" lon="-0.05246">
        <ele>2786.81</ele>
        <time>2017-04-20T10:56:35Z</time>
      </trkpt>
      <trkpt lat="42.7842" lon="-0.05246">
        <ele>2785.67</ele>
        <time>2017-04-20T10:57:20Z</time>
      </trkpt>
      <trkpt lat="42.78419" lon="-0.05245">
        <ele>2785.35</ele>
        <time>2017-04-20T10:58:08Z</time>
      </trkpt>
      <trkpt lat="42.78421" lon="-0.05245">
        <ele>2785.14</ele>
        <time>2017-04-20T10:58:37Z</time>
      </trkpt>
      <trkpt lat="42.7842" lon="-0.05245">
        <ele>2785.42</ele>
        <time>2017-04-20T10:59:06Z</time>
      </trkpt>
      <trkpt lat="42.7842" lon="-0.05247">
        <ele>2787.18</ele>
        <time>2017-04-20T10:59:55Z</time>
      </trkpt>
      <trkpt lat="42.7842" lon="-0.05246">
        <ele>2787.7</ele>
        <time>2017-04-20T11:00:52Z</time>
      </trkpt>
      <trkpt lat="42.7842" lon="-0.05246">
        <ele>2788.64</ele>
        <time>2017-04-20T11:01:41Z</time>
      </trkpt>
      <trkpt lat="42.7842" lon="-0.05246">
        <ele>2789.15</ele>
        <time>2017-04-20T11:02:27Z</time>
      </trkpt>
      <trkpt lat="42.78419" lon="-0.05247">
        <ele>2788.15</ele>
        <time>2017-04-20T11:03:01Z</time>
      </trkpt>
      <trkpt lat="42.78419" lon="-0.05246">
        <ele>2787.09</ele>
        <time>2017-04-20T11:03:40Z</time>
      </trkpt>
      <trkpt lat="42.7842" lon="-0.05246">
        <ele>2787.59</ele>
        <time>2017-04-20T11:04:16Z</time>
      </trkpt>
      <trkpt lat="42.7842" lon="-0.05246">
        <ele>2788.84</ele>
        <time>2017-04-20T11:05:01Z</time>
      </trkpt>
      <trkpt lat="42.7842" lon="-0.05247">
        <ele>2788.76</ele>
        <time>2017-04-20T11:05:39Z</time>
      </trkpt>
      <trkpt lat="42.78419" lon="-0.05248">
        <ele>2788.99</ele>
        <time>2017-04-20T11:06:13Z</time>
      </trkpt>
      <trkpt lat="42.78419" lon="-0.05246">
        <ele>2788.78</ele>
        <time>2017-04-20T11:06:45Z</time>
      </trkpt>
      <trkpt lat="42.78419" lon="-0.05246">
        <ele>2788.72</ele>
        <time>2017-04-20T11:07:11Z</time>
      </trkpt>
      <trkpt lat="42.78418" lon="-0.05247">
        <ele>2788.61</ele>
        <time>2017-04-20T11:07:50Z</time>
      </trkpt>
      <trkpt lat="42.78417" lon="-0.05246">
        <ele>2788.69</ele>
        <time>2017-04-20T11:08:28Z</time>
      </trkpt>
      <trkpt lat="42.78419" lon="-0.05244">
        <ele>2790.26</ele>
        <time>2017-04-20T11:09:07Z</time>
      </trkpt>
      <trkpt lat="42.78419" lon="-0.05244">
        <ele>2790.6</ele>
        <time>2017-04-20T11:09:40Z</time>
      </trkpt>
      <trkpt lat="42.78419" lon="-0.05245">
        <ele>2792.42</ele>
        <time>2017-04-20T11:10:20Z</time>
      </trkpt>
      <trkpt lat="42.78419" lon="-0.05246">
        <ele>2792.64</ele>
        <time>2017-04-20T11:10:57Z</time>
      </trkpt>
      <trkpt lat="42.78419" lon="-0.05245">
        <ele>2792.51</ele>
        <time>2017-04-20T11:11:31Z</time>
      </trkpt>
      <trkpt lat="42.78418" lon="-0.05244">
        <ele>2791.33</ele>
        <time>2017-04-20T11:12:12Z</time>
      </trkpt>
      <trkpt lat="42.7842" lon="-0.05246">
        <ele>2791.2</ele>
        <time>2017-04-20T11:12:38Z</time>
      </trkpt>
      <trkpt lat="42.78419" lon="-0.05245">
        <ele>2791.17</ele>
        <time>2017-04-20T11:13:03Z</time>
      </trkpt>
      <trkpt lat="42.7842" lon="-0.05246">
        <ele>2791.54</ele>
        <time>2017-04-20T11:14:04Z</time>
      </trkpt>
      <trkpt lat="42.78421" lon="-0.05246">
        <ele>2792.7</ele>
        <time>2017-04-20T11:14:18Z</time>
      </trkpt>
      <trkpt lat="42.78422" lon="-0.05247">
        <ele>2791.85</ele>
        <time>2017-04-20T11:14:35Z</time>
      </trkpt>
      <trkpt lat="42.78419" lon="-0.05247">
        <ele>2791.92</ele>
        <time>2017-04-20T11:14:51Z</time>
      </trkpt>
      <trkpt lat="42.7842" lon="-0.05248">
        <ele>2791.34</ele>
        <time>2017-04-20T11:15:16Z</time>
      </trkpt>
      <trkpt lat="42.7842" lon="-0.05248">
        <ele>2791.95</ele>
        <time>2017-04-20T11:15:47Z</time>
      </trkpt>
      <trkpt lat="42.7842" lon="-0.05249">
        <ele>2791.99</ele>
        <time>2017-04-20T11:16:39Z</time>
      </trkpt>
      <trkpt lat="42.7842" lon="-0.05248">
        <ele>2791.62</ele>
        <time>2017-04-20T11:17:23Z</time>
      </trkpt>
      <trkpt lat="42.78425" lon="-0.05239">
        <ele>2789.77</ele>
        <time>2017-04-20T11:17:37Z</time>
      </trkpt>
      <trkpt lat="42.78427" lon="-0.05229">
        <ele>2785.61</ele>
        <time>2017-04-20T11:17:51Z</time>
      </trkpt>
      <trkpt lat="42.78429" lon="-0.05224">
        <ele>2782.72</ele>
        <time>2017-04-20T11:18:05Z</time>
      </trkpt>
      <trkpt lat="42.78428" lon="-0.05222">
        <ele>2782.24</ele>
        <time>2017-04-20T11:18:08Z</time>
      </trkpt>
      <trkpt lat="42.78425" lon="-0.05216">
        <ele>2781.09</ele>
        <time>2017-04-20T11:18:13Z</time>
      </trkpt>
      <trkpt lat="42.78422" lon="-0.05208">
        <ele>2781.44</ele>
        <time>2017-04-20T11:18:22Z</time>
      </trkpt>
      <trkpt lat="42.78423" lon="-0.05202">
        <ele>2781.37</ele>
        <time>2017-04-20T11:18:34Z</time>
      </trkpt>
      <trkpt lat="42.78426" lon="-0.0519">
        <ele>2775.27</ele>
        <time>2017-04-20T11:18:49Z</time>
      </trkpt>
      <trkpt lat="42.78429" lon="-0.05181">
        <ele>2769.03</ele>
        <time>2017-04-20T11:19:03Z</time>
      </trkpt>
      <trkpt lat="42.78428" lon="-0.05168">
        <ele>2765.94</ele>
        <time>2017-04-20T11:19:17Z</time>
      </trkpt>
      <trkpt lat="42.78427" lon="-0.05151">
        <ele>2760.47</ele>
        <time>2017-04-20T11:19:34Z</time>
      </trkpt>
      <trkpt lat="42.78428" lon="-0.0514">
        <ele>2756.62</ele>
        <time>2017-04-20T11:19:49Z</time>
      </trkpt>
      <trkpt lat="42.78423" lon="-0.05131">
        <ele>2755.4</ele>
        <time>2017-04-20T11:20:04Z</time>
      </trkpt>
      <trkpt lat="42.78416" lon="-0.05119">
        <ele>2753.54</ele>
        <time>2017-04-20T11:20:19Z</time>
      </trkpt>
      <trkpt lat="42.78415" lon="-0.05106">
        <ele>2750.85</ele>
        <time>2017-04-20T11:20:34Z</time>
      </trkpt>
      <trkpt lat="42.78418" lon="-0.05096">
        <ele>2748.68</ele>
        <time>2017-04-20T11:20:48Z</time>
      </trkpt>
      <trkpt lat="42.78419" lon="-0.05096">
        <ele>2747.98</ele>
        <time>2017-04-20T11:20:50Z</time>
      </trkpt>
      <trkpt lat="42.78422" lon="-0.05096">
        <ele>2745.45</ele>
        <time>2017-04-20T11:20:54Z</time>
      </trkpt>
      <trkpt lat="42.78423" lon="-0.05091">
        <ele>2741.72</ele>
        <time>2017-04-20T11:21:05Z</time>
      </trkpt>
      <trkpt lat="42.78422" lon="-0.05083">
        <ele>2739.61</ele>
        <time>2017-04-20T11:21:20Z</time>
      </trkpt>
      <trkpt lat="42.78415" lon="-0.05074">
        <ele>2738.64</ele>
        <time>2017-04-20T11:21:34Z</time>
      </trkpt>
      <trkpt lat="42.78414" lon="-0.05073">
        <ele>2738.66</ele>
        <time>2017-04-20T11:21:36Z</time>
      </trkpt>
      <trkpt lat="42.7841" lon="-0.0507">
        <ele>2739.51</ele>
        <time>2017-04-20T11:21:44Z</time>
      </trkpt>
      <trkpt lat="42.78411" lon="-0.05073">
        <ele>2741.38</ele>
        <time>2017-04-20T11:21:57Z</time>
      </trkpt>
      <trkpt lat="42.78412" lon="-0.05073">
        <ele>2741.41</ele>
        <time>2017-04-20T11:22:15Z</time>
      </trkpt>
      <trkpt lat="42.78412" lon="-0.05073">
        <ele>2740.91</ele>
        <time>2017-04-20T11:22:42Z</time>
      </trkpt>
      <trkpt lat="42.78412" lon="-0.05074">
        <ele>2739.87</ele>
        <time>2017-04-20T11:23:08Z</time>
      </trkpt>
      <trkpt lat="42.78411" lon="-0.05074">
        <ele>2738.15</ele>
        <time>2017-04-20T11:23:57Z</time>
      </trkpt>
      <trkpt lat="42.78411" lon="-0.05074">
        <ele>2736.65</ele>
        <time>2017-04-20T11:24:50Z</time>
      </trkpt>
      <trkpt lat="42.78411" lon="-0.05074">
        <ele>2735.57</ele>
        <time>2017-04-20T11:25:34Z</time>
      </trkpt>
      <trkpt lat="42.78412" lon="-0.05074">
        <ele>2736.3</ele>
        <time>2017-04-20T11:26:03Z</time>
      </trkpt>
      <trkpt lat="42.78412" lon="-0.05074">
        <ele>2738.99</ele>
        <time>2017-04-20T11:26:25Z</time>
      </trkpt>
      <trkpt lat="42.78411" lon="-0.05073">
        <ele>2740.05</ele>
        <time>2017-04-20T11:26:47Z</time>
      </trkpt>
      <trkpt lat="42.78411" lon="-0.05073">
        <ele>2741.55</ele>
        <time>2017-04-20T11:27:22Z</time>
      </trkpt>
      <trkpt lat="42.78411" lon="-0.05073">
        <ele>2741.83</ele>
        <time>2017-04-20T11:27:37Z</time>
      </trkpt>
      <trkpt lat="42.78411" lon="-0.05074">
        <ele>2742.26</ele>
        <time>2017-04-20T11:28:06Z</time>
      </trkpt>
      <trkpt lat="42.7841" lon="-0.05075">
        <ele>2741.67</ele>
        <time>2017-04-20T11:28:39Z</time>
      </trkpt>
      <trkpt lat="42.78411" lon="-0.05074">
        <ele>2742.01</ele>
        <time>2017-04-20T11:29:00Z</time>
      </trkpt>
      <trkpt lat="42.78411" lon="-0.05074">
        <ele>2741.15</ele>
        <time>2017-04-20T11:29:31Z</time>
      </trkpt>
      <trkpt lat="42.78411" lon="-0.05073">
        <ele>2741.74</ele>
        <time>2017-04-20T11:29:46Z</time>
      </trkpt>
      <trkpt lat="42.78408" lon="-0.05074">
        <ele>2741.8</ele>
        <time>2017-04-20T11:29:58Z</time>
      </trkpt>
      <trkpt lat="42.78408" lon="-0.05074">
        <ele>2742.44</ele>
        <time>2017-04-20T11:30:19Z</time>
      </trkpt>
      <trkpt lat="42.78408" lon="-0.05074">
        <ele>2742.15</ele>
        <time>2017-04-20T11:30:41Z</time>
      </trkpt>
      <trkpt lat="42.78408" lon="-0.05074">
        <ele>2741.45</ele>
        <time>2017-04-20T11:31:04Z</time>
      </trkpt>
      <trkpt lat="42.78407" lon="-0.05075">
        <ele>2741.18</ele>
        <time>2017-04-20T11:31:23Z</time>
      </trkpt>
      <trkpt lat="42.78407" lon="-0.05075">
        <ele>2740.09</ele>
        <time>2017-04-20T11:31:50Z</time>
      </trkpt>
      <trkpt lat="42.78406" lon="-0.05075">
        <ele>2739.51</ele>
        <time>2017-04-20T11:32:13Z</time>
      </trkpt>
      <trkpt lat="42.78406" lon="-0.05075">
        <ele>2739.79</ele>
        <time>2017-04-20T11:32:46Z</time>
      </trkpt>
      <trkpt lat="42.78406" lon="-0.05075">
        <ele>2739.23</ele>
        <time>2017-04-20T11:33:09Z</time>
      </trkpt>
      <trkpt lat="42.78407" lon="-0.05075">
        <ele>2738.97</ele>
        <time>2017-04-20T11:33:32Z</time>
      </trkpt>
      <trkpt lat="42.78407" lon="-0.05074">
        <ele>2739.13</ele>
        <time>2017-04-20T11:34:01Z</time>
      </trkpt>
      <trkpt lat="42.78406" lon="-0.05074">
        <ele>2739.09</ele>
        <time>2017-04-20T11:34:36Z</time>
      </trkpt>
      <trkpt lat="42.78406" lon="-0.05074">
        <ele>2739.12</ele>
        <time>2017-04-20T11:34:41Z</time>
      </trkpt>
      <trkpt lat="42.78394" lon="-0.05078">
        <ele>2731.49</ele>
        <time>2017-04-20T11:34:47Z</time>
      </trkpt>
      <trkpt lat="42.78388" lon="-0.05099">
        <ele>2728.47</ele>
        <time>2017-04-20T11:34:50Z</time>
      </trkpt>
      <trkpt lat="42.78377" lon="-0.05125">
        <ele>2725.97</ele>
        <time>2017-04-20T11:34:55Z</time>
      </trkpt>
      <trkpt lat="42.78364" lon="-0.05114">
        <ele>2715.58</ele>
        <time>2017-04-20T11:35:01Z</time>
      </trkpt>
      <trkpt lat="42.7835" lon="-0.05106">
        <ele>2704.38</ele>
        <time>2017-04-20T11:35:06Z</time>
      </trkpt>
      <trkpt lat="42.78336" lon="-0.05093">
        <ele>2694.42</ele>
        <time>2017-04-20T11:35:11Z</time>
      </trkpt>
      <trkpt lat="42.78315" lon="-0.05075">
        <ele>2686.93</ele>
        <time>2017-04-20T11:35:17Z</time>
      </trkpt>
      <trkpt lat="42.78283" lon="-0.05045">
        <ele>2674.93</ele>
        <time>2017-04-20T11:35:23Z</time>
      </trkpt>
      <trkpt lat="42.78265" lon="-0.05031">
        <ele>2668.63</ele>
        <time>2017-04-20T11:35:26Z</time>
      </trkpt>
      <trkpt lat="42.78233" lon="-0.05002">
        <ele>2659.41</ele>
        <time>2017-04-20T11:35:32Z</time>
      </trkpt>
      <trkpt lat="42.78216" lon="-0.04977">
        <ele>2649.29</ele>
        <time>2017-04-20T11:35:38Z</time>
      </trkpt>
      <trkpt lat="42.78216" lon="-0.0498">
        <ele>2647.93</ele>
        <time>2017-04-20T11:35:56Z</time>
      </trkpt>
      <trkpt lat="42.78216" lon="-0.0498">
        <ele>2646.68</ele>
        <time>2017-04-20T11:36:22Z</time>
      </trkpt>
      <trkpt lat="42.78217" lon="-0.0498">
        <ele>2646.63</ele>
        <time>2017-04-20T11:36:51Z</time>
      </trkpt>
      <trkpt lat="42.78217" lon="-0.04981">
        <ele>2646.33</ele>
        <time>2017-04-20T11:37:08Z</time>
      </trkpt>
      <trkpt lat="42.78217" lon="-0.0498">
        <ele>2646.09</ele>
        <time>2017-04-20T11:37:34Z</time>
      </trkpt>
      <trkpt lat="42.78216" lon="-0.04981">
        <ele>2646.03</ele>
        <time>2017-04-20T11:37:44Z</time>
      </trkpt>
      <trkpt lat="42.78189" lon="-0.04979">
        <ele>2639.12</ele>
        <time>2017-04-20T11:37:51Z</time>
      </trkpt>
      <trkpt lat="42.78169" lon="-0.04976">
        <ele>2630.8</ele>
        <time>2017-04-20T11:37:55Z</time>
      </trkpt>
      <trkpt lat="42.78164" lon="-0.04978">
        <ele>2629.59</ele>
        <time>2017-04-20T11:37:56Z</time>
      </trkpt>
      <trkpt lat="42.78148" lon="-0.04981">
        <ele>2626.73</ele>
        <time>2017-04-20T11:38:01Z</time>
      </trkpt>
      <trkpt lat="42.7814" lon="-0.04968">
        <ele>2618.52</ele>
        <time>2017-04-20T11:38:05Z</time>
      </trkpt>
      <trkpt lat="42.7813" lon="-0.0497">
        <ele>2615.18</ele>
        <time>2017-04-20T11:38:07Z</time>
      </trkpt>
      <trkpt lat="42.78124" lon="-0.04944">
        <ele>2607.34</ele>
        <time>2017-04-20T11:38:12Z</time>
      </trkpt>
      <trkpt lat="42.78125" lon="-0.04937">
        <ele>2606.73</ele>
        <time>2017-04-20T11:38:13Z</time>
      </trkpt>
      <trkpt lat="42.78143" lon="-0.04887">
        <ele>2594.36</ele>
        <time>2017-04-20T11:38:20Z</time>
      </trkpt>
      <trkpt lat="42.78135" lon="-0.04839">
        <ele>2586.36</ele>
        <time>2017-04-20T11:38:26Z</time>
      </trkpt>
      <trkpt lat="42.78109" lon="-0.04854">
        <ele>2579.8</ele>
        <time>2017-04-20T11:38:33Z</time>
      </trkpt>
      <trkpt lat="42.78105" lon="-0.04842">
        <ele>2577.01</ele>
        <time>2017-04-20T11:38:41Z</time>
      </trkpt>
      <trkpt lat="42.78084" lon="-0.04829">
        <ele>2569.59</ele>
        <time>2017-04-20T11:38:47Z</time>
      </trkpt>
      <trkpt lat="42.78055" lon="-0.04842">
        <ele>2560.54</ele>
        <time>2017-04-20T11:38:52Z</time>
      </trkpt>
      <trkpt lat="42.7804" lon="-0.04821">
        <ele>2557.13</ele>
        <time>2017-04-20T11:38:55Z</time>
      </trkpt>
      <trkpt lat="42.78029" lon="-0.04778">
        <ele>2542.38</ele>
        <time>2017-04-20T11:39:01Z</time>
      </trkpt>
      <trkpt lat="42.78019" lon="-0.04739">
        <ele>2535.11</ele>
        <time>2017-04-20T11:39:06Z</time>
      </trkpt>
      <trkpt lat="42.78012" lon="-0.04713">
        <ele>2529.2</ele>
        <time>2017-04-20T11:39:11Z</time>
      </trkpt>
      <trkpt lat="42.78012" lon="-0.04714">
        <ele>2528.65</ele>
        <time>2017-04-20T11:39:31Z</time>
      </trkpt>
      <trkpt lat="42.78012" lon="-0.04716">
        <ele>2530.23</ele>
        <time>2017-04-20T11:39:49Z</time>
      </trkpt>
      <trkpt lat="42.78009" lon="-0.04715">
        <ele>2530.18</ele>
        <time>2017-04-20T11:40:00Z</time>
      </trkpt>
      <trkpt lat="42.78004" lon="-0.04717">
        <ele>2530.19</ele>
        <time>2017-04-20T11:40:13Z</time>
      </trkpt>
      <trkpt lat="42.78004" lon="-0.04721">
        <ele>2527.74</ele>
        <time>2017-04-20T11:40:28Z</time>
      </trkpt>
      <trkpt lat="42.78005" lon="-0.04725">
        <ele>2527.41</ele>
        <time>2017-04-20T11:40:45Z</time>
      </trkpt>
      <trkpt lat="42.78003" lon="-0.04733">
        <ele>2528.44</ele>
        <time>2017-04-20T11:41:01Z</time>
      </trkpt>
      <trkpt lat="42.78001" lon="-0.04736">
        <ele>2527.32</ele>
        <time>2017-04-20T11:41:18Z</time>
      </trkpt>
      <trkpt lat="42.78001" lon="-0.04737">
        <ele>2527.23</ele>
        <time>2017-04-20T11:41:35Z</time>
      </trkpt>
      <trkpt lat="42.77997" lon="-0.0474">
        <ele>2526.16</ele>
        <time>2017-04-20T11:41:52Z</time>
      </trkpt>
      <trkpt lat="42.77994" lon="-0.04743">
        <ele>2525.99</ele>
        <time>2017-04-20T11:42:11Z</time>
      </trkpt>
      <trkpt lat="42.77992" lon="-0.04746">
        <ele>2527.58</ele>
        <time>2017-04-20T11:42:32Z</time>
      </trkpt>
      <trkpt lat="42.7799" lon="-0.04745">
        <ele>2527.18</ele>
        <time>2017-04-20T11:42:50Z</time>
      </trkpt>
      <trkpt lat="42.77991" lon="-0.04745">
        <ele>2527.11</ele>
        <time>2017-04-20T11:43:07Z</time>
      </trkpt>
      <trkpt lat="42.77991" lon="-0.04746">
        <ele>2526.43</ele>
        <time>2017-04-20T11:43:30Z</time>
      </trkpt>
      <trkpt lat="42.77991" lon="-0.04746">
        <ele>2525.55</ele>
        <time>2017-04-20T11:43:50Z</time>
      </trkpt>
      <trkpt lat="42.77992" lon="-0.04745">
        <ele>2526.61</ele>
        <time>2017-04-20T11:44:16Z</time>
      </trkpt>
      <trkpt lat="42.77992" lon="-0.04746">
        <ele>2526.07</ele>
        <time>2017-04-20T11:44:43Z</time>
      </trkpt>
      <trkpt lat="42.7799" lon="-0.04748">
        <ele>2524.95</ele>
        <time>2017-04-20T11:45:12Z</time>
      </trkpt>
      <trkpt lat="42.77988" lon="-0.04747">
        <ele>2524.12</ele>
        <time>2017-04-20T11:45:15Z</time>
      </trkpt>
      <trkpt lat="42.77987" lon="-0.04746">
        <ele>2523</ele>
        <time>2017-04-20T11:45:18Z</time>
      </trkpt>
      <trkpt lat="42.77988" lon="-0.04733">
        <ele>2520.07</ele>
        <time>2017-04-20T11:45:23Z</time>
      </trkpt>
      <trkpt lat="42.77988" lon="-0.04722">
        <ele>2515.77</ele>
        <time>2017-04-20T11:45:29Z</time>
      </trkpt>
      <trkpt lat="42.77981" lon="-0.0471">
        <ele>2508.69</ele>
        <time>2017-04-20T11:45:35Z</time>
      </trkpt>
      <trkpt lat="42.77975" lon="-0.047">
        <ele>2502.53</ele>
        <time>2017-04-20T11:45:39Z</time>
      </trkpt>
      <trkpt lat="42.77977" lon="-0.04691">
        <ele>2498.36</ele>
        <time>2017-04-20T11:45:46Z</time>
      </trkpt>
      <trkpt lat="42.77976" lon="-0.04691">
        <ele>2494.98</ele>
        <time>2017-04-20T11:45:59Z</time>
      </trkpt>
      <trkpt lat="42.77977" lon="-0.04673">
        <ele>2491.52</ele>
        <time>2017-04-20T11:46:03Z</time>
      </trkpt>
      <trkpt lat="42.77979" lon="-0.04615">
        <ele>2486.52</ele>
        <time>2017-04-20T11:46:12Z</time>
      </trkpt>
      <trkpt lat="42.77974" lon="-0.04592">
        <ele>2482.5</ele>
        <time>2017-04-20T11:46:20Z</time>
      </trkpt>
      <trkpt lat="42.77967" lon="-0.04571">
        <ele>2478.53</ele>
        <time>2017-04-20T11:46:32Z</time>
      </trkpt>
      <trkpt lat="42.77964" lon="-0.04567">
        <ele>2477.44</ele>
        <time>2017-04-20T11:46:50Z</time>
      </trkpt>
      <trkpt lat="42.77962" lon="-0.04561">
        <ele>2476.66</ele>
        <time>2017-04-20T11:47:05Z</time>
      </trkpt>
      <trkpt lat="42.77961" lon="-0.0456">
        <ele>2476.07</ele>
        <time>2017-04-20T11:47:08Z</time>
      </trkpt>
      <trkpt lat="42.77959" lon="-0.04555">
        <ele>2475.69</ele>
        <time>2017-04-20T11:47:11Z</time>
      </trkpt>
      <trkpt lat="42.77943" lon="-0.04522">
        <ele>2473.37</ele>
        <time>2017-04-20T11:47:23Z</time>
      </trkpt>
      <trkpt lat="42.7794" lon="-0.04517">
        <ele>2472.54</ele>
        <time>2017-04-20T11:47:28Z</time>
      </trkpt>
      <trkpt lat="42.77938" lon="-0.04513">
        <ele>2472.15</ele>
        <time>2017-04-20T11:47:31Z</time>
      </trkpt>
      <trkpt lat="42.7793" lon="-0.04502">
        <ele>2471.02</ele>
        <time>2017-04-20T11:47:37Z</time>
      </trkpt>
      <trkpt lat="42.77924" lon="-0.04492">
        <ele>2472.57</ele>
        <time>2017-04-20T11:47:51Z</time>
      </trkpt>
      <trkpt lat="42.77924" lon="-0.04489">
        <ele>2473.1</ele>
        <time>2017-04-20T11:48:11Z</time>
      </trkpt>
      <trkpt lat="42.77923" lon="-0.04482">
        <ele>2472.17</ele>
        <time>2017-04-20T11:48:30Z</time>
      </trkpt>
      <trkpt lat="42.77923" lon="-0.04474">
        <ele>2473.78</ele>
        <time>2017-04-20T11:48:42Z</time>
      </trkpt>
      <trkpt lat="42.77921" lon="-0.04472">
        <ele>2475.48</ele>
        <time>2017-04-20T11:48:58Z</time>
      </trkpt>
      <trkpt lat="42.77921" lon="-0.04473">
        <ele>2476.74</ele>
        <time>2017-04-20T11:49:19Z</time>
      </trkpt>
      <trkpt lat="42.7792" lon="-0.04473">
        <ele>2477.66</ele>
        <time>2017-04-20T11:49:42Z</time>
      </trkpt>
      <trkpt lat="42.77919" lon="-0.04475">
        <ele>2478.81</ele>
        <time>2017-04-20T11:50:05Z</time>
      </trkpt>
      <trkpt lat="42.77919" lon="-0.04473">
        <ele>2479.6</ele>
        <time>2017-04-20T11:50:30Z</time>
      </trkpt>
      <trkpt lat="42.77918" lon="-0.04473">
        <ele>2479.74</ele>
        <time>2017-04-20T11:50:58Z</time>
      </trkpt>
      <trkpt lat="42.77917" lon="-0.04471">
        <ele>2479.37</ele>
        <time>2017-04-20T11:51:16Z</time>
      </trkpt>
      <trkpt lat="42.77918" lon="-0.04471">
        <ele>2479.33</ele>
        <time>2017-04-20T11:51:36Z</time>
      </trkpt>
      <trkpt lat="42.77917" lon="-0.04469">
        <ele>2478.73</ele>
        <time>2017-04-20T11:51:58Z</time>
      </trkpt>
      <trkpt lat="42.77916" lon="-0.04469">
        <ele>2477.41</ele>
        <time>2017-04-20T11:52:22Z</time>
      </trkpt>
      <trkpt lat="42.77917" lon="-0.04469">
        <ele>2478.38</ele>
        <time>2017-04-20T11:52:36Z</time>
      </trkpt>
      <trkpt lat="42.77916" lon="-0.0446">
        <ele>2480.67</ele>
        <time>2017-04-20T11:52:53Z</time>
      </trkpt>
      <trkpt lat="42.77917" lon="-0.04457">
        <ele>2483.73</ele>
        <time>2017-04-20T11:53:10Z</time>
      </trkpt>
      <trkpt lat="42.77915" lon="-0.04449">
        <ele>2486.43</ele>
        <time>2017-04-20T11:53:26Z</time>
      </trkpt>
      <trkpt lat="42.77914" lon="-0.04445">
        <ele>2489.24</ele>
        <time>2017-04-20T11:53:42Z</time>
      </trkpt>
      <trkpt lat="42.77911" lon="-0.04438">
        <ele>2492.27</ele>
        <time>2017-04-20T11:53:58Z</time>
      </trkpt>
      <trkpt lat="42.77911" lon="-0.04435">
        <ele>2492.97</ele>
        <time>2017-04-20T11:54:12Z</time>
      </trkpt>
      <trkpt lat="42.7791" lon="-0.04431">
        <ele>2493.87</ele>
        <time>2017-04-20T11:54:28Z</time>
      </trkpt>
      <trkpt lat="42.77911" lon="-0.04428">
        <ele>2494.3</ele>
        <time>2017-04-20T11:54:44Z</time>
      </trkpt>
      <trkpt lat="42.77915" lon="-0.04427">
        <ele>2495.85</ele>
        <time>2017-04-20T11:55:02Z</time>
      </trkpt>
      <trkpt lat="42.77916" lon="-0.04429">
        <ele>2496.39</ele>
        <time>2017-04-20T11:55:25Z</time>
      </trkpt>
      <trkpt lat="42.77917" lon="-0.04428">
        <ele>2496.45</ele>
        <time>2017-04-20T11:55:46Z</time>
      </trkpt>
      <trkpt lat="42.77917" lon="-0.04428">
        <ele>2495.02</ele>
        <time>2017-04-20T11:56:10Z</time>
      </trkpt>
      <trkpt lat="42.77918" lon="-0.0443">
        <ele>2494.98</ele>
        <time>2017-04-20T11:57:09Z</time>
      </trkpt>
      <trkpt lat="42.77919" lon="-0.0443">
        <ele>2494.59</ele>
        <time>2017-04-20T11:57:43Z</time>
      </trkpt>
      <trkpt lat="42.77919" lon="-0.0443">
        <ele>2494.43</ele>
        <time>2017-04-20T11:58:14Z</time>
      </trkpt>
      <trkpt lat="42.77918" lon="-0.04428">
        <ele>2494.57</ele>
        <time>2017-04-20T11:59:06Z</time>
      </trkpt>
      <trkpt lat="42.77918" lon="-0.0443">
        <ele>2495.17</ele>
        <time>2017-04-20T11:59:27Z</time>
      </trkpt>
      <trkpt lat="42.77918" lon="-0.04431">
        <ele>2495.61</ele>
        <time>2017-04-20T11:59:53Z</time>
      </trkpt>
      <trkpt lat="42.77917" lon="-0.04432">
        <ele>2495.65</ele>
        <time>2017-04-20T12:00:26Z</time>
      </trkpt>
      <trkpt lat="42.77917" lon="-0.04431">
        <ele>2495.45</ele>
        <time>2017-04-20T12:00:59Z</time>
      </trkpt>
      <trkpt lat="42.77917" lon="-0.04431">
        <ele>2495.57</ele>
        <time>2017-04-20T12:01:16Z</time>
      </trkpt>
      <trkpt lat="42.77917" lon="-0.0443">
        <ele>2496.27</ele>
        <time>2017-04-20T12:01:39Z</time>
      </trkpt>
      <trkpt lat="42.77917" lon="-0.04431">
        <ele>2496.4</ele>
        <time>2017-04-20T12:02:08Z</time>
      </trkpt>
      <trkpt lat="42.77918" lon="-0.04431">
        <ele>2496.59</ele>
        <time>2017-04-20T12:02:26Z</time>
      </trkpt>
      <trkpt lat="42.77917" lon="-0.0443">
        <ele>2496.5</ele>
        <time>2017-04-20T12:02:30Z</time>
      </trkpt>
      <trkpt lat="42.77913" lon="-0.04424">
        <ele>2495.33</ele>
        <time>2017-04-20T12:02:34Z</time>
      </trkpt>
      <trkpt lat="42.77906" lon="-0.04394">
        <ele>2485</ele>
        <time>2017-04-20T12:02:46Z</time>
      </trkpt>
      <trkpt lat="42.77903" lon="-0.04385">
        <ele>2483.38</ele>
        <time>2017-04-20T12:02:53Z</time>
      </trkpt>
      <trkpt lat="42.77921" lon="-0.04393">
        <ele>2474.47</ele>
        <time>2017-04-20T12:03:00Z</time>
      </trkpt>
      <trkpt lat="42.77945" lon="-0.04398">
        <ele>2463.66</ele>
        <time>2017-04-20T12:03:11Z</time>
      </trkpt>
      <trkpt lat="42.77953" lon="-0.04397">
        <ele>2460.38</ele>
        <time>2017-04-20T12:03:16Z</time>
      </trkpt>
      <trkpt lat="42.77939" lon="-0.0437">
        <ele>2451.7</ele>
        <time>2017-04-20T12:03:24Z</time>
      </trkpt>
      <trkpt lat="42.77941" lon="-0.04368">
        <ele>2449.78</ele>
        <time>2017-04-20T12:03:32Z</time>
      </trkpt>
      <trkpt lat="42.77949" lon="-0.04362">
        <ele>2445.84</ele>
        <time>2017-04-20T12:03:36Z</time>
      </trkpt>
      <trkpt lat="42.77986" lon="-0.04353">
        <ele>2430.83</ele>
        <time>2017-04-20T12:03:48Z</time>
      </trkpt>
      <trkpt lat="42.77993" lon="-0.04352">
        <ele>2429.03</ele>
        <time>2017-04-20T12:03:50Z</time>
      </trkpt>
      <trkpt lat="42.77988" lon="-0.04334">
        <ele>2421.6</ele>
        <time>2017-04-20T12:03:56Z</time>
      </trkpt>
      <trkpt lat="42.77969" lon="-0.04326">
        <ele>2415.38</ele>
        <time>2017-04-20T12:04:10Z</time>
      </trkpt>
      <trkpt lat="42.77955" lon="-0.04315">
        <ele>2413.46</ele>
        <time>2017-04-20T12:04:15Z</time>
      </trkpt>
      <trkpt lat="42.77922" lon="-0.04273">
        <ele>2401.88</ele>
        <time>2017-04-20T12:04:25Z</time>
      </trkpt>
      <trkpt lat="42.77879" lon="-0.04207">
        <ele>2390.75</ele>
        <time>2017-04-20T12:04:35Z</time>
      </trkpt>
      <trkpt lat="42.77833" lon="-0.04125">
        <ele>2381.98</ele>
        <time>2017-04-20T12:04:48Z</time>
      </trkpt>
      <trkpt lat="42.77829" lon="-0.04119">
        <ele>2381.26</ele>
        <time>2017-04-20T12:04:50Z</time>
      </trkpt>
      <trkpt lat="42.77831" lon="-0.04115">
        <ele>2379.71</ele>
        <time>2017-04-20T12:04:58Z</time>
      </trkpt>
      <trkpt lat="42.77831" lon="-0.04116">
        <ele>2379.6</ele>
        <time>2017-04-20T12:05:40Z</time>
      </trkpt>
      <trkpt lat="42.77831" lon="-0.04116">
        <ele>2378.88</ele>
        <time>2017-04-20T12:06:09Z</time>
      </trkpt>
      <trkpt lat="42.77832" lon="-0.04117">
        <ele>2378.69</ele>
        <time>2017-04-20T12:06:42Z</time>
      </trkpt>
      <trkpt lat="42.77832" lon="-0.04117">
        <ele>2378.2</ele>
        <time>2017-04-20T12:07:11Z</time>
      </trkpt>
      <trkpt lat="42.77832" lon="-0.04117">
        <ele>2377.58</ele>
        <time>2017-04-20T12:07:50Z</time>
      </trkpt>
      <trkpt lat="42.77832" lon="-0.04117">
        <ele>2377.62</ele>
        <time>2017-04-20T12:08:24Z</time>
      </trkpt>
      <trkpt lat="42.77833" lon="-0.04118">
        <ele>2377.71</ele>
        <time>2017-04-20T12:08:35Z</time>
      </trkpt>
      <trkpt lat="42.77838" lon="-0.04105">
        <ele>2373.39</ele>
        <time>2017-04-20T12:08:41Z</time>
      </trkpt>
      <trkpt lat="42.77847" lon="-0.04099">
        <ele>2364.79</ele>
        <time>2017-04-20T12:08:46Z</time>
      </trkpt>
      <trkpt lat="42.77853" lon="-0.04102">
        <ele>2362.64</ele>
        <time>2017-04-20T12:08:48Z</time>
      </trkpt>
      <trkpt lat="42.77868" lon="-0.0408">
        <ele>2348.84</ele>
        <time>2017-04-20T12:08:54Z</time>
      </trkpt>
      <trkpt lat="42.77877" lon="-0.04056">
        <ele>2337.21</ele>
        <time>2017-04-20T12:08:58Z</time>
      </trkpt>
      <trkpt lat="42.77891" lon="-0.04035">
        <ele>2328.05</ele>
        <time>2017-04-20T12:09:02Z</time>
      </trkpt>
      <trkpt lat="42.77905" lon="-0.04014">
        <ele>2318.18</ele>
        <time>2017-04-20T12:09:06Z</time>
      </trkpt>
      <trkpt lat="42.77892" lon="-0.03994">
        <ele>2313.44</ele>
        <time>2017-04-20T12:09:12Z</time>
      </trkpt>
      <trkpt lat="42.77886" lon="-0.0399">
        <ele>2312.54</ele>
        <time>2017-04-20T12:09:14Z</time>
      </trkpt>
      <trkpt lat="42.77885" lon="-0.03956">
        <ele>2300.93</ele>
        <time>2017-04-20T12:09:19Z</time>
      </trkpt>
      <trkpt lat="42.77902" lon="-0.03923">
        <ele>2291.06</ele>
        <time>2017-04-20T12:09:22Z</time>
      </trkpt>
      <trkpt lat="42.77939" lon="-0.0389">
        <ele>2281.95</ele>
        <time>2017-04-20T12:09:27Z</time>
      </trkpt>
      <trkpt lat="42.77959" lon="-0.03856">
        <ele>2278.27</ele>
        <time>2017-04-20T12:09:31Z</time>
      </trkpt>
      <trkpt lat="42.77972" lon="-0.03849">
        <ele>2274.44</ele>
        <time>2017-04-20T12:09:38Z</time>
      </trkpt>
      <trkpt lat="42.77971" lon="-0.03852">
        <ele>2273.35</ele>
        <time>2017-04-20T12:09:57Z</time>
      </trkpt>
      <trkpt lat="42.77975" lon="-0.03851">
        <ele>2271.13</ele>
        <time>2017-04-20T12:10:05Z</time>
      </trkpt>
      <trkpt lat="42.77975" lon="-0.0385">
        <ele>2270.62</ele>
        <time>2017-04-20T12:10:35Z</time>
      </trkpt>
      <trkpt lat="42.77977" lon="-0.03844">
        <ele>2269.37</ele>
        <time>2017-04-20T12:10:39Z</time>
      </trkpt>
      <trkpt lat="42.78003" lon="-0.03762">
        <ele>2257.2</ele>
        <time>2017-04-20T12:10:50Z</time>
      </trkpt>
      <trkpt lat="42.78019" lon="-0.03665">
        <ele>2248.73</ele>
        <time>2017-04-20T12:11:03Z</time>
      </trkpt>
      <trkpt lat="42.78023" lon="-0.03645">
        <ele>2248.53</ele>
        <time>2017-04-20T12:11:15Z</time>
      </trkpt>
      <trkpt lat="42.78024" lon="-0.03646">
        <ele>2249.98</ele>
        <time>2017-04-20T12:11:32Z</time>
      </trkpt>
      <trkpt lat="42.78023" lon="-0.03646">
        <ele>2248.76</ele>
        <time>2017-04-20T12:11:58Z</time>
      </trkpt>
      <trkpt lat="42.78023" lon="-0.03647">
        <ele>2248.98</ele>
        <time>2017-04-20T12:12:01Z</time>
      </trkpt>
      <trkpt lat="42.78031" lon="-0.03672">
        <ele>2243.37</ele>
        <time>2017-04-20T12:12:07Z</time>
      </trkpt>
      <trkpt lat="42.78032" lon="-0.03717">
        <ele>2237.7</ele>
        <time>2017-04-20T12:12:13Z</time>
      </trkpt>
      <trkpt lat="42.78039" lon="-0.03792">
        <ele>2230.86</ele>
        <time>2017-04-20T12:12:27Z</time>
      </trkpt>
      <trkpt lat="42.78056" lon="-0.03794">
        <ele>2222</ele>
        <time>2017-04-20T12:12:32Z</time>
      </trkpt>
      <trkpt lat="42.78071" lon="-0.03805">
        <ele>2211.06</ele>
        <time>2017-04-20T12:12:37Z</time>
      </trkpt>
      <trkpt lat="42.78085" lon="-0.03817">
        <ele>2197.65</ele>
        <time>2017-04-20T12:12:42Z</time>
      </trkpt>
      <trkpt lat="42.78085" lon="-0.03825">
        <ele>2195.11</ele>
        <time>2017-04-20T12:12:43Z</time>
      </trkpt>
      <trkpt lat="42.7809" lon="-0.0391">
        <ele>2186.57</ele>
        <time>2017-04-20T12:12:50Z</time>
      </trkpt>
      <trkpt lat="42.78091" lon="-0.03919">
        <ele>2188.35</ele>
        <time>2017-04-20T12:12:56Z</time>
      </trkpt>
      <trkpt lat="42.78091" lon="-0.03919">
        <ele>2188.18</ele>
        <time>2017-04-20T12:13:08Z</time>
      </trkpt>
      <trkpt lat="42.78104" lon="-0.03933">
        <ele>2180.93</ele>
        <time>2017-04-20T12:13:14Z</time>
      </trkpt>
      <trkpt lat="42.7813" lon="-0.03943">
        <ele>2161.79</ele>
        <time>2017-04-20T12:13:21Z</time>
      </trkpt>
      <trkpt lat="42.78147" lon="-0.03961">
        <ele>2149.33</ele>
        <time>2017-04-20T12:13:26Z</time>
      </trkpt>
      <trkpt lat="42.78159" lon="-0.03967">
        <ele>2141.04</ele>
        <time>2017-04-20T12:13:29Z</time>
      </trkpt>
      <trkpt lat="42.78172" lon="-0.03958">
        <ele>2128.89</ele>
        <time>2017-04-20T12:13:34Z</time>
      </trkpt>
      <trkpt lat="42.78187" lon="-0.03974">
        <ele>2117.47</ele>
        <time>2017-04-20T12:13:40Z</time>
      </trkpt>
      <trkpt lat="42.78189" lon="-0.03979">
        <ele>2116.74</ele>
        <time>2017-04-20T12:13:41Z</time>
      </trkpt>
      <trkpt lat="42.78195" lon="-0.03989">
        <ele>2115.34</ele>
        <time>2017-04-20T12:13:44Z</time>
      </trkpt>
      <trkpt lat="42.78218" lon="-0.03988">
        <ele>2104.24</ele>
        <time>2017-04-20T12:13:51Z</time>
      </trkpt>
      <trkpt lat="42.78233" lon="-0.03976">
        <ele>2091.84</ele>
        <time>2017-04-20T12:13:55Z</time>
      </trkpt>
      <trkpt lat="42.78261" lon="-0.03949">
        <ele>2070.49</ele>
        <time>2017-04-20T12:14:02Z</time>
      </trkpt>
      <trkpt lat="42.78273" lon="-0.03926">
        <ele>2060.89</ele>
        <time>2017-04-20T12:14:06Z</time>
      </trkpt>
      <trkpt lat="42.7827" lon="-0.03919">
        <ele>2059.73</ele>
        <time>2017-04-20T12:14:14Z</time>
      </trkpt>
      <trkpt lat="42.7827" lon="-0.03917">
        <ele>2060.68</ele>
        <time>2017-04-20T12:14:35Z</time>
      </trkpt>
      <trkpt lat="42.78266" lon="-0.03901">
        <ele>2058.6</ele>
        <time>2017-04-20T12:14:40Z</time>
      </trkpt>
      <trkpt lat="42.7826" lon="-0.03824">
        <ele>2054.16</ele>
        <time>2017-04-20T12:14:53Z</time>
      </trkpt>
      <trkpt lat="42.78257" lon="-0.03801">
        <ele>2052.45</ele>
        <time>2017-04-20T12:15:01Z</time>
      </trkpt>
      <trkpt lat="42.78241" lon="-0.03761">
        <ele>2047.21</ele>
        <time>2017-04-20T12:15:08Z</time>
      </trkpt>
      <trkpt lat="42.78226" lon="-0.03715">
        <ele>2043.52</ele>
        <time>2017-04-20T12:15:18Z</time>
      </trkpt>
      <trkpt lat="42.78225" lon="-0.0371">
        <ele>2043.45</ele>
        <time>2017-04-20T12:15:19Z</time>
      </trkpt>
      <trkpt lat="42.78223" lon="-0.03698">
        <ele>2041.2</ele>
        <time>2017-04-20T12:15:21Z</time>
      </trkpt>
      <trkpt lat="42.78218" lon="-0.03651">
        <ele>2036.73</ele>
        <time>2017-04-20T12:15:32Z</time>
      </trkpt>
      <trkpt lat="42.78217" lon="-0.03614">
        <ele>2036.34</ele>
        <time>2017-04-20T12:15:42Z</time>
      </trkpt>
      <trkpt lat="42.78214" lon="-0.03558">
        <ele>2033.4</ele>
        <time>2017-04-20T12:15:55Z</time>
      </trkpt>
      <trkpt lat="42.78214" lon="-0.03547">
        <ele>2032.97</ele>
        <time>2017-04-20T12:15:57Z</time>
      </trkpt>
      <trkpt lat="42.78216" lon="-0.03535">
        <ele>2032.48</ele>
        <time>2017-04-20T12:15:59Z</time>
      </trkpt>
      <trkpt lat="42.78218" lon="-0.03504">
        <ele>2030.53</ele>
        <time>2017-04-20T12:16:04Z</time>
      </trkpt>
      <trkpt lat="42.7822" lon="-0.03491">
        <ele>2029.36</ele>
        <time>2017-04-20T12:16:07Z</time>
      </trkpt>
      <trkpt lat="42.78223" lon="-0.0348">
        <ele>2027.83</ele>
        <time>2017-04-20T12:16:09Z</time>
      </trkpt>
      <trkpt lat="42.78235" lon="-0.03459">
        <ele>2024.34</ele>
        <time>2017-04-20T12:16:12Z</time>
      </trkpt>
      <trkpt lat="42.78255" lon="-0.03438">
        <ele>2019.6</ele>
        <time>2017-04-20T12:16:15Z</time>
      </trkpt>
      <trkpt lat="42.78284" lon="-0.0341">
        <ele>2017.43</ele>
        <time>2017-04-20T12:16:21Z</time>
      </trkpt>
      <trkpt lat="42.78284" lon="-0.03409">
        <ele>2018.77</ele>
        <time>2017-04-20T12:16:37Z</time>
      </trkpt>
      <trkpt lat="42.78284" lon="-0.03408">
        <ele>2018.35</ele>
        <time>2017-04-20T12:17:14Z</time>
      </trkpt>
      <trkpt lat="42.78284" lon="-0.03409">
        <ele>2018.7</ele>
        <time>2017-04-20T12:17:35Z</time>
      </trkpt>
      <trkpt lat="42.78285" lon="-0.03408">
        <ele>2018.96</ele>
        <time>2017-04-20T12:18:00Z</time>
      </trkpt>
      <trkpt lat="42.7829" lon="-0.03396">
        <ele>2018.03</ele>
        <time>2017-04-20T12:18:05Z</time>
      </trkpt>
      <trkpt lat="42.78291" lon="-0.0338">
        <ele>2017.52</ele>
        <time>2017-04-20T12:18:09Z</time>
      </trkpt>
      <trkpt lat="42.783" lon="-0.0336">
        <ele>2014.08</ele>
        <time>2017-04-20T12:18:12Z</time>
      </trkpt>
      <trkpt lat="42.78317" lon="-0.03339">
        <ele>2013.8</ele>
        <time>2017-04-20T12:18:16Z</time>
      </trkpt>
      <trkpt lat="42.78323" lon="-0.03331">
        <ele>2012.83</ele>
        <time>2017-04-20T12:18:18Z</time>
      </trkpt>
      <trkpt lat="42.78328" lon="-0.0332">
        <ele>2011.92</ele>
        <time>2017-04-20T12:18:20Z</time>
      </trkpt>
      <trkpt lat="42.78364" lon="-0.03282">
        <ele>2006.88</ele>
        <time>2017-04-20T12:18:29Z</time>
      </trkpt>
      <trkpt lat="42.78379" lon="-0.03262">
        <ele>2005.12</ele>
        <time>2017-04-20T12:18:33Z</time>
      </trkpt>
      <trkpt lat="42.78393" lon="-0.03224">
        <ele>2005.93</ele>
        <time>2017-04-20T12:18:44Z</time>
      </trkpt>
      <trkpt lat="42.78394" lon="-0.03218">
        <ele>2007</ele>
        <time>2017-04-20T12:18:51Z</time>
      </trkpt>
      <trkpt lat="42.78402" lon="-0.03202">
        <ele>2005.13</ele>
        <time>2017-04-20T12:18:57Z</time>
      </trkpt>
      <trkpt lat="42.78417" lon="-0.03167">
        <ele>2003.82</ele>
        <time>2017-04-20T12:19:04Z</time>
      </trkpt>
      <trkpt lat="42.78429" lon="-0.03153">
        <ele>2002.8</ele>
        <time>2017-04-20T12:19:08Z</time>
      </trkpt>
      <trkpt lat="42.78465" lon="-0.03128">
        <ele>1998.14</ele>
        <time>2017-04-20T12:19:18Z</time>
      </trkpt>
      <trkpt lat="42.78531" lon="-0.03101">
        <ele>1992.66</ele>
        <time>2017-04-20T12:19:31Z</time>
      </trkpt>
      <trkpt lat="42.78558" lon="-0.03084">
        <ele>1988.05</ele>
        <time>2017-04-20T12:19:41Z</time>
      </trkpt>
      <trkpt lat="42.78591" lon="-0.03058">
        <ele>1982.1</ele>
        <time>2017-04-20T12:19:47Z</time>
      </trkpt>
      <trkpt lat="42.78631" lon="-0.03012">
        <ele>1978.65</ele>
        <time>2017-04-20T12:19:57Z</time>
      </trkpt>
      <trkpt lat="42.78632" lon="-0.0301">
        <ele>1978.96</ele>
        <time>2017-04-20T12:20:02Z</time>
      </trkpt>
      <trkpt lat="42.78647" lon="-0.03038">
        <ele>1968.66</ele>
        <time>2017-04-20T12:20:08Z</time>
      </trkpt>
      <trkpt lat="42.78676" lon="-0.03033">
        <ele>1959.21</ele>
        <time>2017-04-20T12:20:12Z</time>
      </trkpt>
      <trkpt lat="42.78697" lon="-0.03013">
        <ele>1950.72</ele>
        <time>2017-04-20T12:20:16Z</time>
      </trkpt>
      <trkpt lat="42.78719" lon="-0.02994">
        <ele>1942.76</ele>
        <time>2017-04-20T12:20:20Z</time>
      </trkpt>
      <trkpt lat="42.78726" lon="-0.02979">
        <ele>1940.55</ele>
        <time>2017-04-20T12:20:22Z</time>
      </trkpt>
      <trkpt lat="42.78758" lon="-0.02948">
        <ele>1929.48</ele>
        <time>2017-04-20T12:20:28Z</time>
      </trkpt>
      <trkpt lat="42.78766" lon="-0.0293">
        <ele>1927.25</ele>
        <time>2017-04-20T12:20:30Z</time>
      </trkpt>
      <trkpt lat="42.78794" lon="-0.02922">
        <ele>1917.14</ele>
        <time>2017-04-20T12:20:35Z</time>
      </trkpt>
      <trkpt lat="42.78821" lon="-0.02924">
        <ele>1906.96</ele>
        <time>2017-04-20T12:20:40Z</time>
      </trkpt>
      <trkpt lat="42.78848" lon="-0.0292">
        <ele>1896.24</ele>
        <time>2017-04-20T12:20:44Z</time>
      </trkpt>
      <trkpt lat="42.78879" lon="-0.02922">
        <ele>1889.59</ele>
        <time>2017-04-20T12:20:51Z</time>
      </trkpt>
      <trkpt lat="42.78878" lon="-0.02921">
        <ele>1889.66</ele>
        <time>2017-04-20T12:21:14Z</time>
      </trkpt>
      <trkpt lat="42.78878" lon="-0.02922">
        <ele>1889.7</ele>
        <time>2017-04-20T12:21:48Z</time>
      </trkpt>
      <trkpt lat="42.78877" lon="-0.02922">
        <ele>1889.33</ele>
        <time>2017-04-20T12:22:00Z</time>
      </trkpt>
      <trkpt lat="42.78877" lon="-0.02942">
        <ele>1885.7</ele>
        <time>2017-04-20T12:22:06Z</time>
      </trkpt>
      <trkpt lat="42.78872" lon="-0.02947">
        <ele>1885.77</ele>
        <time>2017-04-20T12:22:08Z</time>
      </trkpt>
      <trkpt lat="42.7887" lon="-0.02958">
        <ele>1883.54</ele>
        <time>2017-04-20T12:22:22Z</time>
      </trkpt>
      <trkpt lat="42.78868" lon="-0.02964">
        <ele>1883.01</ele>
        <time>2017-04-20T12:22:34Z</time>
      </trkpt>
      <trkpt lat="42.78864" lon="-0.0298">
        <ele>1881.36</ele>
        <time>2017-04-20T12:22:39Z</time>
      </trkpt>
      <trkpt lat="42.78866" lon="-0.03019">
        <ele>1875.66</ele>
        <time>2017-04-20T12:22:50Z</time>
      </trkpt>
      <trkpt lat="42.78883" lon="-0.03024">
        <ele>1863.03</ele>
        <time>2017-04-20T12:22:56Z</time>
      </trkpt>
      <trkpt lat="42.78898" lon="-0.03032">
        <ele>1852.5</ele>
        <time>2017-04-20T12:23:01Z</time>
      </trkpt>
      <trkpt lat="42.7891" lon="-0.03033">
        <ele>1842.47</ele>
        <time>2017-04-20T12:23:06Z</time>
      </trkpt>
      <trkpt lat="42.78926" lon="-0.03041">
        <ele>1831.01</ele>
        <time>2017-04-20T12:23:12Z</time>
      </trkpt>
      <trkpt lat="42.78938" lon="-0.03055">
        <ele>1816.95</ele>
        <time>2017-04-20T12:23:17Z</time>
      </trkpt>
      <trkpt lat="42.78941" lon="-0.03063">
        <ele>1812.27</ele>
        <time>2017-04-20T12:23:19Z</time>
      </trkpt>
      <trkpt lat="42.78951" lon="-0.03081">
        <ele>1802.77</ele>
        <time>2017-04-20T12:23:27Z</time>
      </trkpt>
      <trkpt lat="42.78957" lon="-0.0309">
        <ele>1798</ele>
        <time>2017-04-20T12:23:34Z</time>
      </trkpt>
      <trkpt lat="42.78962" lon="-0.03093">
        <ele>1795.92</ele>
        <time>2017-04-20T12:23:50Z</time>
      </trkpt>
      <trkpt lat="42.78965" lon="-0.03098">
        <ele>1793.07</ele>
        <time>2017-04-20T12:24:04Z</time>
      </trkpt>
      <trkpt lat="42.78968" lon="-0.03103">
        <ele>1791.05</ele>
        <time>2017-04-20T12:24:16Z</time>
      </trkpt>
      <trkpt lat="42.78975" lon="-0.03106">
        <ele>1787.6</ele>
        <time>2017-04-20T12:24:30Z</time>
      </trkpt>
      <trkpt lat="42.78976" lon="-0.03105">
        <ele>1785.99</ele>
        <time>2017-04-20T12:24:46Z</time>
      </trkpt>
      <trkpt lat="42.78976" lon="-0.03104">
        <ele>1783.89</ele>
        <time>2017-04-20T12:24:59Z</time>
      </trkpt>
      <trkpt lat="42.78977" lon="-0.03106">
        <ele>1785.01</ele>
        <time>2017-04-20T12:25:17Z</time>
      </trkpt>
      <trkpt lat="42.78976" lon="-0.03105">
        <ele>1784.28</ele>
        <time>2017-04-20T12:25:35Z</time>
      </trkpt>
      <trkpt lat="42.78977" lon="-0.03105">
        <ele>1784.83</ele>
        <time>2017-04-20T12:25:49Z</time>
      </trkpt>
      <trkpt lat="42.78979" lon="-0.03106">
        <ele>1784.54</ele>
        <time>2017-04-20T12:25:51Z</time>
      </trkpt>
      <trkpt lat="42.78985" lon="-0.03109">
        <ele>1784.18</ele>
        <time>2017-04-20T12:26:00Z</time>
      </trkpt>
      <trkpt lat="42.78988" lon="-0.03107">
        <ele>1783.49</ele>
        <time>2017-04-20T12:26:04Z</time>
      </trkpt>
      <trkpt lat="42.78994" lon="-0.03106">
        <ele>1781.7</ele>
        <time>2017-04-20T12:26:08Z</time>
      </trkpt>
      <trkpt lat="42.79005" lon="-0.03103">
        <ele>1777.59</ele>
        <time>2017-04-20T12:26:16Z</time>
      </trkpt>
      <trkpt lat="42.79007" lon="-0.03103">
        <ele>1776.41</ele>
        <time>2017-04-20T12:26:18Z</time>
      </trkpt>
      <trkpt lat="42.79013" lon="-0.03103">
        <ele>1774.35</ele>
        <time>2017-04-20T12:26:22Z</time>
      </trkpt>
      <trkpt lat="42.79019" lon="-0.03103">
        <ele>1771.58</ele>
        <time>2017-04-20T12:26:26Z</time>
      </trkpt>
      <trkpt lat="42.79033" lon="-0.03105">
        <ele>1765.57</ele>
        <time>2017-04-20T12:26:37Z</time>
      </trkpt>
      <trkpt lat="42.79039" lon="-0.03104">
        <ele>1764.11</ele>
        <time>2017-04-20T12:26:43Z</time>
      </trkpt>
      <trkpt lat="42.79042" lon="-0.03104">
        <ele>1763.63</ele>
        <time>2017-04-20T12:26:46Z</time>
      </trkpt>
      <trkpt lat="42.79046" lon="-0.031">
        <ele>1763.65</ele>
        <time>2017-04-20T12:26:52Z</time>
      </trkpt>
      <trkpt lat="42.7905" lon="-0.03097">
        <ele>1763.11</ele>
        <time>2017-04-20T12:26:57Z</time>
      </trkpt>
      <trkpt lat="42.79051" lon="-0.03096">
        <ele>1762.1</ele>
        <time>2017-04-20T12:27:12Z</time>
      </trkpt>
      <trkpt lat="42.7905" lon="-0.03096">
        <ele>1760.37</ele>
        <time>2017-04-20T12:27:25Z</time>
      </trkpt>
      <trkpt lat="42.7905" lon="-0.03096">
        <ele>1757.73</ele>
        <time>2017-04-20T12:28:02Z</time>
      </trkpt>
      <trkpt lat="42.7905" lon="-0.03095">
        <ele>1757.83</ele>
        <time>2017-04-20T12:28:47Z</time>
      </trkpt>
      <trkpt lat="42.7905" lon="-0.03093">
        <ele>1758.59</ele>
        <time>2017-04-20T12:28:59Z</time>
      </trkpt>
      <trkpt lat="42.79057" lon="-0.0309">
        <ele>1758.1</ele>
        <time>2017-04-20T12:29:05Z</time>
      </trkpt>
      <trkpt lat="42.79062" lon="-0.03088">
        <ele>1758.23</ele>
        <time>2017-04-20T12:29:09Z</time>
      </trkpt>
      <trkpt lat="42.79072" lon="-0.03084">
        <ele>1757.97</ele>
        <time>2017-04-20T12:29:17Z</time>
      </trkpt>
      <trkpt lat="42.79091" lon="-0.03074">
        <ele>1755.59</ele>
        <time>2017-04-20T12:29:35Z</time>
      </trkpt>
      <trkpt lat="42.79101" lon="-0.0306">
        <ele>1754.11</ele>
        <time>2017-04-20T12:29:51Z</time>
      </trkpt>
      <trkpt lat="42.7911" lon="-0.03051">
        <ele>1753.05</ele>
        <time>2017-04-20T12:30:01Z</time>
      </trkpt>
      <trkpt lat="42.79127" lon="-0.03045">
        <ele>1753.46</ele>
        <time>2017-04-20T12:30:20Z</time>
      </trkpt>
      <trkpt lat="42.79127" lon="-0.03046">
        <ele>1754.37</ele>
        <time>2017-04-20T12:30:51Z</time>
      </trkpt>
      <trkpt lat="42.79126" lon="-0.03046">
        <ele>1753.52</ele>
        <time>2017-04-20T12:31:36Z</time>
      </trkpt>
      <trkpt lat="42.79129" lon="-0.03043">
        <ele>1756.28</ele>
        <time>2017-04-20T12:32:04Z</time>
      </trkpt>
      <trkpt lat="42.7913" lon="-0.03044">
        <ele>1757.58</ele>
        <time>2017-04-20T12:33:04Z</time>
      </trkpt>
      <trkpt lat="42.79131" lon="-0.03042">
        <ele>1756.4</ele>
        <time>2017-04-20T12:33:46Z</time>
      </trkpt>
      <trkpt lat="42.79133" lon="-0.0304">
        <ele>1755.82</ele>
        <time>2017-04-20T12:34:07Z</time>
      </trkpt>
      <trkpt lat="42.79135" lon="-0.03036">
        <ele>1754.76</ele>
        <time>2017-04-20T12:34:25Z</time>
      </trkpt>
      <trkpt lat="42.79136" lon="-0.03036">
        <ele>1754.61</ele>
        <time>2017-04-20T12:34:26Z</time>
      </trkpt>
      <trkpt lat="42.79138" lon="-0.03034">
        <ele>1753.91</ele>
        <time>2017-04-20T12:34:29Z</time>
      </trkpt>
      <trkpt lat="42.79148" lon="-0.03024">
        <ele>1753.07</ele>
        <time>2017-04-20T12:34:42Z</time>
      </trkpt>
      <trkpt lat="42.79159" lon="-0.0301">
        <ele>1751.63</ele>
        <time>2017-04-20T12:34:57Z</time>
      </trkpt>
      <trkpt lat="42.79176" lon="-0.02989">
        <ele>1748.49</ele>
        <time>2017-04-20T12:35:17Z</time>
      </trkpt>
      <trkpt lat="42.79193" lon="-0.02974">
        <ele>1745.44</ele>
        <time>2017-04-20T12:35:34Z</time>
      </trkpt>
      <trkpt lat="42.79195" lon="-0.02972">
        <ele>1745.24</ele>
        <time>2017-04-20T12:35:37Z</time>
      </trkpt>
      <trkpt lat="42.7921" lon="-0.0296">
        <ele>1743.48</ele>
        <time>2017-04-20T12:35:52Z</time>
      </trkpt>
      <trkpt lat="42.79214" lon="-0.02953">
        <ele>1742.52</ele>
        <time>2017-04-20T12:36:01Z</time>
      </trkpt>
      <trkpt lat="42.79223" lon="-0.02935">
        <ele>1740.86</ele>
        <time>2017-04-20T12:36:16Z</time>
      </trkpt>
      <trkpt lat="42.79233" lon="-0.02923">
        <ele>1737.53</ele>
        <time>2017-04-20T12:36:31Z</time>
      </trkpt>
      <trkpt lat="42.79239" lon="-0.02912">
        <ele>1738.27</ele>
        <time>2017-04-20T12:36:45Z</time>
      </trkpt>
      <trkpt lat="42.79244" lon="-0.02908">
        <ele>1740.21</ele>
        <time>2017-04-20T12:36:58Z</time>
      </trkpt>
      <trkpt lat="42.79244" lon="-0.02908">
        <ele>1740.12</ele>
        <time>2017-04-20T12:37:04Z</time>
      </trkpt>
      <trkpt lat="42.79258" lon="-0.02892">
        <ele>1740.2</ele>
        <time>2017-04-20T12:37:20Z</time>
      </trkpt>
      <trkpt lat="42.7926" lon="-0.02889">
        <ele>1739.85</ele>
        <time>2017-04-20T12:37:25Z</time>
      </trkpt>
      <trkpt lat="42.79264" lon="-0.0288">
        <ele>1739.93</ele>
        <time>2017-04-20T12:37:33Z</time>
      </trkpt>
      <trkpt lat="42.79273" lon="-0.02866">
        <ele>1738.01</ele>
        <time>2017-04-20T12:37:44Z</time>
      </trkpt>
      <trkpt lat="42.79277" lon="-0.02864">
        <ele>1736.26</ele>
        <time>2017-04-20T12:37:48Z</time>
      </trkpt>
      <trkpt lat="42.79278" lon="-0.02863">
        <ele>1735.91</ele>
        <time>2017-04-20T12:37:50Z</time>
      </trkpt>
      <trkpt lat="42.79283" lon="-0.02864">
        <ele>1734.5</ele>
        <time>2017-04-20T12:37:55Z</time>
      </trkpt>
      <trkpt lat="42.79287" lon="-0.0286">
        <ele>1732.81</ele>
        <time>2017-04-20T12:38:00Z</time>
      </trkpt>
      <trkpt lat="42.79295" lon="-0.02858">
        <ele>1728.46</ele>
        <time>2017-04-20T12:38:14Z</time>
      </trkpt>
      <trkpt lat="42.79298" lon="-0.02857">
        <ele>1727.97</ele>
        <time>2017-04-20T12:38:17Z</time>
      </trkpt>
      <trkpt lat="42.79315" lon="-0.02866">
        <ele>1718.76</ele>
        <time>2017-04-20T12:38:26Z</time>
      </trkpt>
      <trkpt lat="42.79318" lon="-0.02866">
        <ele>1716.65</ele>
        <time>2017-04-20T12:38:28Z</time>
      </trkpt>
      <trkpt lat="42.79321" lon="-0.02866">
        <ele>1715.3</ele>
        <time>2017-04-20T12:38:30Z</time>
      </trkpt>
      <trkpt lat="42.79328" lon="-0.02863">
        <ele>1711.66</ele>
        <time>2017-04-20T12:38:37Z</time>
      </trkpt>
      <trkpt lat="42.79344" lon="-0.02858">
        <ele>1704.24</ele>
        <time>2017-04-20T12:38:52Z</time>
      </trkpt>
      <trkpt lat="42.79349" lon="-0.02864">
        <ele>1701.04</ele>
        <time>2017-04-20T12:39:02Z</time>
      </trkpt>
      <trkpt lat="42.79355" lon="-0.02869">
        <ele>1697.34</ele>
        <time>2017-04-20T12:39:13Z</time>
      </trkpt>
      <trkpt lat="42.79356" lon="-0.02877">
        <ele>1695.43</ele>
        <time>2017-04-20T12:39:25Z</time>
      </trkpt>
      <trkpt lat="42.79365" lon="-0.0288">
        <ele>1691.75</ele>
        <time>2017-04-20T12:39:38Z</time>
      </trkpt>
      <trkpt lat="42.79367" lon="-0.0288">
        <ele>1691.1</ele>
        <time>2017-04-20T12:39:40Z</time>
      </trkpt>
      <trkpt lat="42.7937" lon="-0.02877">
        <ele>1690.59</ele>
        <time>2017-04-20T12:39:44Z</time>
      </trkpt>
      <trkpt lat="42.79382" lon="-0.02874">
        <ele>1686.44</ele>
        <time>2017-04-20T12:40:00Z</time>
      </trkpt>
      <trkpt lat="42.79384" lon="-0.02871">
        <ele>1686.2</ele>
        <time>2017-04-20T12:40:03Z</time>
      </trkpt>
      <trkpt lat="42.79392" lon="-0.02865">
        <ele>1684.86</ele>
        <time>2017-04-20T12:40:17Z</time>
      </trkpt>
      <trkpt lat="42.79397" lon="-0.02855">
        <ele>1684.19</ele>
        <time>2017-04-20T12:40:29Z</time>
      </trkpt>
      <trkpt lat="42.79409" lon="-0.02848">
        <ele>1679.08</ele>
        <time>2017-04-20T12:40:47Z</time>
      </trkpt>
      <trkpt lat="42.79416" lon="-0.02838">
        <ele>1672.67</ele>
        <time>2017-04-20T12:41:03Z</time>
      </trkpt>
      <trkpt lat="42.79424" lon="-0.02831">
        <ele>1667.93</ele>
        <time>2017-04-20T12:41:18Z</time>
      </trkpt>
      <trkpt lat="42.7943" lon="-0.02824">
        <ele>1666.74</ele>
        <time>2017-04-20T12:41:33Z</time>
      </trkpt>
      <trkpt lat="42.7944" lon="-0.02813">
        <ele>1665.23</ele>
        <time>2017-04-20T12:41:51Z</time>
      </trkpt>
      <trkpt lat="42.79448" lon="-0.02808">
        <ele>1665.23</ele>
        <time>2017-04-20T12:42:06Z</time>
      </trkpt>
      <trkpt lat="42.79453" lon="-0.02794">
        <ele>1664.32</ele>
        <time>2017-04-20T12:42:24Z</time>
      </trkpt>
      <trkpt lat="42.79457" lon="-0.02782">
        <ele>1663.27</ele>
        <time>2017-04-20T12:42:42Z</time>
      </trkpt>
      <trkpt lat="42.79466" lon="-0.02766">
        <ele>1661.47</ele>
        <time>2017-04-20T12:43:01Z</time>
      </trkpt>
      <trkpt lat="42.79475" lon="-0.02754">
        <ele>1659.38</ele>
        <time>2017-04-20T12:43:16Z</time>
      </trkpt>
      <trkpt lat="42.79483" lon="-0.02748">
        <ele>1657.28</ele>
        <time>2017-04-20T12:43:30Z</time>
      </trkpt>
      <trkpt lat="42.7949" lon="-0.02743">
        <ele>1653.61</ele>
        <time>2017-04-20T12:43:44Z</time>
      </trkpt>
      <trkpt lat="42.79493" lon="-0.02739">
        <ele>1649.43</ele>
        <time>2017-04-20T12:44:05Z</time>
      </trkpt>
      <trkpt lat="42.79493" lon="-0.02736">
        <ele>1646.7</ele>
        <time>2017-04-20T12:44:30Z</time>
      </trkpt>
      <trkpt lat="42.79492" lon="-0.02735">
        <ele>1644.57</ele>
        <time>2017-04-20T12:44:48Z</time>
      </trkpt>
      <trkpt lat="42.79494" lon="-0.02723">
        <ele>1639.78</ele>
        <time>2017-04-20T12:45:05Z</time>
      </trkpt>
      <trkpt lat="42.79499" lon="-0.02706">
        <ele>1638.45</ele>
        <time>2017-04-20T12:45:22Z</time>
      </trkpt>
      <trkpt lat="42.79506" lon="-0.0269">
        <ele>1637.15</ele>
        <time>2017-04-20T12:45:38Z</time>
      </trkpt>
      <trkpt lat="42.79511" lon="-0.02682">
        <ele>1636.65</ele>
        <time>2017-04-20T12:45:55Z</time>
      </trkpt>
      <trkpt lat="42.79511" lon="-0.0268">
        <ele>1635.5</ele>
        <time>2017-04-20T12:46:02Z</time>
      </trkpt>
      <trkpt lat="42.79514" lon="-0.02675">
        <ele>1632.44</ele>
        <time>2017-04-20T12:46:08Z</time>
      </trkpt>
      <trkpt lat="42.79522" lon="-0.02673">
        <ele>1628.41</ele>
        <time>2017-04-20T12:46:15Z</time>
      </trkpt>
      <trkpt lat="42.79525" lon="-0.02671">
        <ele>1626.52</ele>
        <time>2017-04-20T12:46:18Z</time>
      </trkpt>
      <trkpt lat="42.79529" lon="-0.02665">
        <ele>1624.12</ele>
        <time>2017-04-20T12:46:24Z</time>
      </trkpt>
      <trkpt lat="42.79529" lon="-0.02661">
        <ele>1623.19</ele>
        <time>2017-04-20T12:46:27Z</time>
      </trkpt>
      <trkpt lat="42.79528" lon="-0.02648">
        <ele>1622.52</ele>
        <time>2017-04-20T12:46:40Z</time>
      </trkpt>
      <trkpt lat="42.79531" lon="-0.02628">
        <ele>1624.74</ele>
        <time>2017-04-20T12:46:57Z</time>
      </trkpt>
      <trkpt lat="42.79532" lon="-0.02616">
        <ele>1625.54</ele>
        <time>2017-04-20T12:47:08Z</time>
      </trkpt>
      <trkpt lat="42.79531" lon="-0.02594">
        <ele>1625.03</ele>
        <time>2017-04-20T12:47:25Z</time>
      </trkpt>
      <trkpt lat="42.79533" lon="-0.02572">
        <ele>1622.67</ele>
        <time>2017-04-20T12:47:41Z</time>
      </trkpt>
      <trkpt lat="42.79532" lon="-0.02555">
        <ele>1621.8</ele>
        <time>2017-04-20T12:47:57Z</time>
      </trkpt>
      <trkpt lat="42.79532" lon="-0.02543">
        <ele>1621.45</ele>
        <time>2017-04-20T12:48:12Z</time>
      </trkpt>
      <trkpt lat="42.79534" lon="-0.02538">
        <ele>1620.1</ele>
        <time>2017-04-20T12:48:17Z</time>
      </trkpt>
      <trkpt lat="42.79535" lon="-0.02532">
        <ele>1618.51</ele>
        <time>2017-04-20T12:48:21Z</time>
      </trkpt>
      <trkpt lat="42.79534" lon="-0.02508">
        <ele>1611.35</ele>
        <time>2017-04-20T12:48:36Z</time>
      </trkpt>
      <trkpt lat="42.79534" lon="-0.02499">
        <ele>1606.85</ele>
        <time>2017-04-20T12:48:42Z</time>
      </trkpt>
      <trkpt lat="42.79535" lon="-0.02493">
        <ele>1603.49</ele>
        <time>2017-04-20T12:48:46Z</time>
      </trkpt>
      <trkpt lat="42.79534" lon="-0.02476">
        <ele>1594.16</ele>
        <time>2017-04-20T12:48:58Z</time>
      </trkpt>
      <trkpt lat="42.79533" lon="-0.02475">
        <ele>1593.1</ele>
        <time>2017-04-20T12:48:59Z</time>
      </trkpt>
      <trkpt lat="42.79533" lon="-0.02458">
        <ele>1585.25</ele>
        <time>2017-04-20T12:49:13Z</time>
      </trkpt>
      <trkpt lat="42.7953" lon="-0.02434">
        <ele>1573.23</ele>
        <time>2017-04-20T12:49:28Z</time>
      </trkpt>
      <trkpt lat="42.79527" lon="-0.02428">
        <ele>1569.01</ele>
        <time>2017-04-20T12:49:33Z</time>
      </trkpt>
      <trkpt lat="42.79525" lon="-0.02421">
        <ele>1566.27</ele>
        <time>2017-04-20T12:49:38Z</time>
      </trkpt>
      <trkpt lat="42.7953" lon="-0.02409">
        <ele>1561.32</ele>
        <time>2017-04-20T12:49:50Z</time>
      </trkpt>
      <trkpt lat="42.79532" lon="-0.024">
        <ele>1560.41</ele>
        <time>2017-04-20T12:49:58Z</time>
      </trkpt>
      <trkpt lat="42.79533" lon="-0.02395">
        <ele>1559.08</ele>
        <time>2017-04-20T12:50:01Z</time>
      </trkpt>
      <trkpt lat="42.79531" lon="-0.02373">
        <ele>1556.49</ele>
        <time>2017-04-20T12:50:18Z</time>
      </trkpt>
      <trkpt lat="42.7953" lon="-0.02366">
        <ele>1557.4</ele>
        <time>2017-04-20T12:50:45Z</time>
      </trkpt>
      <trkpt lat="42.79531" lon="-0.02366">
        <ele>1557.28</ele>
        <time>2017-04-20T12:50:46Z</time>
      </trkpt>
      <trkpt lat="42.79531" lon="-0.02362">
        <ele>1556.98</ele>
        <time>2017-04-20T12:50:49Z</time>
      </trkpt>
      <trkpt lat="42.79532" lon="-0.02342">
        <ele>1553.05</ele>
        <time>2017-04-20T12:51:02Z</time>
      </trkpt>
      <trkpt lat="42.79533" lon="-0.02336">
        <ele>1551.42</ele>
        <time>2017-04-20T12:51:07Z</time>
      </trkpt>
      <trkpt lat="42.79537" lon="-0.02325">
        <ele>1548.43</ele>
        <time>2017-04-20T12:51:16Z</time>
      </trkpt>
      <trkpt lat="42.79537" lon="-0.02317">
        <ele>1547.96</ele>
        <time>2017-04-20T12:51:21Z</time>
      </trkpt>
      <trkpt lat="42.79539" lon="-0.02315">
        <ele>1548.01</ele>
        <time>2017-04-20T12:51:23Z</time>
      </trkpt>
      <trkpt lat="42.79544" lon="-0.02312">
        <ele>1549.57</ele>
        <time>2017-04-20T12:51:28Z</time>
      </trkpt>
      <trkpt lat="42.79549" lon="-0.02289">
        <ele>1550.59</ele>
        <time>2017-04-20T12:51:44Z</time>
      </trkpt>
      <trkpt lat="42.79552" lon="-0.02273">
        <ele>1548.96</ele>
        <time>2017-04-20T12:51:54Z</time>
      </trkpt>
      <trkpt lat="42.79551" lon="-0.02253">
        <ele>1544.75</ele>
        <time>2017-04-20T12:52:08Z</time>
      </trkpt>
      <trkpt lat="42.79552" lon="-0.02243">
        <ele>1542.56</ele>
        <time>2017-04-20T12:52:15Z</time>
      </trkpt>
      <trkpt lat="42.79552" lon="-0.02224">
        <ele>1537.42</ele>
        <time>2017-04-20T12:52:28Z</time>
      </trkpt>
      <trkpt lat="42.79554" lon="-0.02215">
        <ele>1535.11</ele>
        <time>2017-04-20T12:52:35Z</time>
      </trkpt>
      <trkpt lat="42.79563" lon="-0.02214">
        <ele>1535.04</ele>
        <time>2017-04-20T12:52:44Z</time>
      </trkpt>
      <trkpt lat="42.79567" lon="-0.02208">
        <ele>1535.45</ele>
        <time>2017-04-20T12:52:49Z</time>
      </trkpt>
      <trkpt lat="42.79569" lon="-0.02206">
        <ele>1535.46</ele>
        <time>2017-04-20T12:52:51Z</time>
      </trkpt>
      <trkpt lat="42.79575" lon="-0.02205">
        <ele>1534.24</ele>
        <time>2017-04-20T12:52:57Z</time>
      </trkpt>
      <trkpt lat="42.79581" lon="-0.02203">
        <ele>1532.35</ele>
        <time>2017-04-20T12:53:02Z</time>
      </trkpt>
      <trkpt lat="42.79595" lon="-0.02186">
        <ele>1530.35</ele>
        <time>2017-04-20T12:53:19Z</time>
      </trkpt>
      <trkpt lat="42.79606" lon="-0.02165">
        <ele>1525.9</ele>
        <time>2017-04-20T12:53:35Z</time>
      </trkpt>
      <trkpt lat="42.79616" lon="-0.02138">
        <ele>1515.86</ele>
        <time>2017-04-20T12:53:52Z</time>
      </trkpt>
      <trkpt lat="42.79617" lon="-0.02135">
        <ele>1514.42</ele>
        <time>2017-04-20T12:53:54Z</time>
      </trkpt>
      <trkpt lat="42.7962" lon="-0.0212">
        <ele>1509.03</ele>
        <time>2017-04-20T12:54:05Z</time>
      </trkpt>
      <trkpt lat="42.79623" lon="-0.02115">
        <ele>1507.93</ele>
        <time>2017-04-20T12:54:09Z</time>
      </trkpt>
      <trkpt lat="42.79628" lon="-0.02112">
        <ele>1506.84</ele>
        <time>2017-04-20T12:54:13Z</time>
      </trkpt>
      <trkpt lat="42.79636" lon="-0.0211">
        <ele>1504.79</ele>
        <time>2017-04-20T12:54:20Z</time>
      </trkpt>
      <trkpt lat="42.79642" lon="-0.02105">
        <ele>1501.84</ele>
        <time>2017-04-20T12:54:25Z</time>
      </trkpt>
      <trkpt lat="42.79646" lon="-0.02091">
        <ele>1499.61</ele>
        <time>2017-04-20T12:54:33Z</time>
      </trkpt>
      <trkpt lat="42.79654" lon="-0.02087">
        <ele>1497.92</ele>
        <time>2017-04-20T12:54:40Z</time>
      </trkpt>
      <trkpt lat="42.79666" lon="-0.02081">
        <ele>1493.04</ele>
        <time>2017-04-20T12:54:53Z</time>
      </trkpt>
      <trkpt lat="42.79675" lon="-0.02063">
        <ele>1490.89</ele>
        <time>2017-04-20T12:55:08Z</time>
      </trkpt>
      <trkpt lat="42.79689" lon="-0.02046">
        <ele>1483.58</ele>
        <time>2017-04-20T12:55:23Z</time>
      </trkpt>
      <trkpt lat="42.79691" lon="-0.02024">
        <ele>1478.32</ele>
        <time>2017-04-20T12:55:38Z</time>
      </trkpt>
      <trkpt lat="42.79689" lon="-0.0201">
        <ele>1476.06</ele>
        <time>2017-04-20T12:55:47Z</time>
      </trkpt>
      <trkpt lat="42.79688" lon="-0.01995">
        <ele>1474.41</ele>
        <time>2017-04-20T12:55:57Z</time>
      </trkpt>
      <trkpt lat="42.79691" lon="-0.01985">
        <ele>1473.94</ele>
        <time>2017-04-20T12:56:04Z</time>
      </trkpt>
      <trkpt lat="42.79694" lon="-0.0196">
        <ele>1469.53</ele>
        <time>2017-04-20T12:56:21Z</time>
      </trkpt>
      <trkpt lat="42.79697" lon="-0.01933">
        <ele>1468.15</ele>
        <time>2017-04-20T12:56:38Z</time>
      </trkpt>
      <trkpt lat="42.79702" lon="-0.01918">
        <ele>1466.49</ele>
        <time>2017-04-20T12:56:51Z</time>
      </trkpt>
      <trkpt lat="42.79708" lon="-0.0191">
        <ele>1464.15</ele>
        <time>2017-04-20T12:57:00Z</time>
      </trkpt>
      <trkpt lat="42.79711" lon="-0.01886">
        <ele>1460.96</ele>
        <time>2017-04-20T12:57:15Z</time>
      </trkpt>
      <trkpt lat="42.79713" lon="-0.01868">
        <ele>1460.69</ele>
        <time>2017-04-20T12:57:28Z</time>
      </trkpt>
      <trkpt lat="42.79718" lon="-0.01853">
        <ele>1459.66</ele>
        <time>2017-04-20T12:57:39Z</time>
      </trkpt>
      <trkpt lat="42.79721" lon="-0.01843">
        <ele>1458.56</ele>
        <time>2017-04-20T12:57:46Z</time>
      </trkpt>
      <trkpt lat="42.79721" lon="-0.01832">
        <ele>1457.33</ele>
        <time>2017-04-20T12:57:53Z</time>
      </trkpt>
      <trkpt lat="42.79721" lon="-0.01825">
        <ele>1457.2</ele>
        <time>2017-04-20T12:57:58Z</time>
      </trkpt>
      <trkpt lat="42.79727" lon="-0.01794">
        <ele>1458.06</ele>
        <time>2017-04-20T12:58:18Z</time>
      </trkpt>
      <trkpt lat="42.79729" lon="-0.01774">
        <ele>1458.59</ele>
        <time>2017-04-20T12:58:33Z</time>
      </trkpt>
      <trkpt lat="42.79732" lon="-0.01765">
        <ele>1456.69</ele>
        <time>2017-04-20T12:58:41Z</time>
      </trkpt>
      <trkpt lat="42.79742" lon="-0.01756">
        <ele>1453.54</ele>
        <time>2017-04-20T12:58:54Z</time>
      </trkpt>
      <trkpt lat="42.79748" lon="-0.01747">
        <ele>1452.02</ele>
        <time>2017-04-20T12:59:04Z</time>
      </trkpt>
      <trkpt lat="42.7975" lon="-0.01742">
        <ele>1451.37</ele>
        <time>2017-04-20T12:59:08Z</time>
      </trkpt>
      <trkpt lat="42.79752" lon="-0.01735">
        <ele>1450.49</ele>
        <time>2017-04-20T12:59:13Z</time>
      </trkpt>
      <trkpt lat="42.79751" lon="-0.01718">
        <ele>1450.26</ele>
        <time>2017-04-20T12:59:30Z</time>
      </trkpt>
      <trkpt lat="42.79749" lon="-0.01714">
        <ele>1450.16</ele>
        <time>2017-04-20T12:59:45Z</time>
      </trkpt>
      <trkpt lat="42.79748" lon="-0.01713">
        <ele>1448.06</ele>
        <time>2017-04-20T13:00:13Z</time>
      </trkpt>
      <trkpt lat="42.79747" lon="-0.01714">
        <ele>1445.77</ele>
        <time>2017-04-20T13:00:48Z</time>
      </trkpt>
      <trkpt lat="42.79748" lon="-0.01713">
        <ele>1446.29</ele>
        <time>2017-04-20T13:01:39Z</time>
      </trkpt>
      <trkpt lat="42.79748" lon="-0.01714">
        <ele>1446.2</ele>
        <time>2017-04-20T13:02:30Z</time>
      </trkpt>
      <trkpt lat="42.79748" lon="-0.01715">
        <ele>1444.13</ele>
        <time>2017-04-20T13:03:25Z</time>
      </trkpt>
      <trkpt lat="42.79749" lon="-0.01715">
        <ele>1442.6</ele>
        <time>2017-04-20T13:04:09Z</time>
      </trkpt>
      <trkpt lat="42.79749" lon="-0.01713">
        <ele>1443.03</ele>
        <time>2017-04-20T13:04:40Z</time>
      </trkpt>
      <trkpt lat="42.79748" lon="-0.01713">
        <ele>1443.21</ele>
        <time>2017-04-20T13:05:21Z</time>
      </trkpt>
      <trkpt lat="42.7975" lon="-0.01714">
        <ele>1444.29</ele>
        <time>2017-04-20T13:05:44Z</time>
      </trkpt>
      <trkpt lat="42.79749" lon="-0.01714">
        <ele>1444.88</ele>
        <time>2017-04-20T13:06:35Z</time>
      </trkpt>
      <trkpt lat="42.7975" lon="-0.01712">
        <ele>1444</ele>
        <time>2017-04-20T13:07:27Z</time>
      </trkpt>
      <trkpt lat="42.79751" lon="-0.01712">
        <ele>1441.9</ele>
        <time>2017-04-20T13:08:23Z</time>
      </trkpt>
      <trkpt lat="42.79752" lon="-0.01714">
        <ele>1441.83</ele>
        <time>2017-04-20T13:09:01Z</time>
      </trkpt>
      <trkpt lat="42.79752" lon="-0.01713">
        <ele>1439.39</ele>
        <time>2017-04-20T13:09:20Z</time>
      </trkpt>
    </trkseg>
  </trk>
</gpx>